PWSweather.com
Personal Weather Stations
Station Observations
1A3COP
Copperhill Airport Community, Copperhill, TN 37317

Copperhill Airport CommunityCopperhill, TN 37317

Lat: 35.015465, Lon: -84.340598

Elevation: 1830

Station Type: Acurite Pro 5 in 1

High Low Average
Temperature 24.6°F-4.1°C 15.1°F-9.4°C 22.2°F-5.4°C
Dew Point 22.6°F-5.2°C 12.2°F-11.0°C 19.2°F-7.1°C
Winds 13.8 mph 22.2 kmh 2.3 mph 3.7 kmh 7.0 mph SW11.3 kmh SW
Wind Gusts 21.9 mph35.2 kmh 3.5 mph5.6 kmh 9.0 mph14.5 kmh
Humidity 96% 82% 88%
Pressure 28.55 in966.8 mb 28.05 in949.9 mb -
Precipitation 0.00 in0.0 mm - -
Hour Temp Dew Point Humidity Winds Wind Gusts Pressure Precip Precip Rate Daily Precip Total
12:00 AM 23.2°F-4.9°C 22.2°F-5.4°C 96% 3.5 mph N5.6 kmh N 4.6 mph7.4 kmh 28.07 in950.6 mb - 0.00 in0.0 mm 0.00 in0.0 mm
12:01 AM 23.2°F-4.9°C 22.2°F-5.4°C 96% 4.6 mph W7.4 kmh W 10.4 mph16.7 kmh 28.07 in950.6 mb - 0.00 in0.0 mm 0.00 in0.0 mm
12:02 AM 23.2°F-4.9°C 22.2°F-5.4°C 96% 6.9 mph NW11.1 kmh NW 10.4 mph16.7 kmh 28.07 in950.6 mb - 0.00 in0.0 mm 0.00 in0.0 mm
12:03 AM 23.2°F-4.9°C 22.2°F-5.4°C 96% 6.9 mph N11.1 kmh N 6.9 mph11.1 kmh 28.07 in950.6 mb - 0.00 in0.0 mm 0.00 in0.0 mm
12:04 AM 23.2°F-4.9°C 22.2°F-5.4°C 96% 5.8 mph NNW9.3 kmh NNW 8.1 mph13.0 kmh 28.07 in950.6 mb - 0.00 in0.0 mm 0.00 in0.0 mm
12:05 AM 23.2°F-4.9°C 22.2°F-5.4°C 96% 5.8 mph NNW9.3 kmh NNW 8.1 mph13.0 kmh 28.07 in950.6 mb - 0.00 in0.0 mm 0.00 in0.0 mm
12:06 AM 23.2°F-4.9°C 22.2°F-5.4°C 96% 4.6 mph NW7.4 kmh NW 5.8 mph9.3 kmh 28.07 in950.6 mb - 0.00 in0.0 mm 0.00 in0.0 mm
12:07 AM 23.2°F-4.9°C 22.2°F-5.4°C 96% 6.9 mph NNW11.1 kmh NNW 11.5 mph18.5 kmh 28.07 in950.6 mb - 0.00 in0.0 mm 0.00 in0.0 mm
12:08 AM 23.2°F-4.9°C 22.2°F-5.4°C 96% 8.1 mph N13.0 kmh N 9.2 mph14.8 kmh 28.07 in950.6 mb - 0.00 in0.0 mm 0.00 in0.0 mm
12:09 AM 23.2°F-4.9°C 22.2°F-5.4°C 96% 6.9 mph NW11.1 kmh NW 10.4 mph16.7 kmh 28.07 in950.6 mb - 0.00 in0.0 mm 0.00 in0.0 mm
12:10 AM 23.2°F-4.9°C 22.2°F-5.4°C 96% 9.2 mph NNW14.8 kmh NNW 9.2 mph14.8 kmh 28.07 in950.6 mb - 0.00 in0.0 mm 0.00 in0.0 mm
12:11 AM 23.2°F-4.9°C 22.2°F-5.4°C 96% 8.1 mph WNW13.0 kmh WNW 9.2 mph14.8 kmh 28.07 in950.6 mb - 0.00 in0.0 mm 0.00 in0.0 mm
12:12 AM 23.2°F-4.9°C 22.2°F-5.4°C 96% 8.1 mph NW13.0 kmh NW 11.5 mph18.5 kmh 28.07 in950.6 mb - 0.00 in0.0 mm 0.00 in0.0 mm
12:13 AM 23.2°F-4.9°C 22.2°F-5.4°C 96% 8.1 mph N13.0 kmh N 11.5 mph18.5 kmh 28.07 in950.6 mb - 0.00 in0.0 mm 0.00 in0.0 mm
12:14 AM 23.2°F-4.9°C 22.2°F-5.4°C 96% 6.9 mph N11.1 kmh N 5.8 mph9.3 kmh 28.07 in950.6 mb - 0.00 in0.0 mm 0.00 in0.0 mm
12:15 AM 23.2°F-4.9°C 22.2°F-5.4°C 96% 4.6 mph NE7.4 kmh NE 4.6 mph7.4 kmh 28.07 in950.6 mb - 0.00 in0.0 mm 0.00 in0.0 mm
12:16 AM 23.2°F-4.9°C 22.2°F-5.4°C 96% 5.8 mph NW9.3 kmh NW 10.4 mph16.7 kmh 28.07 in950.6 mb - 0.00 in0.0 mm 0.00 in0.0 mm
12:17 AM 23.2°F-4.9°C 22.2°F-5.4°C 96% 9.2 mph NNW14.8 kmh NNW 10.4 mph16.7 kmh 28.07 in950.6 mb - 0.00 in0.0 mm 0.00 in0.0 mm
12:18 AM 23.2°F-4.9°C 22.2°F-5.4°C 96% 4.6 mph NNW7.4 kmh NNW 4.6 mph7.4 kmh 28.07 in950.6 mb - 0.00 in0.0 mm 0.00 in0.0 mm
12:19 AM 23.2°F-4.9°C 22.2°F-5.4°C 96% 4.6 mph SE7.4 kmh SE 5.8 mph9.3 kmh 28.07 in950.6 mb - 0.00 in0.0 mm 0.00 in0.0 mm
12:20 AM 23.2°F-4.9°C 22.2°F-5.4°C 96% 3.5 mph WSW5.6 kmh WSW 3.5 mph5.6 kmh 28.07 in950.6 mb - 0.00 in0.0 mm 0.00 in0.0 mm
12:21 AM 23.3°F-4.8°C 22.4°F-5.3°C 96% 3.5 mph 5.6 kmh 5.8 mph9.3 kmh 28.07 in950.6 mb - 0.00 in0.0 mm 0.00 in0.0 mm
12:22 AM 23.4°F-4.8°C 22.4°F-5.3°C 96% 4.6 mph N7.4 kmh N 9.2 mph14.8 kmh 28.07 in950.6 mb - 0.00 in0.0 mm 0.00 in0.0 mm
12:23 AM 23.4°F-4.8°C 22.4°F-5.3°C 96% 8.1 mph NNW13.0 kmh NNW 10.4 mph16.7 kmh 28.07 in950.6 mb - 0.00 in0.0 mm 0.00 in0.0 mm
12:24 AM 23.4°F-4.8°C 22.4°F-5.3°C 96% 6.9 mph NW11.1 kmh NW 9.2 mph14.8 kmh 28.07 in950.6 mb - 0.00 in0.0 mm 0.00 in0.0 mm
12:25 AM 23.4°F-4.8°C 22.4°F-5.3°C 96% 8.1 mph NNW13.0 kmh NNW 8.1 mph13.0 kmh 28.07 in950.6 mb - 0.00 in0.0 mm 0.00 in0.0 mm
12:26 AM 23.4°F-4.8°C 22.4°F-5.3°C 96% 6.9 mph NNW11.1 kmh NNW 6.9 mph11.1 kmh 28.07 in950.6 mb - 0.00 in0.0 mm 0.00 in0.0 mm
12:27 AM 23.4°F-4.8°C 22.4°F-5.3°C 96% 5.8 mph SW9.3 kmh SW 12.7 mph20.4 kmh 28.07 in950.6 mb - 0.00 in0.0 mm 0.00 in0.0 mm
12:28 AM 23.4°F-4.8°C 22.4°F-5.3°C 96% 9.2 mph W14.8 kmh W 12.7 mph20.4 kmh 28.07 in950.6 mb - 0.00 in0.0 mm 0.00 in0.0 mm
12:29 AM 23.5°F-4.7°C 22.5°F-5.3°C 96% 5.8 mph NW9.3 kmh NW 5.8 mph9.3 kmh 28.07 in950.6 mb - 0.00 in0.0 mm 0.00 in0.0 mm
12:30 AM 23.5°F-4.7°C 22.5°F-5.3°C 96% 5.8 mph W9.3 kmh W 15.0 mph24.1 kmh 28.07 in950.6 mb - 0.00 in0.0 mm 0.00 in0.0 mm
12:31 AM 23.5°F-4.7°C 22.5°F-5.3°C 96% 10.4 mph NNW16.7 kmh NNW 15.0 mph24.1 kmh 28.07 in950.6 mb - 0.00 in0.0 mm 0.00 in0.0 mm
12:32 AM 23.5°F-4.7°C 22.5°F-5.3°C 96% 6.9 mph NNE11.1 kmh NNE 9.2 mph14.8 kmh 28.07 in950.6 mb - 0.00 in0.0 mm 0.00 in0.0 mm
12:33 AM 23.5°F-4.7°C 22.5°F-5.3°C 96% 4.6 mph N7.4 kmh N 8.1 mph13.0 kmh 28.07 in950.6 mb - 0.00 in0.0 mm 0.00 in0.0 mm
12:34 AM 23.5°F-4.7°C 22.5°F-5.3°C 96% 6.9 mph WSW11.1 kmh WSW 6.9 mph11.1 kmh 28.07 in950.6 mb - 0.00 in0.0 mm 0.00 in0.0 mm
12:35 AM 23.5°F-4.7°C 22.5°F-5.3°C 96% 8.1 mph NW13.0 kmh NW 15.0 mph24.1 kmh 28.07 in950.6 mb - 0.00 in0.0 mm 0.00 in0.0 mm
12:36 AM 23.5°F-4.7°C 22.3°F-5.4°C 95% 12.7 mph NW20.4 kmh NW 15.0 mph24.1 kmh 28.07 in950.6 mb - 0.00 in0.0 mm 0.00 in0.0 mm
12:37 AM 23.5°F-4.7°C 22.3°F-5.4°C 95% 10.4 mph WNW16.7 kmh WNW 10.4 mph16.7 kmh 28.07 in950.6 mb - 0.00 in0.0 mm 0.00 in0.0 mm
12:38 AM 23.5°F-4.7°C 22.3°F-5.4°C 95% 9.2 mph WNW14.8 kmh WNW 10.4 mph16.7 kmh 28.07 in950.6 mb - 0.00 in0.0 mm 0.00 in0.0 mm
12:39 AM 23.5°F-4.7°C 22.3°F-5.4°C 95% 6.9 mph N11.1 kmh N 12.7 mph20.4 kmh 28.07 in950.6 mb - 0.00 in0.0 mm 0.00 in0.0 mm
12:40 AM 23.5°F-4.7°C 22.3°F-5.4°C 95% 8.1 mph NW13.0 kmh NW 12.7 mph20.4 kmh 28.07 in950.6 mb - 0.00 in0.0 mm 0.00 in0.0 mm
12:41 AM 23.5°F-4.7°C 22.3°F-5.4°C 95% 10.4 mph NW16.7 kmh NW 12.7 mph20.4 kmh 28.07 in950.6 mb - 0.00 in0.0 mm 0.00 in0.0 mm
12:42 AM 23.5°F-4.7°C 22.3°F-5.4°C 95% 6.9 mph NW11.1 kmh NW 6.9 mph11.1 kmh 28.07 in950.6 mb - 0.00 in0.0 mm 0.00 in0.0 mm
12:43 AM 23.5°F-4.7°C 22.3°F-5.4°C 95% 5.8 mph N9.3 kmh N 9.2 mph14.8 kmh 28.07 in950.6 mb - 0.00 in0.0 mm 0.00 in0.0 mm
12:44 AM 23.5°F-4.7°C 22.3°F-5.4°C 95% 6.9 mph N11.1 kmh N 8.1 mph13.0 kmh 28.07 in950.6 mb - 0.00 in0.0 mm 0.00 in0.0 mm
12:45 AM 23.5°F-4.7°C 22.3°F-5.4°C 95% 5.8 mph N9.3 kmh N 5.8 mph9.3 kmh 28.07 in950.6 mb - 0.00 in0.0 mm 0.00 in0.0 mm
12:46 AM 23.5°F-4.7°C 22.3°F-5.4°C 95% 5.8 mph NNW9.3 kmh NNW 9.2 mph14.8 kmh 28.07 in950.6 mb - 0.00 in0.0 mm 0.00 in0.0 mm
12:47 AM 23.5°F-4.7°C 22.3°F-5.4°C 95% 8.1 mph N13.0 kmh N 10.4 mph16.7 kmh 28.07 in950.6 mb - 0.00 in0.0 mm 0.00 in0.0 mm
12:48 AM 23.5°F-4.7°C 22.3°F-5.4°C 95% 8.1 mph N13.0 kmh N 10.4 mph16.7 kmh 28.07 in950.6 mb - 0.00 in0.0 mm 0.00 in0.0 mm
12:49 AM 23.5°F-4.7°C 22.3°F-5.4°C 95% 9.2 mph NW14.8 kmh NW 9.2 mph14.8 kmh 28.07 in950.6 mb - 0.00 in0.0 mm 0.00 in0.0 mm
12:50 AM 23.5°F-4.7°C 22.3°F-5.4°C 95% 8.1 mph NNW13.0 kmh NNW 8.1 mph13.0 kmh 28.07 in950.6 mb - 0.00 in0.0 mm 0.00 in0.0 mm
12:51 AM 23.5°F-4.7°C 22.3°F-5.4°C 95% 6.9 mph NW11.1 kmh NW 8.1 mph13.0 kmh 28.07 in950.6 mb - 0.00 in0.0 mm 0.00 in0.0 mm
12:52 AM 23.5°F-4.7°C 22.3°F-5.4°C 95% 6.9 mph WNW11.1 kmh WNW 10.4 mph16.7 kmh 28.07 in950.6 mb - 0.00 in0.0 mm 0.00 in0.0 mm
12:53 AM 23.5°F-4.7°C 22.3°F-5.4°C 95% 6.9 mph NW11.1 kmh NW 10.4 mph16.7 kmh 28.07 in950.6 mb - 0.00 in0.0 mm 0.00 in0.0 mm
12:54 AM 23.7°F-4.6°C 22.5°F-5.3°C 95% 6.9 mph NW11.1 kmh NW 10.4 mph16.7 kmh 28.07 in950.6 mb - 0.00 in0.0 mm 0.00 in0.0 mm
12:55 AM 23.7°F-4.6°C 22.5°F-5.3°C 95% 6.9 mph N11.1 kmh N 10.4 mph16.7 kmh 28.07 in950.6 mb - 0.00 in0.0 mm 0.00 in0.0 mm
12:56 AM 23.7°F-4.6°C 22.5°F-5.3°C 95% 8.1 mph NNW13.0 kmh NNW 15.0 mph24.1 kmh 28.07 in950.6 mb - 0.00 in0.0 mm 0.00 in0.0 mm
12:57 AM 23.7°F-4.6°C 22.2°F-5.4°C 94% 11.5 mph NNW18.5 kmh NNW 13.8 mph22.2 kmh 28.07 in950.6 mb - 0.00 in0.0 mm 0.00 in0.0 mm
12:58 AM 23.7°F-4.6°C 22.2°F-5.4°C 94% 5.8 mph N9.3 kmh N 5.8 mph9.3 kmh 28.07 in950.6 mb - 0.00 in0.0 mm 0.00 in0.0 mm
12:59 AM 23.7°F-4.6°C 22.2°F-5.4°C 94% 4.6 mph N7.4 kmh N 8.1 mph13.0 kmh 28.07 in950.6 mb - 0.00 in0.0 mm 0.00 in0.0 mm
01:00 AM 23.7°F-4.6°C 22.2°F-5.4°C 94% 5.8 mph NW9.3 kmh NW 8.1 mph13.0 kmh 28.07 in950.6 mb - 0.00 in0.0 mm 0.00 in0.0 mm
01:01 AM 23.7°F-4.6°C 22.2°F-5.4°C 94% 6.9 mph NNW11.1 kmh NNW 8.1 mph13.0 kmh 28.07 in950.6 mb - 0.00 in0.0 mm 0.00 in0.0 mm
01:02 AM 23.7°F-4.6°C 22.2°F-5.4°C 94% 5.8 mph NW9.3 kmh NW 6.9 mph11.1 kmh 28.07 in950.6 mb - 0.00 in0.0 mm 0.00 in0.0 mm
01:03 AM 23.7°F-4.6°C 22.2°F-5.4°C 94% 5.8 mph N9.3 kmh N 8.1 mph13.0 kmh 28.07 in950.6 mb - 0.00 in0.0 mm 0.00 in0.0 mm
01:04 AM 23.7°F-4.6°C 22.2°F-5.4°C 94% 6.9 mph NW11.1 kmh NW 8.1 mph13.0 kmh 28.07 in950.6 mb - 0.00 in0.0 mm 0.00 in0.0 mm
01:05 AM 23.7°F-4.6°C 22.2°F-5.4°C 94% 6.9 mph NW11.1 kmh NW 9.2 mph14.8 kmh 28.07 in950.6 mb - 0.00 in0.0 mm 0.00 in0.0 mm
01:06 AM 23.7°F-4.6°C 22.2°F-5.4°C 94% 8.1 mph NW13.0 kmh NW 9.2 mph14.8 kmh 28.07 in950.6 mb - 0.00 in0.0 mm 0.00 in0.0 mm
01:07 AM 23.7°F-4.6°C 22.2°F-5.4°C 94% 8.1 mph NW13.0 kmh NW 8.1 mph13.0 kmh 28.07 in950.6 mb - 0.00 in0.0 mm 0.00 in0.0 mm
01:08 AM 23.7°F-4.6°C 22.2°F-5.4°C 94% 6.9 mph NNW11.1 kmh NNW 6.9 mph11.1 kmh 28.07 in950.6 mb - 0.00 in0.0 mm 0.00 in0.0 mm
01:09 AM 23.7°F-4.6°C 22.2°F-5.4°C 94% 4.6 mph N7.4 kmh N 8.1 mph13.0 kmh 28.07 in950.6 mb - 0.00 in0.0 mm 0.00 in0.0 mm
01:10 AM 23.7°F-4.6°C 22.2°F-5.4°C 94% 6.9 mph NNE11.1 kmh NNE 8.1 mph13.0 kmh 28.07 in950.6 mb - 0.00 in0.0 mm 0.00 in0.0 mm
01:11 AM 23.7°F-4.6°C 22.2°F-5.4°C 94% 6.9 mph NE11.1 kmh NE 8.1 mph13.0 kmh 28.07 in950.6 mb - 0.00 in0.0 mm 0.00 in0.0 mm
01:12 AM 23.7°F-4.6°C 22.2°F-5.4°C 94% 5.8 mph NW9.3 kmh NW 8.1 mph13.0 kmh 28.07 in950.6 mb - 0.00 in0.0 mm 0.00 in0.0 mm
01:13 AM 23.7°F-4.6°C 22.2°F-5.4°C 94% 6.9 mph NW11.1 kmh NW 8.1 mph13.0 kmh 28.07 in950.6 mb - 0.00 in0.0 mm 0.00 in0.0 mm
01:14 AM 23.7°F-4.6°C 22.2°F-5.4°C 94% 5.8 mph NW9.3 kmh NW 10.4 mph16.7 kmh 28.07 in950.6 mb - 0.00 in0.0 mm 0.00 in0.0 mm
01:15 AM 23.8°F-4.6°C 22.3°F-5.4°C 94% 6.9 mph NE11.1 kmh NE 10.4 mph16.7 kmh 28.07 in950.6 mb - 0.00 in0.0 mm 0.00 in0.0 mm
01:16 AM 23.9°F-4.5°C 22.4°F-5.3°C 94% 8.1 mph NW13.0 kmh NW 9.2 mph14.8 kmh 28.07 in950.6 mb - 0.00 in0.0 mm 0.00 in0.0 mm
01:17 AM 23.9°F-4.5°C 22.4°F-5.3°C 94% 5.8 mph NW9.3 kmh NW 8.1 mph13.0 kmh 28.07 in950.6 mb - 0.00 in0.0 mm 0.00 in0.0 mm
01:18 AM 23.9°F-4.5°C 22.4°F-5.3°C 94% 8.1 mph NW13.0 kmh NW 12.7 mph20.4 kmh 28.07 in950.6 mb - 0.00 in0.0 mm 0.00 in0.0 mm
01:19 AM 23.9°F-4.5°C 22.4°F-5.3°C 94% 8.1 mph N13.0 kmh N 4.6 mph7.4 kmh 28.07 in950.6 mb - 0.00 in0.0 mm 0.00 in0.0 mm
01:20 AM 23.9°F-4.5°C 22.4°F-5.3°C 94% 4.6 mph W7.4 kmh W 8.1 mph13.0 kmh 28.07 in950.6 mb - 0.00 in0.0 mm 0.00 in0.0 mm
01:21 AM 23.9°F-4.5°C 22.4°F-5.3°C 94% 4.6 mph NW7.4 kmh NW 8.1 mph13.0 kmh 28.07 in950.6 mb - 0.00 in0.0 mm 0.00 in0.0 mm
01:22 AM 23.9°F-4.5°C 22.4°F-5.3°C 94% 5.8 mph NNE9.3 kmh NNE 15.0 mph24.1 kmh 28.07 in950.6 mb - 0.00 in0.0 mm 0.00 in0.0 mm
01:23 AM 23.9°F-4.5°C 22.4°F-5.3°C 94% 9.2 mph N14.8 kmh N 11.5 mph18.5 kmh 28.07 in950.6 mb - 0.00 in0.0 mm 0.00 in0.0 mm
01:24 AM 23.9°F-4.5°C 22.4°F-5.3°C 94% 5.8 mph NE9.3 kmh NE 8.1 mph13.0 kmh 28.07 in950.6 mb - 0.00 in0.0 mm 0.00 in0.0 mm
01:25 AM 23.9°F-4.5°C 22.4°F-5.3°C 94% 6.9 mph NW11.1 kmh NW 6.9 mph11.1 kmh 28.07 in950.6 mb - 0.00 in0.0 mm 0.00 in0.0 mm
01:26 AM 23.9°F-4.5°C 22.4°F-5.3°C 94% 5.8 mph NW9.3 kmh NW 5.8 mph9.3 kmh 28.07 in950.6 mb - 0.00 in0.0 mm 0.00 in0.0 mm
01:27 AM 23.9°F-4.5°C 22.4°F-5.3°C 94% 5.8 mph NW9.3 kmh NW 8.1 mph13.0 kmh 28.07 in950.6 mb - 0.00 in0.0 mm 0.00 in0.0 mm
01:28 AM 23.9°F-4.5°C 22.4°F-5.3°C 94% 5.8 mph N9.3 kmh N 5.8 mph9.3 kmh 28.07 in950.6 mb - 0.00 in0.0 mm 0.00 in0.0 mm
01:29 AM 23.9°F-4.5°C 22.4°F-5.3°C 94% 4.6 mph N7.4 kmh N 8.1 mph13.0 kmh 28.07 in950.6 mb - 0.00 in0.0 mm 0.00 in0.0 mm
01:30 AM 23.9°F-4.5°C 22.4°F-5.3°C 94% 6.9 mph NNW11.1 kmh NNW 8.1 mph13.0 kmh 28.07 in950.6 mb - 0.00 in0.0 mm 0.00 in0.0 mm
01:31 AM 23.9°F-4.5°C 22.4°F-5.3°C 94% 5.8 mph N9.3 kmh N 5.8 mph9.3 kmh 28.07 in950.6 mb - 0.00 in0.0 mm 0.00 in0.0 mm
01:32 AM 24.0°F-4.4°C 22.6°F-5.2°C 94% 5.8 mph ENE9.3 kmh ENE 11.5 mph18.5 kmh 28.07 in950.6 mb - 0.00 in0.0 mm 0.00 in0.0 mm
01:33 AM 24.1°F-4.4°C 22.4°F-5.3°C 93% 8.1 mph N13.0 kmh N 8.1 mph13.0 kmh 28.07 in950.6 mb - 0.00 in0.0 mm 0.00 in0.0 mm
01:34 AM 24.1°F-4.4°C 22.4°F-5.3°C 93% 6.9 mph NE11.1 kmh NE 8.1 mph13.0 kmh 28.07 in950.6 mb - 0.00 in0.0 mm 0.00 in0.0 mm
01:35 AM 24.1°F-4.4°C 22.4°F-5.3°C 93% 6.9 mph N11.1 kmh N 6.9 mph11.1 kmh 28.07 in950.6 mb - 0.00 in0.0 mm 0.00 in0.0 mm
01:36 AM 24.1°F-4.4°C 22.4°F-5.3°C 93% 4.6 mph N7.4 kmh N 6.9 mph11.1 kmh 28.07 in950.6 mb - 0.00 in0.0 mm 0.00 in0.0 mm
01:37 AM 24.1°F-4.4°C 22.4°F-5.3°C 93% 5.8 mph E9.3 kmh E 9.2 mph14.8 kmh 28.07 in950.6 mb - 0.00 in0.0 mm 0.00 in0.0 mm
01:38 AM 24.1°F-4.4°C 22.4°F-5.3°C 93% 5.8 mph ENE9.3 kmh ENE 9.2 mph14.8 kmh 28.05 in949.9 mb - 0.00 in0.0 mm 0.00 in0.0 mm
01:39 AM 24.1°F-4.4°C 22.4°F-5.3°C 93% 5.8 mph NW9.3 kmh NW 4.6 mph7.4 kmh 28.05 in949.9 mb - 0.00 in0.0 mm 0.00 in0.0 mm
01:40 AM 24.1°F-4.4°C 22.4°F-5.3°C 93% 5.8 mph NW9.3 kmh NW 8.1 mph13.0 kmh 28.05 in949.9 mb - 0.00 in0.0 mm 0.00 in0.0 mm
01:41 AM 24.1°F-4.4°C 22.4°F-5.3°C 93% 5.8 mph NNE9.3 kmh NNE 8.1 mph13.0 kmh 28.05 in949.9 mb - 0.00 in0.0 mm 0.00 in0.0 mm
01:42 AM 24.1°F-4.4°C 22.4°F-5.3°C 93% 6.9 mph NNE11.1 kmh NNE 8.1 mph13.0 kmh 28.05 in949.9 mb - 0.00 in0.0 mm 0.00 in0.0 mm
01:43 AM 24.1°F-4.4°C 22.4°F-5.3°C 93% 5.8 mph NW9.3 kmh NW 9.2 mph14.8 kmh 28.05 in949.9 mb - 0.00 in0.0 mm 0.00 in0.0 mm
01:44 AM 24.1°F-4.4°C 22.4°F-5.3°C 93% 5.8 mph NNE9.3 kmh NNE 5.8 mph9.3 kmh 28.05 in949.9 mb - 0.00 in0.0 mm 0.00 in0.0 mm
01:45 AM 24.1°F-4.4°C 22.4°F-5.3°C 93% 4.6 mph WNW7.4 kmh WNW 5.8 mph9.3 kmh 28.05 in949.9 mb - 0.00 in0.0 mm 0.00 in0.0 mm
01:46 AM 24.1°F-4.4°C 22.4°F-5.3°C 93% 4.6 mph NNE7.4 kmh NNE 5.8 mph9.3 kmh 28.05 in949.9 mb - 0.00 in0.0 mm 0.00 in0.0 mm
01:47 AM 24.1°F-4.4°C 22.4°F-5.3°C 93% 5.8 mph NW9.3 kmh NW 8.1 mph13.0 kmh 28.05 in949.9 mb - 0.00 in0.0 mm 0.00 in0.0 mm
01:48 AM 24.1°F-4.4°C 22.4°F-5.3°C 93% 6.9 mph ENE11.1 kmh ENE 15.0 mph24.1 kmh 28.05 in949.9 mb - 0.00 in0.0 mm 0.00 in0.0 mm
01:49 AM 24.1°F-4.4°C 22.4°F-5.3°C 93% 9.2 mph NW14.8 kmh NW 8.1 mph13.0 kmh 28.05 in949.9 mb - 0.00 in0.0 mm 0.00 in0.0 mm
01:50 AM 24.1°F-4.4°C 22.4°F-5.3°C 93% 6.9 mph NW11.1 kmh NW 5.8 mph9.3 kmh 28.05 in949.9 mb - 0.00 in0.0 mm 0.00 in0.0 mm
01:51 AM 24.3°F-4.3°C 22.5°F-5.3°C 93% 4.6 mph WNW7.4 kmh WNW 5.8 mph9.3 kmh 28.05 in949.9 mb - 0.00 in0.0 mm 0.00 in0.0 mm
01:52 AM 24.3°F-4.3°C 22.6°F-5.2°C 93% 4.6 mph N7.4 kmh N 5.8 mph9.3 kmh 28.05 in949.9 mb - 0.00 in0.0 mm 0.00 in0.0 mm
01:53 AM 24.3°F-4.3°C 22.6°F-5.2°C 93% 4.6 mph NW7.4 kmh NW 4.6 mph7.4 kmh 28.05 in949.9 mb - 0.00 in0.0 mm 0.00 in0.0 mm
01:54 AM 24.3°F-4.3°C 22.6°F-5.2°C 93% 3.5 mph NNE5.6 kmh NNE 11.5 mph18.5 kmh 28.05 in949.9 mb - 0.00 in0.0 mm 0.00 in0.0 mm
01:55 AM 24.3°F-4.3°C 22.6°F-5.2°C 93% 6.9 mph N11.1 kmh N 11.5 mph18.5 kmh 28.05 in949.9 mb - 0.00 in0.0 mm 0.00 in0.0 mm
01:56 AM 24.3°F-4.3°C 22.6°F-5.2°C 93% 4.6 mph ENE7.4 kmh ENE 5.8 mph9.3 kmh 28.05 in949.9 mb - 0.00 in0.0 mm 0.00 in0.0 mm
01:57 AM 24.3°F-4.3°C 22.6°F-5.2°C 93% 5.8 mph NNW9.3 kmh NNW 8.1 mph13.0 kmh 28.05 in949.9 mb - 0.00 in0.0 mm 0.00 in0.0 mm
01:58 AM 24.3°F-4.3°C 22.6°F-5.2°C 93% 6.9 mph WNW11.1 kmh WNW 10.4 mph16.7 kmh 28.05 in949.9 mb - 0.00 in0.0 mm 0.00 in0.0 mm
01:59 AM 24.3°F-4.3°C 22.6°F-5.2°C 93% 9.2 mph W14.8 kmh W 10.4 mph16.7 kmh 28.05 in949.9 mb - 0.00 in0.0 mm 0.00 in0.0 mm
02:00 AM 24.3°F-4.3°C 22.6°F-5.2°C 93% 8.1 mph NE13.0 kmh NE 9.2 mph14.8 kmh 28.05 in949.9 mb - 0.00 in0.0 mm 0.00 in0.0 mm
02:01 AM 24.3°F-4.3°C 22.6°F-5.2°C 93% 6.9 mph N11.1 kmh N 8.1 mph13.0 kmh 28.07 in950.6 mb - 0.00 in0.0 mm 0.00 in0.0 mm
02:02 AM 24.3°F-4.3°C 22.6°F-5.2°C 93% 6.9 mph NW11.1 kmh NW 13.8 mph22.2 kmh 28.07 in950.6 mb - 0.00 in0.0 mm 0.00 in0.0 mm
02:03 AM 24.3°F-4.3°C 22.3°F-5.4°C 92% 12.7 mph NNW20.4 kmh NNW 13.8 mph22.2 kmh 28.07 in950.6 mb - 0.00 in0.0 mm 0.00 in0.0 mm
02:04 AM 24.3°F-4.3°C 22.3°F-5.4°C 92% 10.4 mph N16.7 kmh N 11.5 mph18.5 kmh 28.07 in950.6 mb - 0.00 in0.0 mm 0.00 in0.0 mm
02:05 AM 24.3°F-4.3°C 22.3°F-5.4°C 92% 6.9 mph N11.1 kmh N 8.1 mph13.0 kmh 28.07 in950.6 mb - 0.00 in0.0 mm 0.00 in0.0 mm
02:06 AM 24.3°F-4.3°C 22.3°F-5.4°C 92% 5.8 mph WNW9.3 kmh WNW 6.9 mph11.1 kmh 28.07 in950.6 mb - 0.00 in0.0 mm 0.00 in0.0 mm
02:07 AM 24.3°F-4.3°C 22.3°F-5.4°C 92% 6.9 mph N11.1 kmh N 12.7 mph20.4 kmh 28.07 in950.6 mb - 0.00 in0.0 mm 0.00 in0.0 mm
02:08 AM 24.3°F-4.3°C 22.3°F-5.4°C 92% 8.1 mph NW13.0 kmh NW 8.1 mph13.0 kmh 28.07 in950.6 mb - 0.00 in0.0 mm 0.00 in0.0 mm
02:09 AM 24.3°F-4.3°C 22.3°F-5.4°C 92% 6.9 mph NW11.1 kmh NW 8.1 mph13.0 kmh 28.07 in950.6 mb - 0.00 in0.0 mm 0.00 in0.0 mm
02:10 AM 24.3°F-4.3°C 22.3°F-5.4°C 92% 6.9 mph NW11.1 kmh NW 9.2 mph14.8 kmh 28.07 in950.6 mb - 0.00 in0.0 mm 0.00 in0.0 mm
02:11 AM 24.3°F-4.3°C 22.3°F-5.4°C 92% 6.9 mph N11.1 kmh N 10.4 mph16.7 kmh 28.07 in950.6 mb - 0.00 in0.0 mm 0.00 in0.0 mm
02:12 AM 24.3°F-4.3°C 22.3°F-5.4°C 92% 8.1 mph NE13.0 kmh NE 9.2 mph14.8 kmh 28.07 in950.6 mb - 0.00 in0.0 mm 0.00 in0.0 mm
02:13 AM 24.3°F-4.3°C 22.3°F-5.4°C 92% 6.9 mph NW11.1 kmh NW 10.4 mph16.7 kmh 28.07 in950.6 mb - 0.00 in0.0 mm 0.00 in0.0 mm
02:14 AM 24.3°F-4.3°C 22.3°F-5.4°C 92% 6.9 mph N11.1 kmh N 6.9 mph11.1 kmh 28.07 in950.6 mb - 0.00 in0.0 mm 0.00 in0.0 mm
02:15 AM 24.3°F-4.3°C 22.3°F-5.4°C 92% 6.9 mph ENE11.1 kmh ENE 10.4 mph16.7 kmh 28.07 in950.6 mb - 0.00 in0.0 mm 0.00 in0.0 mm
02:16 AM 24.3°F-4.3°C 22.3°F-5.4°C 92% 8.1 mph WNW13.0 kmh WNW 10.4 mph16.7 kmh 28.07 in950.6 mb - 0.00 in0.0 mm 0.00 in0.0 mm
02:17 AM 24.3°F-4.3°C 22.3°F-5.4°C 92% 8.1 mph NW13.0 kmh NW 10.4 mph16.7 kmh 28.07 in950.6 mb - 0.00 in0.0 mm 0.00 in0.0 mm
02:18 AM 24.3°F-4.3°C 22.3°F-5.4°C 92% 8.1 mph N13.0 kmh N 10.4 mph16.7 kmh 28.07 in950.6 mb - 0.00 in0.0 mm 0.00 in0.0 mm
02:19 AM 24.3°F-4.3°C 22.3°F-5.4°C 92% 5.8 mph N9.3 kmh N 5.8 mph9.3 kmh 28.07 in950.6 mb - 0.00 in0.0 mm 0.00 in0.0 mm
02:20 AM 24.3°F-4.3°C 22.3°F-5.4°C 92% 5.8 mph N9.3 kmh N 10.4 mph16.7 kmh 28.07 in950.6 mb - 0.00 in0.0 mm 0.00 in0.0 mm
02:21 AM 24.3°F-4.3°C 22.3°F-5.4°C 92% 5.8 mph NW9.3 kmh NW 5.8 mph9.3 kmh 28.07 in950.6 mb - 0.00 in0.0 mm 0.00 in0.0 mm
02:22 AM 24.3°F-4.3°C 22.3°F-5.4°C 92% 5.8 mph N9.3 kmh N 6.9 mph11.1 kmh 28.07 in950.6 mb - 0.00 in0.0 mm 0.00 in0.0 mm
02:23 AM 24.3°F-4.3°C 22.3°F-5.4°C 92% 5.8 mph NW9.3 kmh NW 6.9 mph11.1 kmh 28.07 in950.6 mb - 0.00 in0.0 mm 0.00 in0.0 mm
02:24 AM 24.3°F-4.3°C 22.3°F-5.4°C 92% 4.6 mph N7.4 kmh N 5.8 mph9.3 kmh 28.07 in950.6 mb - 0.00 in0.0 mm 0.00 in0.0 mm
02:25 AM 24.3°F-4.3°C 22.3°F-5.4°C 92% 5.8 mph N9.3 kmh N 5.8 mph9.3 kmh 28.07 in950.6 mb - 0.00 in0.0 mm 0.00 in0.0 mm
02:26 AM 24.3°F-4.3°C 22.3°F-5.4°C 92% 5.8 mph NW9.3 kmh NW 10.4 mph16.7 kmh 28.07 in950.6 mb - 0.00 in0.0 mm 0.00 in0.0 mm
02:27 AM 24.3°F-4.3°C 22.3°F-5.4°C 92% 8.1 mph N13.0 kmh N 8.1 mph13.0 kmh 28.07 in950.6 mb - 0.00 in0.0 mm 0.00 in0.0 mm
02:28 AM 24.3°F-4.3°C 22.3°F-5.4°C 92% 6.9 mph NNW11.1 kmh NNW 8.1 mph13.0 kmh 28.07 in950.6 mb - 0.00 in0.0 mm 0.00 in0.0 mm
02:29 AM 24.3°F-4.3°C 22.3°F-5.4°C 92% 6.9 mph WSW11.1 kmh WSW 9.2 mph14.8 kmh 28.07 in950.6 mb - 0.00 in0.0 mm 0.00 in0.0 mm
02:30 AM 24.3°F-4.3°C 22.3°F-5.4°C 92% 6.9 mph N11.1 kmh N 12.7 mph20.4 kmh 28.07 in950.6 mb - 0.00 in0.0 mm 0.00 in0.0 mm
02:31 AM 24.3°F-4.3°C 22.3°F-5.4°C 92% 10.4 mph NW16.7 kmh NW 11.5 mph18.5 kmh 28.07 in950.6 mb - 0.00 in0.0 mm 0.00 in0.0 mm
02:32 AM 24.3°F-4.3°C 22.3°F-5.4°C 92% 6.9 mph NNW11.1 kmh NNW 8.1 mph13.0 kmh 28.07 in950.6 mb - 0.00 in0.0 mm 0.00 in0.0 mm
02:33 AM 24.4°F-4.2°C 22.4°F-5.3°C 92% 6.9 mph WNW11.1 kmh WNW 8.1 mph13.0 kmh 28.07 in950.6 mb - 0.00 in0.0 mm 0.00 in0.0 mm
02:34 AM 24.4°F-4.2°C 22.4°F-5.3°C 92% 5.8 mph NW9.3 kmh NW 5.8 mph9.3 kmh 28.07 in950.6 mb - 0.00 in0.0 mm 0.00 in0.0 mm
02:35 AM 24.4°F-4.2°C 22.4°F-5.3°C 92% 5.8 mph NNE9.3 kmh NNE 8.1 mph13.0 kmh 28.07 in950.6 mb - 0.00 in0.0 mm 0.00 in0.0 mm
02:36 AM 24.4°F-4.2°C 22.4°F-5.3°C 92% 6.9 mph NW11.1 kmh NW 10.4 mph16.7 kmh 28.07 in950.6 mb - 0.00 in0.0 mm 0.00 in0.0 mm
02:37 AM 24.4°F-4.2°C 22.4°F-5.3°C 92% 9.2 mph N14.8 kmh N 11.5 mph18.5 kmh 28.07 in950.6 mb - 0.00 in0.0 mm 0.00 in0.0 mm
02:38 AM 24.4°F-4.2°C 22.4°F-5.3°C 92% 8.1 mph N13.0 kmh N 9.2 mph14.8 kmh 28.07 in950.6 mb - 0.00 in0.0 mm 0.00 in0.0 mm
02:39 AM 24.4°F-4.2°C 22.4°F-5.3°C 92% 5.8 mph NNW9.3 kmh NNW 8.1 mph13.0 kmh 28.07 in950.6 mb - 0.00 in0.0 mm 0.00 in0.0 mm
02:40 AM 24.4°F-4.2°C 22.4°F-5.3°C 92% 6.9 mph SW11.1 kmh SW 9.2 mph14.8 kmh 28.07 in950.6 mb - 0.00 in0.0 mm 0.00 in0.0 mm
02:41 AM 24.4°F-4.2°C 22.4°F-5.3°C 92% 9.2 mph NW14.8 kmh NW 10.4 mph16.7 kmh 28.07 in950.6 mb - 0.00 in0.0 mm 0.00 in0.0 mm
02:42 AM 24.4°F-4.2°C 22.4°F-5.3°C 92% 10.4 mph NW16.7 kmh NW 12.7 mph20.4 kmh 28.07 in950.6 mb - 0.00 in0.0 mm 0.00 in0.0 mm
02:43 AM 24.4°F-4.2°C 22.4°F-5.3°C 92% 8.1 mph WSW13.0 kmh WSW 10.4 mph16.7 kmh 28.07 in950.6 mb - 0.00 in0.0 mm 0.00 in0.0 mm
02:44 AM 24.4°F-4.2°C 22.4°F-5.3°C 92% 5.8 mph N9.3 kmh N 6.9 mph11.1 kmh 28.07 in950.6 mb - 0.00 in0.0 mm 0.00 in0.0 mm
02:45 AM 24.4°F-4.2°C 22.4°F-5.3°C 92% 8.1 mph NW13.0 kmh NW 10.4 mph16.7 kmh 28.07 in950.6 mb - 0.00 in0.0 mm 0.00 in0.0 mm
02:46 AM 24.4°F-4.2°C 22.4°F-5.3°C 92% 6.9 mph NW11.1 kmh NW 12.7 mph20.4 kmh 28.07 in950.6 mb - 0.00 in0.0 mm 0.00 in0.0 mm
02:47 AM 24.4°F-4.2°C 22.4°F-5.3°C 92% 9.2 mph NW14.8 kmh NW 9.2 mph14.8 kmh 28.07 in950.6 mb - 0.00 in0.0 mm 0.00 in0.0 mm
02:48 AM 24.4°F-4.2°C 22.4°F-5.3°C 92% 6.9 mph N11.1 kmh N 8.1 mph13.0 kmh 28.07 in950.6 mb - 0.00 in0.0 mm 0.00 in0.0 mm
02:49 AM 24.4°F-4.2°C 22.4°F-5.3°C 92% 4.6 mph N7.4 kmh N 4.6 mph7.4 kmh 28.07 in950.6 mb - 0.00 in0.0 mm 0.00 in0.0 mm
02:50 AM 24.4°F-4.2°C 22.4°F-5.3°C 92% 4.6 mph NW7.4 kmh NW 5.8 mph9.3 kmh 28.08 in950.9 mb - 0.00 in0.0 mm 0.00 in0.0 mm
02:51 AM 24.4°F-4.2°C 22.4°F-5.3°C 92% 4.6 mph WNW7.4 kmh WNW 8.1 mph13.0 kmh 28.08 in950.9 mb - 0.00 in0.0 mm 0.00 in0.0 mm
02:52 AM 24.5°F-4.2°C 22.6°F-5.2°C 92% 5.8 mph NNW9.3 kmh NNW 5.8 mph9.3 kmh 28.08 in950.9 mb - 0.00 in0.0 mm 0.00 in0.0 mm
02:53 AM 24.6°F-4.1°C 22.6°F-5.2°C 92% 6.9 mph NNE11.1 kmh NNE 10.4 mph16.7 kmh 28.08 in950.9 mb - 0.00 in0.0 mm 0.00 in0.0 mm
02:54 AM 24.6°F-4.1°C 22.6°F-5.2°C 92% 8.1 mph NNE13.0 kmh NNE 9.2 mph14.8 kmh 28.08 in950.9 mb - 0.00 in0.0 mm 0.00 in0.0 mm
02:55 AM 24.6°F-4.1°C 22.6°F-5.2°C 92% 6.9 mph NNE11.1 kmh NNE 6.9 mph11.1 kmh 28.08 in950.9 mb - 0.00 in0.0 mm 0.00 in0.0 mm
02:56 AM 24.6°F-4.1°C 22.6°F-5.2°C 92% 6.9 mph N11.1 kmh N 9.2 mph14.8 kmh 28.08 in950.9 mb - 0.00 in0.0 mm 0.00 in0.0 mm
02:57 AM 24.6°F-4.1°C 22.6°F-5.2°C 92% 6.9 mph NW11.1 kmh NW 10.4 mph16.7 kmh 28.08 in950.9 mb - 0.00 in0.0 mm 0.00 in0.0 mm
02:58 AM 24.6°F-4.1°C 22.6°F-5.2°C 92% 9.2 mph NW14.8 kmh NW 11.5 mph18.5 kmh 28.08 in950.9 mb - 0.00 in0.0 mm 0.00 in0.0 mm
02:59 AM 24.6°F-4.1°C 22.6°F-5.2°C 92% 10.4 mph NNW16.7 kmh NNW 13.8 mph22.2 kmh 28.08 in950.9 mb - 0.00 in0.0 mm 0.00 in0.0 mm
03:00 AM 24.6°F-4.1°C 22.6°F-5.2°C 92% 11.5 mph NW18.5 kmh NW 13.8 mph22.2 kmh 28.08 in950.9 mb - 0.00 in0.0 mm 0.00 in0.0 mm
03:01 AM 24.6°F-4.1°C 22.6°F-5.2°C 92% 6.9 mph NW11.1 kmh NW 8.1 mph13.0 kmh 28.08 in950.9 mb - 0.00 in0.0 mm 0.00 in0.0 mm
03:02 AM 24.6°F-4.1°C 22.6°F-5.2°C 92% 4.6 mph N7.4 kmh N 9.2 mph14.8 kmh 28.08 in950.9 mb - 0.00 in0.0 mm 0.00 in0.0 mm
03:03 AM 24.6°F-4.1°C 22.6°F-5.2°C 92% 6.9 mph NNW11.1 kmh NNW 8.1 mph13.0 kmh 28.08 in950.9 mb - 0.00 in0.0 mm 0.00 in0.0 mm
03:04 AM 24.6°F-4.1°C 22.6°F-5.2°C 92% 5.8 mph N9.3 kmh N 13.8 mph22.2 kmh 28.08 in950.9 mb - 0.00 in0.0 mm 0.00 in0.0 mm
03:05 AM 24.6°F-4.1°C 22.6°F-5.2°C 92% 11.5 mph NW18.5 kmh NW 17.3 mph27.8 kmh 28.08 in950.9 mb - 0.00 in0.0 mm 0.00 in0.0 mm
03:06 AM 24.6°F-4.1°C 22.6°F-5.2°C 92% 12.7 mph NW20.4 kmh NW 11.5 mph18.5 kmh 28.08 in950.9 mb - 0.00 in0.0 mm 0.00 in0.0 mm
03:07 AM 24.6°F-4.1°C 22.6°F-5.2°C 92% 8.1 mph NW13.0 kmh NW 9.2 mph14.8 kmh 28.08 in950.9 mb - 0.00 in0.0 mm 0.00 in0.0 mm
03:08 AM 24.6°F-4.1°C 22.6°F-5.2°C 92% 8.1 mph NW13.0 kmh NW 11.5 mph18.5 kmh 28.08 in950.9 mb - 0.00 in0.0 mm 0.00 in0.0 mm
03:09 AM 24.6°F-4.1°C 22.6°F-5.2°C 92% 8.1 mph NE13.0 kmh NE 8.1 mph13.0 kmh 28.08 in950.9 mb - 0.00 in0.0 mm 0.00 in0.0 mm
03:10 AM 24.6°F-4.1°C 22.6°F-5.2°C 92% 6.9 mph NNE11.1 kmh NNE 8.1 mph13.0 kmh 28.08 in950.9 mb - 0.00 in0.0 mm 0.00 in0.0 mm
03:11 AM 24.6°F-4.1°C 22.6°F-5.2°C 92% 8.1 mph NNW13.0 kmh NNW 11.5 mph18.5 kmh 28.08 in950.9 mb - 0.00 in0.0 mm 0.00 in0.0 mm
03:12 AM 24.6°F-4.1°C 22.6°F-5.2°C 92% 9.2 mph NNW14.8 kmh NNW 11.5 mph18.5 kmh 28.08 in950.9 mb - 0.00 in0.0 mm 0.00 in0.0 mm
03:13 AM 24.6°F-4.1°C 22.6°F-5.2°C 92% 9.2 mph N14.8 kmh N 10.4 mph16.7 kmh 28.08 in950.9 mb - 0.00 in0.0 mm 0.00 in0.0 mm
03:14 AM 24.6°F-4.1°C 22.6°F-5.2°C 92% 8.1 mph N13.0 kmh N 6.9 mph11.1 kmh 28.08 in950.9 mb - 0.00 in0.0 mm 0.00 in0.0 mm
03:15 AM 24.6°F-4.1°C 22.6°F-5.2°C 92% 6.9 mph WNW11.1 kmh WNW 8.1 mph13.0 kmh 28.08 in950.9 mb - 0.00 in0.0 mm 0.00 in0.0 mm
03:16 AM 24.6°F-4.1°C 22.6°F-5.2°C 92% 6.9 mph NNW11.1 kmh NNW 9.2 mph14.8 kmh 28.08 in950.9 mb - 0.00 in0.0 mm 0.00 in0.0 mm
03:17 AM 24.6°F-4.1°C 22.6°F-5.2°C 92% 6.9 mph NNW11.1 kmh NNW 9.2 mph14.8 kmh 28.08 in950.9 mb - 0.00 in0.0 mm 0.00 in0.0 mm
03:18 AM 24.6°F-4.1°C 22.6°F-5.2°C 92% 8.1 mph NW13.0 kmh NW 10.4 mph16.7 kmh 28.08 in950.9 mb - 0.00 in0.0 mm 0.00 in0.0 mm
03:19 AM 24.6°F-4.1°C 22.6°F-5.2°C 92% 9.2 mph W14.8 kmh W 16.1 mph25.9 kmh 28.08 in950.9 mb - 0.00 in0.0 mm 0.00 in0.0 mm
03:20 AM 24.6°F-4.1°C 22.3°F-5.4°C 91% 12.7 mph NW20.4 kmh NW 16.1 mph25.9 kmh 28.08 in950.9 mb - 0.00 in0.0 mm 0.00 in0.0 mm
03:21 AM 24.6°F-4.1°C 22.3°F-5.4°C 91% 10.4 mph N16.7 kmh N 11.5 mph18.5 kmh 28.08 in950.9 mb - 0.00 in0.0 mm 0.00 in0.0 mm
03:22 AM 24.6°F-4.1°C 22.3°F-5.4°C 91% 9.2 mph NE14.8 kmh NE 11.5 mph18.5 kmh 28.08 in950.9 mb - 0.00 in0.0 mm 0.00 in0.0 mm
03:23 AM 24.6°F-4.1°C 22.3°F-5.4°C 91% 6.9 mph NW11.1 kmh NW 6.9 mph11.1 kmh 28.08 in950.9 mb - 0.00 in0.0 mm 0.00 in0.0 mm
03:24 AM 24.6°F-4.1°C 22.3°F-5.4°C 91% 6.9 mph NW11.1 kmh NW 10.4 mph16.7 kmh 28.08 in950.9 mb - 0.00 in0.0 mm 0.00 in0.0 mm
03:25 AM 24.6°F-4.1°C 22.3°F-5.4°C 91% 8.1 mph NW13.0 kmh NW 10.4 mph16.7 kmh 28.08 in950.9 mb - 0.00 in0.0 mm 0.00 in0.0 mm
03:26 AM 24.6°F-4.1°C 22.3°F-5.4°C 91% 6.9 mph WNW11.1 kmh WNW 9.2 mph14.8 kmh 28.09 in951.2 mb - 0.00 in0.0 mm 0.00 in0.0 mm
03:27 AM 24.6°F-4.1°C 22.3°F-5.4°C 91% 8.1 mph WNW13.0 kmh WNW 9.2 mph14.8 kmh 28.09 in951.2 mb - 0.00 in0.0 mm 0.00 in0.0 mm
03:28 AM 24.6°F-4.1°C 22.3°F-5.4°C 91% 6.9 mph NW11.1 kmh NW 9.2 mph14.8 kmh 28.09 in951.2 mb - 0.00 in0.0 mm 0.00 in0.0 mm
03:29 AM 24.6°F-4.1°C 22.3°F-5.4°C 91% 6.9 mph N11.1 kmh N 10.4 mph16.7 kmh 28.09 in951.2 mb - 0.00 in0.0 mm 0.00 in0.0 mm
03:30 AM 24.6°F-4.1°C 22.3°F-5.4°C 91% 8.1 mph NW13.0 kmh NW 10.4 mph16.7 kmh 28.09 in951.2 mb - 0.00 in0.0 mm 0.00 in0.0 mm
03:31 AM 24.6°F-4.1°C 22.3°F-5.4°C 91% 8.1 mph NW13.0 kmh NW 15.0 mph24.1 kmh 28.09 in951.2 mb - 0.00 in0.0 mm 0.00 in0.0 mm
03:32 AM 24.6°F-4.1°C 22.1°F-5.5°C 90% 8.1 mph NNW13.0 kmh NNW 10.4 mph16.7 kmh 28.09 in951.2 mb - 0.00 in0.0 mm 0.00 in0.0 mm
03:33 AM 24.6°F-4.1°C 22.1°F-5.5°C 90% 6.9 mph WNW11.1 kmh WNW 6.9 mph11.1 kmh 28.09 in951.2 mb - 0.00 in0.0 mm 0.00 in0.0 mm
03:34 AM 24.6°F-4.1°C 22.1°F-5.5°C 90% 6.9 mph NNW11.1 kmh NNW 17.3 mph27.8 kmh 28.09 in951.2 mb - 0.00 in0.0 mm 0.00 in0.0 mm
03:35 AM 24.6°F-4.1°C 22.1°F-5.5°C 90% 11.5 mph N18.5 kmh N 16.1 mph25.9 kmh 28.09 in951.2 mb - 0.00 in0.0 mm 0.00 in0.0 mm
03:36 AM 24.6°F-4.1°C 22.1°F-5.5°C 90% 9.2 mph NW14.8 kmh NW 16.1 mph25.9 kmh 28.09 in951.2 mb - 0.00 in0.0 mm 0.00 in0.0 mm
03:37 AM 24.6°F-4.1°C 22.1°F-5.5°C 90% 12.7 mph NW20.4 kmh NW 17.3 mph27.8 kmh 28.09 in951.2 mb - 0.00 in0.0 mm 0.00 in0.0 mm
03:38 AM 24.6°F-4.1°C 22.1°F-5.5°C 90% 12.7 mph NW20.4 kmh NW 13.8 mph22.2 kmh 28.10 in951.6 mb - 0.00 in0.0 mm 0.00 in0.0 mm
03:39 AM 24.6°F-4.1°C 22.1°F-5.5°C 90% 9.2 mph W14.8 kmh W 17.3 mph27.8 kmh 28.10 in951.6 mb - 0.00 in0.0 mm 0.00 in0.0 mm
03:40 AM 24.6°F-4.1°C 22.1°F-5.5°C 90% 13.8 mph NNW22.2 kmh NNW 16.1 mph25.9 kmh 28.10 in951.6 mb - 0.00 in0.0 mm 0.00 in0.0 mm
03:41 AM 24.6°F-4.1°C 22.1°F-5.5°C 90% 12.7 mph NW20.4 kmh NW 18.4 mph29.6 kmh 28.10 in951.6 mb - 0.00 in0.0 mm 0.00 in0.0 mm
03:42 AM 24.6°F-4.1°C 21.8°F-5.7°C 89% 13.8 mph WNW22.2 kmh WNW 11.5 mph18.5 kmh 28.10 in951.6 mb - 0.00 in0.0 mm 0.00 in0.0 mm
03:43 AM 24.6°F-4.1°C 21.8°F-5.7°C 89% 9.2 mph NNE14.8 kmh NNE 9.2 mph14.8 kmh 28.10 in951.6 mb - 0.00 in0.0 mm 0.00 in0.0 mm
03:44 AM 24.6°F-4.1°C 21.8°F-5.7°C 89% 10.4 mph N16.7 kmh N 19.6 mph31.5 kmh 28.10 in951.6 mb - 0.00 in0.0 mm 0.00 in0.0 mm
03:45 AM 24.6°F-4.1°C 21.8°F-5.7°C 89% 13.8 mph WNW22.2 kmh WNW 17.3 mph27.8 kmh 28.10 in951.6 mb - 0.00 in0.0 mm 0.00 in0.0 mm
03:46 AM 24.6°F-4.1°C 21.8°F-5.7°C 89% 11.5 mph W18.5 kmh W 11.5 mph18.5 kmh 28.10 in951.6 mb - 0.00 in0.0 mm 0.00 in0.0 mm
03:47 AM 24.6°F-4.1°C 21.8°F-5.7°C 89% 10.4 mph N16.7 kmh N 10.4 mph16.7 kmh 28.10 in951.6 mb - 0.00 in0.0 mm 0.00 in0.0 mm
03:48 AM 24.6°F-4.1°C 21.8°F-5.7°C 89% 8.1 mph N13.0 kmh N 6.9 mph11.1 kmh 28.10 in951.6 mb - 0.00 in0.0 mm 0.00 in0.0 mm
03:49 AM 24.6°F-4.1°C 21.8°F-5.7°C 89% 4.6 mph N7.4 kmh N 10.4 mph16.7 kmh 28.10 in951.6 mb - 0.00 in0.0 mm 0.00 in0.0 mm
03:50 AM 24.6°F-4.1°C 21.8°F-5.7°C 89% 8.1 mph NW13.0 kmh NW 10.4 mph16.7 kmh 28.10 in951.6 mb - 0.00 in0.0 mm 0.00 in0.0 mm
03:51 AM 24.6°F-4.1°C 21.8°F-5.7°C 89% 9.2 mph NW14.8 kmh NW 11.5 mph18.5 kmh 28.10 in951.6 mb - 0.00 in0.0 mm 0.00 in0.0 mm
03:52 AM 24.6°F-4.1°C 21.8°F-5.7°C 89% 8.1 mph NW13.0 kmh NW 6.9 mph11.1 kmh 28.10 in951.6 mb - 0.00 in0.0 mm 0.00 in0.0 mm
03:53 AM 24.6°F-4.1°C 21.8°F-5.7°C 89% 4.6 mph NW7.4 kmh NW 10.4 mph16.7 kmh 28.10 in951.6 mb - 0.00 in0.0 mm 0.00 in0.0 mm
03:54 AM 24.6°F-4.1°C 21.8°F-5.7°C 89% 5.8 mph NNE9.3 kmh NNE 8.1 mph13.0 kmh 28.10 in951.6 mb - 0.00 in0.0 mm 0.00 in0.0 mm
03:55 AM 24.6°F-4.1°C 21.8°F-5.7°C 89% 6.9 mph W11.1 kmh W 9.2 mph14.8 kmh 28.10 in951.6 mb - 0.00 in0.0 mm 0.00 in0.0 mm
03:56 AM 24.6°F-4.1°C 21.8°F-5.7°C 89% 5.8 mph NW9.3 kmh NW 5.8 mph9.3 kmh 28.10 in951.6 mb - 0.00 in0.0 mm 0.00 in0.0 mm
03:57 AM 24.6°F-4.1°C 21.8°F-5.7°C 89% 4.6 mph NNW7.4 kmh NNW 8.1 mph13.0 kmh 28.10 in951.6 mb - 0.00 in0.0 mm 0.00 in0.0 mm
03:58 AM 24.6°F-4.1°C 21.8°F-5.7°C 89% 6.9 mph WNW11.1 kmh WNW 13.8 mph22.2 kmh 28.10 in951.6 mb - 0.00 in0.0 mm 0.00 in0.0 mm
03:59 AM 24.6°F-4.1°C 21.8°F-5.7°C 89% 10.4 mph NNW16.7 kmh NNW 13.8 mph22.2 kmh 28.10 in951.6 mb - 0.00 in0.0 mm 0.00 in0.0 mm
04:00 AM 24.6°F-4.1°C 21.8°F-5.7°C 89% 12.7 mph NW20.4 kmh NW 16.1 mph25.9 kmh 28.10 in951.6 mb - 0.00 in0.0 mm 0.00 in0.0 mm
04:01 AM 24.6°F-4.1°C 21.8°F-5.7°C 89% 11.5 mph WNW18.5 kmh WNW 13.8 mph22.2 kmh 28.11 in951.9 mb - 0.00 in0.0 mm 0.00 in0.0 mm
04:02 AM 24.6°F-4.1°C 21.8°F-5.7°C 89% 6.9 mph NNW11.1 kmh NNW 10.4 mph16.7 kmh 28.11 in951.9 mb - 0.00 in0.0 mm 0.00 in0.0 mm
04:03 AM 24.6°F-4.1°C 21.8°F-5.7°C 89% 9.2 mph NNW14.8 kmh NNW 13.8 mph22.2 kmh 28.11 in951.9 mb - 0.00 in0.0 mm 0.00 in0.0 mm
04:04 AM 24.6°F-4.1°C 21.8°F-5.7°C 89% 11.5 mph NNE18.5 kmh NNE 21.9 mph35.2 kmh 28.11 in951.9 mb - 0.00 in0.0 mm 0.00 in0.0 mm
04:05 AM 24.6°F-4.1°C 21.8°F-5.7°C 89% 13.8 mph NW22.2 kmh NW 21.9 mph35.2 kmh 28.11 in951.9 mb - 0.00 in0.0 mm 0.00 in0.0 mm
04:06 AM 24.6°F-4.1°C 21.8°F-5.7°C 89% 8.1 mph NNW13.0 kmh NNW 10.4 mph16.7 kmh 28.11 in951.9 mb - 0.00 in0.0 mm 0.00 in0.0 mm
04:07 AM 24.6°F-4.1°C 21.8°F-5.7°C 89% 5.8 mph NW9.3 kmh NW 8.1 mph13.0 kmh 28.11 in951.9 mb - 0.00 in0.0 mm 0.00 in0.0 mm
04:08 AM 24.6°F-4.1°C 21.8°F-5.7°C 89% 8.1 mph NW13.0 kmh NW 8.1 mph13.0 kmh 28.11 in951.9 mb - 0.00 in0.0 mm 0.00 in0.0 mm
04:09 AM 24.6°F-4.1°C 21.8°F-5.7°C 89% 6.9 mph NNW11.1 kmh NNW 8.1 mph13.0 kmh 28.11 in951.9 mb - 0.00 in0.0 mm 0.00 in0.0 mm
04:10 AM 24.6°F-4.1°C 21.8°F-5.7°C 89% 5.8 mph NNW9.3 kmh NNW 8.1 mph13.0 kmh 28.11 in951.9 mb - 0.00 in0.0 mm 0.00 in0.0 mm
04:11 AM 24.6°F-4.1°C 21.8°F-5.7°C 89% 5.8 mph NNE9.3 kmh NNE 6.9 mph11.1 kmh 28.11 in951.9 mb - 0.00 in0.0 mm 0.00 in0.0 mm
04:12 AM 24.6°F-4.1°C 21.8°F-5.7°C 89% 4.6 mph NW7.4 kmh NW 6.9 mph11.1 kmh 28.11 in951.9 mb - 0.00 in0.0 mm 0.00 in0.0 mm
04:13 AM 24.6°F-4.1°C 21.8°F-5.7°C 89% 5.8 mph WNW9.3 kmh WNW 11.5 mph18.5 kmh 28.12 in952.3 mb - 0.00 in0.0 mm 0.00 in0.0 mm
04:14 AM 24.6°F-4.1°C 21.8°F-5.7°C 89% 9.2 mph NNW14.8 kmh NNW 12.7 mph20.4 kmh 28.12 in952.3 mb - 0.00 in0.0 mm 0.00 in0.0 mm
04:15 AM 24.6°F-4.1°C 21.8°F-5.7°C 89% 9.2 mph N14.8 kmh N 12.7 mph20.4 kmh 28.12 in952.3 mb - 0.00 in0.0 mm 0.00 in0.0 mm
04:16 AM 24.6°F-4.1°C 21.8°F-5.7°C 89% 8.1 mph NW13.0 kmh NW 10.4 mph16.7 kmh 28.12 in952.3 mb - 0.00 in0.0 mm 0.00 in0.0 mm
04:17 AM 24.6°F-4.1°C 21.8°F-5.7°C 89% 6.9 mph W11.1 kmh W 10.4 mph16.7 kmh 28.12 in952.3 mb - 0.00 in0.0 mm 0.00 in0.0 mm
04:18 AM 24.6°F-4.1°C 21.8°F-5.7°C 89% 9.2 mph W14.8 kmh W 10.4 mph16.7 kmh 28.12 in952.3 mb - 0.00 in0.0 mm 0.00 in0.0 mm
04:19 AM 24.6°F-4.1°C 21.8°F-5.7°C 89% 9.2 mph NNW14.8 kmh NNW 10.4 mph16.7 kmh 28.12 in952.3 mb - 0.00 in0.0 mm 0.00 in0.0 mm
04:20 AM 24.6°F-4.1°C 21.8°F-5.7°C 89% 6.9 mph NNW11.1 kmh NNW 8.1 mph13.0 kmh 28.12 in952.3 mb - 0.00 in0.0 mm 0.00 in0.0 mm
04:21 AM 24.6°F-4.1°C 21.8°F-5.7°C 89% 6.9 mph NW11.1 kmh NW 16.1 mph25.9 kmh 28.12 in952.3 mb - 0.00 in0.0 mm 0.00 in0.0 mm
04:22 AM 24.6°F-4.1°C 21.8°F-5.7°C 89% 11.5 mph NW18.5 kmh NW 16.1 mph25.9 kmh 28.12 in952.3 mb - 0.00 in0.0 mm 0.00 in0.0 mm
04:23 AM 24.6°F-4.1°C 21.8°F-5.7°C 89% 5.8 mph NW9.3 kmh NW 10.4 mph16.7 kmh 28.12 in952.3 mb - 0.00 in0.0 mm 0.00 in0.0 mm
04:24 AM 24.6°F-4.1°C 21.8°F-5.7°C 89% 8.1 mph NW13.0 kmh NW 10.4 mph16.7 kmh 28.12 in952.3 mb - 0.00 in0.0 mm 0.00 in0.0 mm
04:25 AM 24.6°F-4.1°C 21.8°F-5.7°C 89% 9.2 mph N14.8 kmh N 11.5 mph18.5 kmh 28.13 in952.6 mb - 0.00 in0.0 mm 0.00 in0.0 mm
04:26 AM 24.6°F-4.1°C 21.8°F-5.7°C 89% 6.9 mph NNE11.1 kmh NNE 5.8 mph9.3 kmh 28.13 in952.6 mb - 0.00 in0.0 mm 0.00 in0.0 mm
04:27 AM 24.6°F-4.1°C 21.8°F-5.7°C 89% 4.6 mph W7.4 kmh W 5.8 mph9.3 kmh 28.13 in952.6 mb - 0.00 in0.0 mm 0.00 in0.0 mm
04:28 AM 24.6°F-4.1°C 22.1°F-5.5°C 90% 5.8 mph NW9.3 kmh NW 8.1 mph13.0 kmh 28.13 in952.6 mb - 0.00 in0.0 mm 0.00 in0.0 mm
04:29 AM 24.6°F-4.1°C 22.1°F-5.5°C 90% 6.9 mph NNW11.1 kmh NNW 8.1 mph13.0 kmh 28.13 in952.6 mb - 0.00 in0.0 mm 0.00 in0.0 mm
04:30 AM 24.6°F-4.1°C 22.1°F-5.5°C 90% 5.8 mph NNE9.3 kmh NNE 8.1 mph13.0 kmh 28.13 in952.6 mb - 0.00 in0.0 mm 0.00 in0.0 mm
04:31 AM 24.6°F-4.1°C 22.1°F-5.5°C 90% 5.8 mph NW9.3 kmh NW 8.1 mph13.0 kmh 28.13 in952.6 mb - 0.00 in0.0 mm 0.00 in0.0 mm
04:32 AM 24.6°F-4.1°C 22.1°F-5.5°C 90% 8.1 mph NW13.0 kmh NW 15.0 mph24.1 kmh 28.13 in952.6 mb - 0.00 in0.0 mm 0.00 in0.0 mm
04:33 AM 24.6°F-4.1°C 22.1°F-5.5°C 90% 10.4 mph NE16.7 kmh NE 8.1 mph13.0 kmh 28.13 in952.6 mb - 0.00 in0.0 mm 0.00 in0.0 mm
04:34 AM 24.6°F-4.1°C 22.1°F-5.5°C 90% 6.9 mph N11.1 kmh N 8.1 mph13.0 kmh 28.13 in952.6 mb - 0.00 in0.0 mm 0.00 in0.0 mm
04:35 AM 24.6°F-4.1°C 22.1°F-5.5°C 90% 6.9 mph NW11.1 kmh NW 12.7 mph20.4 kmh 28.13 in952.6 mb - 0.00 in0.0 mm 0.00 in0.0 mm
04:36 AM 24.6°F-4.1°C 22.1°F-5.5°C 90% 9.2 mph WNW14.8 kmh WNW 11.5 mph18.5 kmh 28.13 in952.6 mb - 0.00 in0.0 mm 0.00 in0.0 mm
04:37 AM 24.6°F-4.1°C 22.1°F-5.5°C 90% 9.2 mph N14.8 kmh N 10.4 mph16.7 kmh 28.13 in952.6 mb - 0.00 in0.0 mm 0.00 in0.0 mm
04:38 AM 24.6°F-4.1°C 22.1°F-5.5°C 90% 9.2 mph N14.8 kmh N 11.5 mph18.5 kmh 28.14 in952.9 mb - 0.00 in0.0 mm 0.00 in0.0 mm
04:39 AM 24.6°F-4.1°C 22.1°F-5.5°C 90% 11.5 mph NNW18.5 kmh NNW 13.8 mph22.2 kmh 28.14 in952.9 mb - 0.00 in0.0 mm 0.00 in0.0 mm
04:40 AM 24.4°F-4.2°C 21.9°F-5.6°C 90% 9.2 mph ENE14.8 kmh ENE 10.4 mph16.7 kmh 28.14 in952.9 mb - 0.00 in0.0 mm 0.00 in0.0 mm
04:41 AM 24.4°F-4.2°C 21.9°F-5.6°C 90% 8.1 mph NW13.0 kmh NW 13.8 mph22.2 kmh 28.14 in952.9 mb - 0.00 in0.0 mm 0.00 in0.0 mm
04:42 AM 24.4°F-4.2°C 21.9°F-5.6°C 90% 11.5 mph NNW18.5 kmh NNW 13.8 mph22.2 kmh 28.14 in952.9 mb - 0.00 in0.0 mm 0.00 in0.0 mm
04:43 AM 24.4°F-4.2°C 21.9°F-5.6°C 90% 6.9 mph N11.1 kmh N 10.4 mph16.7 kmh 28.14 in952.9 mb - 0.00 in0.0 mm 0.00 in0.0 mm
04:44 AM 24.4°F-4.2°C 21.9°F-5.6°C 90% 9.2 mph NNW14.8 kmh NNW 11.5 mph18.5 kmh 28.14 in952.9 mb - 0.00 in0.0 mm 0.00 in0.0 mm
04:45 AM 24.4°F-4.2°C 21.9°F-5.6°C 90% 10.4 mph NW16.7 kmh NW 16.1 mph25.9 kmh 28.14 in952.9 mb - 0.00 in0.0 mm 0.00 in0.0 mm
04:46 AM 24.4°F-4.2°C 21.9°F-5.6°C 90% 8.1 mph WNW13.0 kmh WNW 11.5 mph18.5 kmh 28.14 in952.9 mb - 0.00 in0.0 mm 0.00 in0.0 mm
04:47 AM 24.4°F-4.2°C 21.9°F-5.6°C 90% 10.4 mph WNW16.7 kmh WNW 12.7 mph20.4 kmh 28.14 in952.9 mb - 0.00 in0.0 mm 0.00 in0.0 mm
04:48 AM 24.4°F-4.2°C 21.9°F-5.6°C 90% 11.5 mph WNW18.5 kmh WNW 12.7 mph20.4 kmh 28.14 in952.9 mb - 0.00 in0.0 mm 0.00 in0.0 mm
04:49 AM 24.4°F-4.2°C 21.9°F-5.6°C 90% 8.1 mph NW13.0 kmh NW 10.4 mph16.7 kmh 28.14 in952.9 mb - 0.00 in0.0 mm 0.00 in0.0 mm
04:50 AM 24.4°F-4.2°C 21.9°F-5.6°C 90% 8.1 mph W13.0 kmh W 9.2 mph14.8 kmh 28.14 in952.9 mb - 0.00 in0.0 mm 0.00 in0.0 mm
04:51 AM 24.4°F-4.2°C 21.9°F-5.6°C 90% 8.1 mph N13.0 kmh N 12.7 mph20.4 kmh 28.14 in952.9 mb - 0.00 in0.0 mm 0.00 in0.0 mm
04:52 AM 24.4°F-4.2°C 21.9°F-5.6°C 90% 11.5 mph NW18.5 kmh NW 13.8 mph22.2 kmh 28.14 in952.9 mb - 0.00 in0.0 mm 0.00 in0.0 mm
04:53 AM 24.4°F-4.2°C 21.9°F-5.6°C 90% 9.2 mph WNW14.8 kmh WNW 9.2 mph14.8 kmh 28.14 in952.9 mb - 0.00 in0.0 mm 0.00 in0.0 mm
04:54 AM 24.4°F-4.2°C 21.9°F-5.6°C 90% 6.9 mph NW11.1 kmh NW 9.2 mph14.8 kmh 28.14 in952.9 mb - 0.00 in0.0 mm 0.00 in0.0 mm
04:55 AM 24.4°F-4.2°C 21.9°F-5.6°C 90% 5.8 mph NW9.3 kmh NW 8.1 mph13.0 kmh 28.14 in952.9 mb - 0.00 in0.0 mm 0.00 in0.0 mm
04:56 AM 24.4°F-4.2°C 21.9°F-5.6°C 90% 5.8 mph N9.3 kmh N 6.9 mph11.1 kmh 28.14 in952.9 mb - 0.00 in0.0 mm 0.00 in0.0 mm
04:57 AM 24.4°F-4.2°C 21.9°F-5.6°C 90% 5.8 mph NNW9.3 kmh NNW 9.2 mph14.8 kmh 28.14 in952.9 mb - 0.00 in0.0 mm 0.00 in0.0 mm
04:58 AM 24.4°F-4.2°C 21.9°F-5.6°C 90% 6.9 mph NNW11.1 kmh NNW 9.2 mph14.8 kmh 28.14 in952.9 mb - 0.00 in0.0 mm 0.00 in0.0 mm
04:59 AM 24.4°F-4.2°C 21.9°F-5.6°C 90% 8.1 mph WNW13.0 kmh WNW 9.2 mph14.8 kmh 28.14 in952.9 mb - 0.00 in0.0 mm 0.00 in0.0 mm
05:00 AM 24.4°F-4.2°C 21.9°F-5.6°C 90% 9.2 mph N14.8 kmh N 13.8 mph22.2 kmh 28.14 in952.9 mb - 0.00 in0.0 mm 0.00 in0.0 mm
05:01 AM 24.3°F-4.3°C 21.8°F-5.7°C 90% 11.5 mph NW18.5 kmh NW 10.4 mph16.7 kmh 28.14 in952.9 mb - 0.00 in0.0 mm 0.00 in0.0 mm
05:02 AM 24.3°F-4.3°C 21.8°F-5.7°C 90% 6.9 mph WNW11.1 kmh WNW 16.1 mph25.9 kmh 28.15 in953.3 mb - 0.00 in0.0 mm 0.00 in0.0 mm
05:03 AM 24.3°F-4.3°C 21.8°F-5.7°C 90% 9.2 mph N14.8 kmh N 8.1 mph13.0 kmh 28.15 in953.3 mb - 0.00 in0.0 mm 0.00 in0.0 mm
05:04 AM 24.3°F-4.3°C 21.8°F-5.7°C 90% 8.1 mph NW13.0 kmh NW 11.5 mph18.5 kmh 28.15 in953.3 mb - 0.00 in0.0 mm 0.00 in0.0 mm
05:05 AM 24.3°F-4.3°C 21.8°F-5.7°C 90% 6.9 mph N11.1 kmh N 6.9 mph11.1 kmh 28.15 in953.3 mb - 0.00 in0.0 mm 0.00 in0.0 mm
05:06 AM 24.3°F-4.3°C 21.8°F-5.7°C 90% 5.8 mph N9.3 kmh N 10.4 mph16.7 kmh 28.15 in953.3 mb - 0.00 in0.0 mm 0.00 in0.0 mm
05:07 AM 24.3°F-4.3°C 21.8°F-5.7°C 90% 9.2 mph NW14.8 kmh NW 13.8 mph22.2 kmh 28.15 in953.3 mb - 0.00 in0.0 mm 0.00 in0.0 mm
05:08 AM 24.3°F-4.3°C 21.8°F-5.7°C 90% 10.4 mph NW16.7 kmh NW 10.4 mph16.7 kmh 28.15 in953.3 mb - 0.00 in0.0 mm 0.00 in0.0 mm
05:09 AM 24.3°F-4.3°C 21.8°F-5.7°C 90% 8.1 mph N13.0 kmh N 10.4 mph16.7 kmh 28.15 in953.3 mb - 0.00 in0.0 mm 0.00 in0.0 mm
05:10 AM 24.3°F-4.3°C 21.8°F-5.7°C 90% 8.1 mph NNW13.0 kmh NNW 10.4 mph16.7 kmh 28.15 in953.3 mb - 0.00 in0.0 mm 0.00 in0.0 mm
05:11 AM 24.3°F-4.3°C 21.8°F-5.7°C 90% 5.8 mph N9.3 kmh N 13.8 mph22.2 kmh 28.15 in953.3 mb - 0.00 in0.0 mm 0.00 in0.0 mm
05:12 AM 24.3°F-4.3°C 21.8°F-5.7°C 90% 10.4 mph NW16.7 kmh NW 13.8 mph22.2 kmh 28.15 in953.3 mb - 0.00 in0.0 mm 0.00 in0.0 mm
05:13 AM 24.3°F-4.3°C 21.8°F-5.7°C 90% 9.2 mph NNW14.8 kmh NNW 10.4 mph16.7 kmh 28.15 in953.3 mb - 0.00 in0.0 mm 0.00 in0.0 mm
05:14 AM 24.3°F-4.3°C 21.8°F-5.7°C 90% 6.9 mph NW11.1 kmh NW 8.1 mph13.0 kmh 28.16 in953.6 mb - 0.00 in0.0 mm 0.00 in0.0 mm
05:15 AM 24.3°F-4.3°C 22.1°F-5.5°C 91% 6.9 mph N11.1 kmh N 8.1 mph13.0 kmh 28.16 in953.6 mb - 0.00 in0.0 mm 0.00 in0.0 mm
05:16 AM 24.3°F-4.3°C 22.1°F-5.5°C 91% 8.1 mph NW13.0 kmh NW 10.4 mph16.7 kmh 28.16 in953.6 mb - 0.00 in0.0 mm 0.00 in0.0 mm
05:17 AM 24.3°F-4.3°C 22.1°F-5.5°C 91% 5.8 mph NNW9.3 kmh NNW 15.0 mph24.1 kmh 28.16 in953.6 mb - 0.00 in0.0 mm 0.00 in0.0 mm
05:18 AM 24.3°F-4.3°C 22.1°F-5.5°C 91% 9.2 mph N14.8 kmh N 15.0 mph24.1 kmh 28.16 in953.6 mb - 0.00 in0.0 mm 0.00 in0.0 mm
05:19 AM 24.3°F-4.3°C 22.1°F-5.5°C 91% 8.1 mph N13.0 kmh N 8.1 mph13.0 kmh 28.16 in953.6 mb - 0.00 in0.0 mm 0.00 in0.0 mm
05:20 AM 24.3°F-4.3°C 22.1°F-5.5°C 91% 8.1 mph NNW13.0 kmh NNW 9.2 mph14.8 kmh 28.16 in953.6 mb - 0.00 in0.0 mm 0.00 in0.0 mm
05:21 AM 24.3°F-4.3°C 22.1°F-5.5°C 91% 6.9 mph NW11.1 kmh NW 10.4 mph16.7 kmh 28.16 in953.6 mb - 0.00 in0.0 mm 0.00 in0.0 mm
05:22 AM 24.2°F-4.3°C 21.9°F-5.6°C 91% 8.1 mph N13.0 kmh N 10.4 mph16.7 kmh 28.16 in953.6 mb - 0.00 in0.0 mm 0.00 in0.0 mm
05:23 AM 24.1°F-4.4°C 21.9°F-5.6°C 91% 9.2 mph NNW14.8 kmh NNW 10.4 mph16.7 kmh 28.16 in953.6 mb - 0.00 in0.0 mm 0.00 in0.0 mm
05:24 AM 24.1°F-4.4°C 21.9°F-5.6°C 91% 9.2 mph NNW14.8 kmh NNW 10.4 mph16.7 kmh 28.16 in953.6 mb - 0.00 in0.0 mm 0.00 in0.0 mm
05:25 AM 24.1°F-4.4°C 21.6°F-5.8°C 90% 10.4 mph NW16.7 kmh NW 15.0 mph24.1 kmh 28.16 in953.6 mb - 0.00 in0.0 mm 0.00 in0.0 mm
05:26 AM 24.1°F-4.4°C 21.6°F-5.8°C 90% 10.4 mph N16.7 kmh N 10.4 mph16.7 kmh 28.16 in953.6 mb - 0.00 in0.0 mm 0.00 in0.0 mm
05:27 AM 24.1°F-4.4°C 21.6°F-5.8°C 90% 5.8 mph N9.3 kmh N 10.4 mph16.7 kmh 28.16 in953.6 mb - 0.00 in0.0 mm 0.00 in0.0 mm
05:28 AM 24.1°F-4.4°C 21.6°F-5.8°C 90% 8.1 mph NW13.0 kmh NW 10.4 mph16.7 kmh 28.16 in953.6 mb - 0.00 in0.0 mm 0.00 in0.0 mm
05:29 AM 24.1°F-4.4°C 21.6°F-5.8°C 90% 10.4 mph NNE16.7 kmh NNE 13.8 mph22.2 kmh 28.16 in953.6 mb - 0.00 in0.0 mm 0.00 in0.0 mm
05:30 AM 24.1°F-4.4°C 21.6°F-5.8°C 90% 11.5 mph N18.5 kmh N 13.8 mph22.2 kmh 28.16 in953.6 mb - 0.00 in0.0 mm 0.00 in0.0 mm
05:31 AM 24.1°F-4.4°C 21.6°F-5.8°C 90% 9.2 mph NW14.8 kmh NW 16.1 mph25.9 kmh 28.16 in953.6 mb - 0.00 in0.0 mm 0.00 in0.0 mm
05:32 AM 24.1°F-4.4°C 21.6°F-5.8°C 90% 9.2 mph NW14.8 kmh NW 17.3 mph27.8 kmh 28.16 in953.6 mb - 0.00 in0.0 mm 0.00 in0.0 mm
05:33 AM 23.9°F-4.5°C 21.4°F-5.9°C 90% 13.8 mph WNW22.2 kmh WNW 17.3 mph27.8 kmh 28.16 in953.6 mb - 0.00 in0.0 mm 0.00 in0.0 mm
05:34 AM 23.9°F-4.5°C 21.4°F-5.9°C 90% 8.1 mph N13.0 kmh N 6.9 mph11.1 kmh 28.16 in953.6 mb - 0.00 in0.0 mm 0.00 in0.0 mm
05:35 AM 23.9°F-4.5°C 21.4°F-5.9°C 90% 8.1 mph N13.0 kmh N 11.5 mph18.5 kmh 28.16 in953.6 mb - 0.00 in0.0 mm 0.00 in0.0 mm
05:36 AM 23.9°F-4.5°C 21.4°F-5.9°C 90% 12.7 mph N20.4 kmh N 17.3 mph27.8 kmh 28.16 in953.6 mb - 0.00 in0.0 mm 0.00 in0.0 mm
05:37 AM 23.9°F-4.5°C 21.4°F-5.9°C 90% 11.5 mph NW18.5 kmh NW 13.8 mph22.2 kmh 28.16 in953.6 mb - 0.00 in0.0 mm 0.00 in0.0 mm
05:38 AM 23.9°F-4.5°C 21.4°F-5.9°C 90% 10.4 mph W16.7 kmh W 13.8 mph22.2 kmh 28.18 in954.3 mb - 0.00 in0.0 mm 0.00 in0.0 mm
05:39 AM 23.9°F-4.5°C 21.4°F-5.9°C 90% 10.4 mph W16.7 kmh W 13.8 mph22.2 kmh 28.18 in954.3 mb - 0.00 in0.0 mm 0.00 in0.0 mm
05:40 AM 23.9°F-4.5°C 21.4°F-5.9°C 90% 6.9 mph NW11.1 kmh NW 6.9 mph11.1 kmh 28.18 in954.3 mb - 0.00 in0.0 mm 0.00 in0.0 mm
05:41 AM 23.9°F-4.5°C 21.4°F-5.9°C 90% 5.8 mph N9.3 kmh N 10.4 mph16.7 kmh 28.18 in954.3 mb - 0.00 in0.0 mm 0.00 in0.0 mm
05:42 AM 23.9°F-4.5°C 21.4°F-5.9°C 90% 8.1 mph N13.0 kmh N 10.4 mph16.7 kmh 28.18 in954.3 mb - 0.00 in0.0 mm 0.00 in0.0 mm
05:43 AM 23.9°F-4.5°C 21.4°F-5.9°C 90% 8.1 mph NNW13.0 kmh NNW 13.8 mph22.2 kmh 28.18 in954.3 mb - 0.00 in0.0 mm 0.00 in0.0 mm
05:44 AM 23.9°F-4.5°C 21.1°F-6.1°C 89% 9.2 mph NW14.8 kmh NW 8.1 mph13.0 kmh 28.18 in954.3 mb - 0.00 in0.0 mm 0.00 in0.0 mm
05:45 AM 23.9°F-4.5°C 21.1°F-6.1°C 89% 6.9 mph NW11.1 kmh NW 9.2 mph14.8 kmh 28.18 in954.3 mb - 0.00 in0.0 mm 0.00 in0.0 mm
05:46 AM 23.9°F-4.5°C 21.1°F-6.1°C 89% 8.1 mph N13.0 kmh N 11.5 mph18.5 kmh 28.18 in954.3 mb - 0.00 in0.0 mm 0.00 in0.0 mm
05:47 AM 23.9°F-4.5°C 20.9°F-6.2°C 88% 9.2 mph N14.8 kmh N 13.8 mph22.2 kmh 28.18 in954.3 mb - 0.00 in0.0 mm 0.00 in0.0 mm
05:48 AM 23.7°F-4.6°C 20.7°F-6.3°C 88% 9.2 mph NW14.8 kmh NW 11.5 mph18.5 kmh 28.18 in954.3 mb - 0.00 in0.0 mm 0.00 in0.0 mm
05:49 AM 23.7°F-4.6°C 20.7°F-6.3°C 88% 10.4 mph NW16.7 kmh NW 11.5 mph18.5 kmh 28.18 in954.3 mb - 0.00 in0.0 mm 0.00 in0.0 mm
05:50 AM 23.7°F-4.6°C 20.7°F-6.3°C 88% 6.9 mph NW11.1 kmh NW 6.9 mph11.1 kmh 28.19 in954.6 mb - 0.00 in0.0 mm 0.00 in0.0 mm
05:51 AM 23.7°F-4.6°C 20.7°F-6.3°C 88% 8.1 mph WNW13.0 kmh WNW 13.8 mph22.2 kmh 28.19 in954.6 mb - 0.00 in0.0 mm 0.00 in0.0 mm
05:52 AM 23.7°F-4.6°C 20.7°F-6.3°C 88% 10.4 mph NNW16.7 kmh NNW 11.5 mph18.5 kmh 28.19 in954.6 mb - 0.00 in0.0 mm 0.00 in0.0 mm
05:53 AM 23.7°F-4.6°C 20.7°F-6.3°C 88% 6.9 mph NW11.1 kmh NW 8.1 mph13.0 kmh 28.19 in954.6 mb - 0.00 in0.0 mm 0.00 in0.0 mm
05:54 AM 23.7°F-4.6°C 20.7°F-6.3°C 88% 6.9 mph NW11.1 kmh NW 11.5 mph18.5 kmh 28.19 in954.6 mb - 0.00 in0.0 mm 0.00 in0.0 mm
05:55 AM 23.7°F-4.6°C 20.7°F-6.3°C 88% 10.4 mph NW16.7 kmh NW 12.7 mph20.4 kmh 28.19 in954.6 mb - 0.00 in0.0 mm 0.00 in0.0 mm
05:56 AM 23.7°F-4.6°C 20.7°F-6.3°C 88% 8.1 mph W13.0 kmh W 6.9 mph11.1 kmh 28.19 in954.6 mb - 0.00 in0.0 mm 0.00 in0.0 mm
05:57 AM 23.7°F-4.6°C 20.7°F-6.3°C 88% 5.8 mph NW9.3 kmh NW 10.4 mph16.7 kmh 28.19 in954.6 mb - 0.00 in0.0 mm 0.00 in0.0 mm
05:58 AM 23.7°F-4.6°C 20.7°F-6.3°C 88% 8.1 mph NW13.0 kmh NW 15.0 mph24.1 kmh 28.19 in954.6 mb - 0.00 in0.0 mm 0.00 in0.0 mm
05:59 AM 23.7°F-4.6°C 20.7°F-6.3°C 88% 11.5 mph NW18.5 kmh NW 15.0 mph24.1 kmh 28.19 in954.6 mb - 0.00 in0.0 mm 0.00 in0.0 mm
06:00 AM 23.7°F-4.6°C 20.7°F-6.3°C 88% 9.2 mph N14.8 kmh N 9.2 mph14.8 kmh 28.19 in954.6 mb - 0.00 in0.0 mm 0.00 in0.0 mm
06:01 AM 23.7°F-4.6°C 20.7°F-6.3°C 88% 6.9 mph NNE11.1 kmh NNE 9.2 mph14.8 kmh 28.19 in954.6 mb - 0.00 in0.0 mm 0.00 in0.0 mm
06:02 AM 23.5°F-4.7°C 20.5°F-6.4°C 88% 6.9 mph NNW11.1 kmh NNW 12.7 mph20.4 kmh 28.19 in954.6 mb - 0.00 in0.0 mm 0.00 in0.0 mm
06:03 AM 23.5°F-4.7°C 20.2°F-6.6°C 87% 9.2 mph NNW14.8 kmh NNW 12.7 mph20.4 kmh 28.19 in954.6 mb - 0.00 in0.0 mm 0.00 in0.0 mm
06:04 AM 23.5°F-4.7°C 20.2°F-6.6°C 87% 6.9 mph W11.1 kmh W 6.9 mph11.1 kmh 28.19 in954.6 mb - 0.00 in0.0 mm 0.00 in0.0 mm
06:05 AM 23.5°F-4.7°C 20.2°F-6.6°C 87% 6.9 mph NW11.1 kmh NW 10.4 mph16.7 kmh 28.19 in954.6 mb - 0.00 in0.0 mm 0.00 in0.0 mm
06:06 AM 23.5°F-4.7°C 20.2°F-6.6°C 87% 9.2 mph NNW14.8 kmh NNW 10.4 mph16.7 kmh 28.19 in954.6 mb - 0.00 in0.0 mm 0.00 in0.0 mm
06:07 AM 23.5°F-4.7°C 20.2°F-6.6°C 87% 9.2 mph NNW14.8 kmh NNW 10.4 mph16.7 kmh 28.19 in954.6 mb - 0.00 in0.0 mm 0.00 in0.0 mm
06:08 AM 23.5°F-4.7°C 20.2°F-6.6°C 87% 9.2 mph NE14.8 kmh NE 9.2 mph14.8 kmh 28.19 in954.6 mb - 0.00 in0.0 mm 0.00 in0.0 mm
06:09 AM 23.4°F-4.8°C 20.1°F-6.6°C 87% 8.1 mph W13.0 kmh W 10.4 mph16.7 kmh 28.19 in954.6 mb - 0.00 in0.0 mm 0.00 in0.0 mm
06:10 AM 23.4°F-4.8°C 20.1°F-6.6°C 87% 6.9 mph W11.1 kmh W 11.5 mph18.5 kmh 28.19 in954.6 mb - 0.00 in0.0 mm 0.00 in0.0 mm
06:11 AM 23.4°F-4.8°C 20.1°F-6.6°C 87% 6.9 mph NW11.1 kmh NW 9.2 mph14.8 kmh 28.19 in954.6 mb - 0.00 in0.0 mm 0.00 in0.0 mm
06:12 AM 23.4°F-4.8°C 20.1°F-6.6°C 87% 6.9 mph NW11.1 kmh NW 12.7 mph20.4 kmh 28.19 in954.6 mb - 0.00 in0.0 mm 0.00 in0.0 mm
06:13 AM 23.4°F-4.8°C 20.1°F-6.6°C 87% 6.9 mph NW11.1 kmh NW 6.9 mph11.1 kmh 28.20 in955.0 mb - 0.00 in0.0 mm 0.00 in0.0 mm
06:14 AM 23.4°F-4.8°C 20.4°F-6.4°C 88% 5.8 mph NW9.3 kmh NW 6.9 mph11.1 kmh 28.20 in955.0 mb - 0.00 in0.0 mm 0.00 in0.0 mm
06:15 AM 23.4°F-4.8°C 20.4°F-6.4°C 88% 5.8 mph WNW9.3 kmh WNW 6.9 mph11.1 kmh 28.20 in955.0 mb - 0.00 in0.0 mm 0.00 in0.0 mm
06:16 AM 23.4°F-4.8°C 20.4°F-6.4°C 88% 6.9 mph N11.1 kmh N 6.9 mph11.1 kmh 28.20 in955.0 mb - 0.00 in0.0 mm 0.00 in0.0 mm
06:17 AM 23.4°F-4.8°C 20.4°F-6.4°C 88% 5.8 mph NW9.3 kmh NW 5.8 mph9.3 kmh 28.20 in955.0 mb - 0.00 in0.0 mm 0.00 in0.0 mm
06:18 AM 23.4°F-4.8°C 20.4°F-6.4°C 88% 4.6 mph N7.4 kmh N 10.4 mph16.7 kmh 28.20 in955.0 mb - 0.00 in0.0 mm 0.00 in0.0 mm
06:19 AM 23.4°F-4.8°C 20.4°F-6.4°C 88% 6.9 mph NW11.1 kmh NW 10.4 mph16.7 kmh 28.20 in955.0 mb - 0.00 in0.0 mm 0.00 in0.0 mm
06:20 AM 23.4°F-4.8°C 20.4°F-6.4°C 88% 3.5 mph N5.6 kmh N 5.8 mph9.3 kmh 28.20 in955.0 mb - 0.00 in0.0 mm 0.00 in0.0 mm
06:21 AM 23.4°F-4.8°C 20.4°F-6.4°C 88% 3.5 mph NNW5.6 kmh NNW 4.6 mph7.4 kmh 28.20 in955.0 mb - 0.00 in0.0 mm 0.00 in0.0 mm
06:22 AM 23.4°F-4.8°C 20.4°F-6.4°C 88% 4.6 mph NNW7.4 kmh NNW 5.8 mph9.3 kmh 28.20 in955.0 mb - 0.00 in0.0 mm 0.00 in0.0 mm
06:23 AM 23.4°F-4.8°C 20.4°F-6.4°C 88% 4.6 mph WNW7.4 kmh WNW 5.8 mph9.3 kmh 28.20 in955.0 mb - 0.00 in0.0 mm 0.00 in0.0 mm
06:24 AM 23.4°F-4.8°C 20.4°F-6.4°C 88% 4.6 mph NW7.4 kmh NW 6.9 mph11.1 kmh 28.20 in955.0 mb - 0.00 in0.0 mm 0.00 in0.0 mm
06:25 AM 23.4°F-4.8°C 20.4°F-6.4°C 88% 6.9 mph NNW11.1 kmh NNW 6.9 mph11.1 kmh 28.21 in955.3 mb - 0.00 in0.0 mm 0.00 in0.0 mm
06:26 AM 23.4°F-4.8°C 20.4°F-6.4°C 88% 5.8 mph N9.3 kmh N 11.5 mph18.5 kmh 28.21 in955.3 mb - 0.00 in0.0 mm 0.00 in0.0 mm
06:27 AM 23.4°F-4.8°C 20.4°F-6.4°C 88% 6.9 mph NW11.1 kmh NW 9.2 mph14.8 kmh 28.21 in955.3 mb - 0.00 in0.0 mm 0.00 in0.0 mm
06:28 AM 23.4°F-4.8°C 20.4°F-6.4°C 88% 6.9 mph N11.1 kmh N 8.1 mph13.0 kmh 28.21 in955.3 mb - 0.00 in0.0 mm 0.00 in0.0 mm
06:29 AM 23.4°F-4.8°C 20.4°F-6.4°C 88% 6.9 mph N11.1 kmh N 11.5 mph18.5 kmh 28.21 in955.3 mb - 0.00 in0.0 mm 0.00 in0.0 mm
06:30 AM 23.4°F-4.8°C 20.4°F-6.4°C 88% 8.1 mph N13.0 kmh N 11.5 mph18.5 kmh 28.21 in955.3 mb - 0.00 in0.0 mm 0.00 in0.0 mm
06:31 AM 23.4°F-4.8°C 20.3°F-6.5°C 88% 6.9 mph NNW11.1 kmh NNW 9.2 mph14.8 kmh 28.21 in955.3 mb - 0.00 in0.0 mm 0.00 in0.0 mm
06:32 AM 23.2°F-4.9°C 20.2°F-6.6°C 88% 8.1 mph N13.0 kmh N 9.2 mph14.8 kmh 28.21 in955.3 mb - 0.00 in0.0 mm 0.00 in0.0 mm
06:33 AM 23.2°F-4.9°C 20.2°F-6.6°C 88% 6.9 mph 11.1 kmh 9.2 mph14.8 kmh 28.21 in955.3 mb - 0.00 in0.0 mm 0.00 in0.0 mm
06:34 AM 23.2°F-4.9°C 20.2°F-6.6°C 88% 4.6 mph NW7.4 kmh NW 8.1 mph13.0 kmh 28.21 in955.3 mb - 0.00 in0.0 mm 0.00 in0.0 mm
06:35 AM 23.2°F-4.9°C 20.2°F-6.6°C 88% 5.8 mph NE9.3 kmh NE 8.1 mph13.0 kmh 28.21 in955.3 mb - 0.00 in0.0 mm 0.00 in0.0 mm
06:36 AM 23.2°F-4.9°C 20.2°F-6.6°C 88% 5.8 mph N9.3 kmh N 5.8 mph9.3 kmh 28.21 in955.3 mb - 0.00 in0.0 mm 0.00 in0.0 mm
06:37 AM 23.2°F-4.9°C 20.2°F-6.6°C 88% 5.8 mph NNE9.3 kmh NNE 6.9 mph11.1 kmh 28.21 in955.3 mb - 0.00 in0.0 mm 0.00 in0.0 mm
06:38 AM 23.2°F-4.9°C 20.2°F-6.6°C 88% 8.1 mph NE13.0 kmh NE 9.2 mph14.8 kmh 28.21 in955.3 mb - 0.00 in0.0 mm 0.00 in0.0 mm
06:39 AM 23.2°F-4.9°C 20.2°F-6.6°C 88% 6.9 mph NW11.1 kmh NW 5.8 mph9.3 kmh 28.21 in955.3 mb - 0.00 in0.0 mm 0.00 in0.0 mm
06:40 AM 23.2°F-4.9°C 20.2°F-6.6°C 88% 4.6 mph NE7.4 kmh NE 6.9 mph11.1 kmh 28.21 in955.3 mb - 0.00 in0.0 mm 0.00 in0.0 mm
06:41 AM 23.2°F-4.9°C 20.2°F-6.6°C 88% 4.6 mph NE7.4 kmh NE 6.9 mph11.1 kmh 28.21 in955.3 mb - 0.00 in0.0 mm 0.00 in0.0 mm
06:42 AM 23.2°F-4.9°C 20.2°F-6.6°C 88% 5.8 mph N9.3 kmh N 6.9 mph11.1 kmh 28.21 in955.3 mb - 0.00 in0.0 mm 0.00 in0.0 mm
06:43 AM 23.2°F-4.9°C 20.2°F-6.6°C 88% 6.9 mph NNE11.1 kmh NNE 8.1 mph13.0 kmh 28.21 in955.3 mb - 0.00 in0.0 mm 0.00 in0.0 mm
06:44 AM 23.2°F-4.9°C 20.2°F-6.6°C 88% 5.8 mph SW9.3 kmh SW 6.9 mph11.1 kmh 28.21 in955.3 mb - 0.00 in0.0 mm 0.00 in0.0 mm
06:45 AM 23.2°F-4.9°C 20.4°F-6.4°C 89% 5.8 mph NE9.3 kmh NE 9.2 mph14.8 kmh 28.21 in955.3 mb - 0.00 in0.0 mm 0.00 in0.0 mm
06:46 AM 23.2°F-4.9°C 20.4°F-6.4°C 89% 8.1 mph WSW13.0 kmh WSW 11.5 mph18.5 kmh 28.21 in955.3 mb - 0.00 in0.0 mm 0.00 in0.0 mm
06:47 AM 23.2°F-4.9°C 20.4°F-6.4°C 89% 10.4 mph NW16.7 kmh NW 11.5 mph18.5 kmh 28.21 in955.3 mb - 0.00 in0.0 mm 0.00 in0.0 mm
06:48 AM 23.2°F-4.9°C 20.4°F-6.4°C 89% 8.1 mph WNW13.0 kmh WNW 8.1 mph13.0 kmh 28.21 in955.3 mb - 0.00 in0.0 mm 0.00 in0.0 mm
06:49 AM 23.2°F-4.9°C 20.4°F-6.4°C 89% 5.8 mph W9.3 kmh W 5.8 mph9.3 kmh 28.21 in955.3 mb - 0.00 in0.0 mm 0.00 in0.0 mm
06:50 AM 23.2°F-4.9°C 20.4°F-6.4°C 89% 4.6 mph NNE7.4 kmh NNE 10.4 mph16.7 kmh 28.22 in955.6 mb - 0.00 in0.0 mm 0.00 in0.0 mm
06:51 AM 23.2°F-4.9°C 20.4°F-6.4°C 89% 6.9 mph NNE11.1 kmh NNE 10.4 mph16.7 kmh 28.22 in955.6 mb - 0.00 in0.0 mm 0.00 in0.0 mm
06:52 AM 23.2°F-4.9°C 20.4°F-6.4°C 89% 6.9 mph NE11.1 kmh NE 10.4 mph16.7 kmh 28.22 in955.6 mb - 0.00 in0.0 mm 0.00 in0.0 mm
06:53 AM 23.2°F-4.9°C 20.4°F-6.4°C 89% 6.9 mph N11.1 kmh N 10.4 mph16.7 kmh 28.22 in955.6 mb - 0.00 in0.0 mm 0.00 in0.0 mm
06:54 AM 23.2°F-4.9°C 20.4°F-6.4°C 89% 6.9 mph NW11.1 kmh NW 10.4 mph16.7 kmh 28.22 in955.6 mb - 0.00 in0.0 mm 0.00 in0.0 mm
06:55 AM 23.2°F-4.9°C 20.4°F-6.4°C 89% 5.8 mph NW9.3 kmh NW 4.6 mph7.4 kmh 28.22 in955.6 mb - 0.00 in0.0 mm 0.00 in0.0 mm
06:56 AM 23.2°F-4.9°C 20.4°F-6.4°C 89% 4.6 mph N7.4 kmh N 5.8 mph9.3 kmh 28.22 in955.6 mb - 0.00 in0.0 mm 0.00 in0.0 mm
06:57 AM 23.2°F-4.9°C 20.4°F-6.4°C 89% 6.9 mph NW11.1 kmh NW 12.7 mph20.4 kmh 28.22 in955.6 mb - 0.00 in0.0 mm 0.00 in0.0 mm
06:58 AM 23.2°F-4.9°C 20.4°F-6.4°C 89% 9.2 mph NNW14.8 kmh NNW 9.2 mph14.8 kmh 28.22 in955.6 mb - 0.00 in0.0 mm 0.00 in0.0 mm
06:59 AM 23.2°F-4.9°C 20.4°F-6.4°C 89% 5.8 mph NE9.3 kmh NE 6.9 mph11.1 kmh 28.22 in955.6 mb - 0.00 in0.0 mm 0.00 in0.0 mm
07:00 AM 23.2°F-4.9°C 20.4°F-6.4°C 89% 4.6 mph N7.4 kmh N 8.1 mph13.0 kmh 28.22 in955.6 mb - 0.00 in0.0 mm 0.00 in0.0 mm
07:01 AM 23.2°F-4.9°C 20.4°F-6.4°C 89% 6.9 mph N11.1 kmh N 10.4 mph16.7 kmh 28.22 in955.6 mb - 0.00 in0.0 mm 0.00 in0.0 mm
07:02 AM 23.0°F-5.0°C 20.2°F-6.6°C 89% 8.1 mph NNE13.0 kmh NNE 6.9 mph11.1 kmh 28.23 in956.0 mb - 0.00 in0.0 mm 0.00 in0.0 mm
07:03 AM 23.0°F-5.0°C 20.2°F-6.6°C 89% 6.9 mph N11.1 kmh N 9.2 mph14.8 kmh 28.23 in956.0 mb - 0.00 in0.0 mm 0.00 in0.0 mm
07:04 AM 23.0°F-5.0°C 20.2°F-6.6°C 89% 6.9 mph NNW11.1 kmh NNW 9.2 mph14.8 kmh 28.23 in956.0 mb - 0.00 in0.0 mm 0.00 in0.0 mm
07:05 AM 23.0°F-5.0°C 20.2°F-6.6°C 89% 8.1 mph N13.0 kmh N 8.1 mph13.0 kmh 28.23 in956.0 mb - 0.00 in0.0 mm 0.00 in0.0 mm
07:06 AM 23.0°F-5.0°C 20.2°F-6.6°C 89% 6.9 mph N11.1 kmh N 10.4 mph16.7 kmh 28.23 in956.0 mb - 0.00 in0.0 mm 0.00 in0.0 mm
07:07 AM 23.0°F-5.0°C 20.2°F-6.6°C 89% 6.9 mph NNW11.1 kmh NNW 6.9 mph11.1 kmh 28.23 in956.0 mb - 0.00 in0.0 mm 0.00 in0.0 mm
07:08 AM 23.0°F-5.0°C 20.2°F-6.6°C 89% 5.8 mph 9.3 kmh 11.5 mph18.5 kmh 28.23 in956.0 mb - 0.00 in0.0 mm 0.00 in0.0 mm
07:09 AM 23.0°F-5.0°C 20.2°F-6.6°C 89% 6.9 mph N11.1 kmh N 11.5 mph18.5 kmh 28.23 in956.0 mb - 0.00 in0.0 mm 0.00 in0.0 mm
07:10 AM 23.0°F-5.0°C 20.2°F-6.6°C 89% 6.9 mph ENE11.1 kmh ENE 11.5 mph18.5 kmh 28.23 in956.0 mb - 0.00 in0.0 mm 0.00 in0.0 mm
07:11 AM 23.0°F-5.0°C 20.2°F-6.6°C 89% 5.8 mph N9.3 kmh N 4.6 mph7.4 kmh 28.23 in956.0 mb - 0.00 in0.0 mm 0.00 in0.0 mm
07:12 AM 23.0°F-5.0°C 20.2°F-6.6°C 89% 4.6 mph NE7.4 kmh NE 4.6 mph7.4 kmh 28.23 in956.0 mb - 0.00 in0.0 mm 0.00 in0.0 mm
07:13 AM 23.0°F-5.0°C 20.2°F-6.6°C 89% 3.5 mph N5.6 kmh N 6.9 mph11.1 kmh 28.23 in956.0 mb - 0.00 in0.0 mm 0.00 in0.0 mm
07:14 AM 23.0°F-5.0°C 20.2°F-6.6°C 89% 5.8 mph N9.3 kmh N 6.9 mph11.1 kmh 28.23 in956.0 mb - 0.00 in0.0 mm 0.00 in0.0 mm
07:15 AM 23.0°F-5.0°C 20.2°F-6.6°C 89% 3.5 mph N5.6 kmh N 5.8 mph9.3 kmh 28.23 in956.0 mb - 0.00 in0.0 mm 0.00 in0.0 mm
07:16 AM 23.0°F-5.0°C 20.2°F-6.6°C 89% 6.9 mph NNE11.1 kmh NNE 10.4 mph16.7 kmh 28.23 in956.0 mb - 0.00 in0.0 mm 0.00 in0.0 mm
07:17 AM 23.0°F-5.0°C 20.2°F-6.6°C 89% 9.2 mph N14.8 kmh N 8.1 mph13.0 kmh 28.23 in956.0 mb - 0.00 in0.0 mm 0.00 in0.0 mm
07:18 AM 23.0°F-5.0°C 20.2°F-6.6°C 89% 6.9 mph ENE11.1 kmh ENE 8.1 mph13.0 kmh 28.23 in956.0 mb - 0.00 in0.0 mm 0.00 in0.0 mm
07:19 AM 23.0°F-5.0°C 20.2°F-6.6°C 89% 5.8 mph N9.3 kmh N 6.9 mph11.1 kmh 28.23 in956.0 mb - 0.00 in0.0 mm 0.00 in0.0 mm
07:20 AM 23.0°F-5.0°C 20.2°F-6.6°C 89% 4.6 mph N7.4 kmh N 5.8 mph9.3 kmh 28.23 in956.0 mb - 0.00 in0.0 mm 0.00 in0.0 mm
07:21 AM 23.0°F-5.0°C 20.2°F-6.6°C 89% 5.8 mph N9.3 kmh N 8.1 mph13.0 kmh 28.23 in956.0 mb - 0.00 in0.0 mm 0.00 in0.0 mm
07:22 AM 22.9°F-5.1°C 20.1°F-6.6°C 89% 9.2 mph WNW14.8 kmh WNW 13.8 mph22.2 kmh 28.23 in956.0 mb - 0.00 in0.0 mm 0.00 in0.0 mm
07:23 AM 22.8°F-5.1°C 20.0°F-6.7°C 89% 10.4 mph NNW16.7 kmh NNW 13.8 mph22.2 kmh 28.23 in956.0 mb - 0.00 in0.0 mm 0.00 in0.0 mm
07:24 AM 22.8°F-5.1°C 20.0°F-6.7°C 89% 5.8 mph N9.3 kmh N 8.1 mph13.0 kmh 28.23 in956.0 mb - 0.00 in0.0 mm 0.00 in0.0 mm
07:25 AM 22.8°F-5.1°C 20.0°F-6.7°C 89% 6.9 mph N11.1 kmh N 10.4 mph16.7 kmh 28.23 in956.0 mb - 0.00 in0.0 mm 0.00 in0.0 mm
07:26 AM 22.8°F-5.1°C 20.0°F-6.7°C 89% 8.1 mph N13.0 kmh N 10.4 mph16.7 kmh 28.24 in956.3 mb - 0.00 in0.0 mm 0.00 in0.0 mm
07:27 AM 22.8°F-5.1°C 20.0°F-6.7°C 89% 5.8 mph NE9.3 kmh NE 8.1 mph13.0 kmh 28.25 in956.7 mb - 0.00 in0.0 mm 0.00 in0.0 mm
07:28 AM 22.8°F-5.1°C 20.0°F-6.7°C 89% 8.1 mph NW13.0 kmh NW 10.4 mph16.7 kmh 28.25 in956.7 mb - 0.00 in0.0 mm 0.00 in0.0 mm
07:29 AM 22.8°F-5.1°C 20.0°F-6.7°C 89% 10.4 mph NNE16.7 kmh NNE 12.7 mph20.4 kmh 28.25 in956.7 mb - 0.00 in0.0 mm 0.00 in0.0 mm
07:30 AM 22.8°F-5.1°C 20.0°F-6.7°C 89% 6.9 mph N11.1 kmh N 5.8 mph9.3 kmh 28.25 in956.7 mb - 0.00 in0.0 mm 0.00 in0.0 mm
07:31 AM 22.8°F-5.1°C 20.0°F-6.7°C 89% 5.8 mph NW9.3 kmh NW 10.4 mph16.7 kmh 28.25 in956.7 mb - 0.00 in0.0 mm 0.00 in0.0 mm
07:32 AM 22.8°F-5.1°C 20.0°F-6.7°C 89% 6.9 mph NNW11.1 kmh NNW 6.9 mph11.1 kmh 28.25 in956.7 mb - 0.00 in0.0 mm 0.00 in0.0 mm
07:33 AM 22.8°F-5.1°C 20.0°F-6.7°C 89% 5.8 mph NNW9.3 kmh NNW 8.1 mph13.0 kmh 28.25 in956.7 mb - 0.00 in0.0 mm 0.00 in0.0 mm
07:34 AM 22.8°F-5.1°C 20.0°F-6.7°C 89% 6.9 mph N11.1 kmh N 8.1 mph13.0 kmh 28.25 in956.7 mb - 0.00 in0.0 mm 0.00 in0.0 mm
07:35 AM 22.8°F-5.1°C 20.0°F-6.7°C 89% 5.8 mph NNW9.3 kmh NNW 8.1 mph13.0 kmh 28.25 in956.7 mb - 0.00 in0.0 mm 0.00 in0.0 mm
07:36 AM 22.8°F-5.1°C 20.0°F-6.7°C 89% 6.9 mph N11.1 kmh N 10.4 mph16.7 kmh 28.25 in956.7 mb - 0.00 in0.0 mm 0.00 in0.0 mm
07:37 AM 22.8°F-5.1°C 20.0°F-6.7°C 89% 5.8 mph NW9.3 kmh NW 5.8 mph9.3 kmh 28.25 in956.7 mb - 0.00 in0.0 mm 0.00 in0.0 mm
07:38 AM 22.8°F-5.1°C 20.0°F-6.7°C 89% 4.6 mph WNW7.4 kmh WNW 5.8 mph9.3 kmh 28.25 in956.7 mb - 0.00 in0.0 mm 0.00 in0.0 mm
07:39 AM 22.8°F-5.1°C 20.3°F-6.5°C 90% 5.8 mph NNW9.3 kmh NNW 6.9 mph11.1 kmh 28.26 in957.0 mb - 0.00 in0.0 mm 0.00 in0.0 mm
07:40 AM 22.8°F-5.1°C 20.3°F-6.5°C 90% 4.6 mph W7.4 kmh W 4.6 mph7.4 kmh 28.26 in957.0 mb - 0.00 in0.0 mm 0.00 in0.0 mm
07:41 AM 22.8°F-5.1°C 20.3°F-6.5°C 90% 4.6 mph N7.4 kmh N 5.8 mph9.3 kmh 28.26 in957.0 mb - 0.00 in0.0 mm 0.00 in0.0 mm
07:42 AM 22.8°F-5.1°C 20.3°F-6.5°C 90% 5.8 mph NW9.3 kmh NW 10.4 mph16.7 kmh 28.26 in957.0 mb - 0.00 in0.0 mm 0.00 in0.0 mm
07:43 AM 22.8°F-5.1°C 20.3°F-6.5°C 90% 6.9 mph N11.1 kmh N 9.2 mph14.8 kmh 28.26 in957.0 mb - 0.00 in0.0 mm 0.00 in0.0 mm
07:44 AM 22.8°F-5.1°C 20.3°F-6.5°C 90% 9.2 mph NW14.8 kmh NW 10.4 mph16.7 kmh 28.26 in957.0 mb - 0.00 in0.0 mm 0.00 in0.0 mm
07:45 AM 22.8°F-5.1°C 20.3°F-6.5°C 90% 8.1 mph N13.0 kmh N 9.2 mph14.8 kmh 28.26 in957.0 mb - 0.00 in0.0 mm 0.00 in0.0 mm
07:46 AM 22.8°F-5.1°C 20.3°F-6.5°C 90% 6.9 mph N11.1 kmh N 12.7 mph20.4 kmh 28.26 in957.0 mb - 0.00 in0.0 mm 0.00 in0.0 mm
07:47 AM 22.7°F-5.2°C 20.2°F-6.6°C 90% 9.2 mph N14.8 kmh N 10.4 mph16.7 kmh 28.26 in957.0 mb - 0.00 in0.0 mm 0.00 in0.0 mm
07:48 AM 22.6°F-5.2°C 20.1°F-6.6°C 90% 6.9 mph NW11.1 kmh NW 6.9 mph11.1 kmh 28.26 in957.0 mb - 0.00 in0.0 mm 0.00 in0.0 mm
07:49 AM 22.6°F-5.2°C 20.1°F-6.6°C 90% 6.9 mph NNE11.1 kmh NNE 6.9 mph11.1 kmh 28.26 in957.0 mb - 0.00 in0.0 mm 0.00 in0.0 mm
07:50 AM 22.6°F-5.2°C 20.1°F-6.6°C 90% 6.9 mph N11.1 kmh N 10.4 mph16.7 kmh 28.26 in957.0 mb - 0.00 in0.0 mm 0.00 in0.0 mm
07:51 AM 22.6°F-5.2°C 20.1°F-6.6°C 90% 8.1 mph NNW13.0 kmh NNW 8.1 mph13.0 kmh 28.26 in957.0 mb - 0.00 in0.0 mm 0.00 in0.0 mm
07:52 AM 22.6°F-5.2°C 20.1°F-6.6°C 90% 6.9 mph NNE11.1 kmh NNE 11.5 mph18.5 kmh 28.26 in957.0 mb - 0.00 in0.0 mm 0.00 in0.0 mm
07:53 AM 22.6°F-5.2°C 20.1°F-6.6°C 90% 9.2 mph NNE14.8 kmh NNE 11.5 mph18.5 kmh 28.26 in957.0 mb - 0.00 in0.0 mm 0.00 in0.0 mm
07:54 AM 22.6°F-5.2°C 20.1°F-6.6°C 90% 8.1 mph NNW13.0 kmh NNW 11.5 mph18.5 kmh 28.26 in957.0 mb - 0.00 in0.0 mm 0.00 in0.0 mm
07:55 AM 22.6°F-5.2°C 20.1°F-6.6°C 90% 6.9 mph WNW11.1 kmh WNW 8.1 mph13.0 kmh 28.26 in957.0 mb - 0.00 in0.0 mm 0.00 in0.0 mm
07:56 AM 22.6°F-5.2°C 20.1°F-6.6°C 90% 8.1 mph NNW13.0 kmh NNW 10.4 mph16.7 kmh 28.26 in957.0 mb - 0.00 in0.0 mm 0.00 in0.0 mm
07:57 AM 22.6°F-5.2°C 20.1°F-6.6°C 90% 9.2 mph NE14.8 kmh NE 12.7 mph20.4 kmh 28.26 in957.0 mb - 0.00 in0.0 mm 0.00 in0.0 mm
07:58 AM 22.6°F-5.2°C 20.1°F-6.6°C 90% 5.8 mph N9.3 kmh N 8.1 mph13.0 kmh 28.26 in957.0 mb - 0.00 in0.0 mm 0.00 in0.0 mm
07:59 AM 22.6°F-5.2°C 20.1°F-6.6°C 90% 8.1 mph WNW13.0 kmh WNW 10.4 mph16.7 kmh 28.26 in957.0 mb - 0.00 in0.0 mm 0.00 in0.0 mm
08:00 AM 22.5°F-5.3°C 20.0°F-6.7°C 90% 8.1 mph W13.0 kmh W 8.1 mph13.0 kmh 28.26 in957.0 mb - 0.00 in0.0 mm 0.00 in0.0 mm
08:01 AM 22.5°F-5.3°C 20.0°F-6.7°C 90% 6.9 mph N11.1 kmh N 8.1 mph13.0 kmh 28.26 in957.0 mb - 0.00 in0.0 mm 0.00 in0.0 mm
08:02 AM 22.5°F-5.3°C 20.0°F-6.7°C 90% 9.2 mph NE14.8 kmh NE 11.5 mph18.5 kmh 28.27 in957.3 mb - 0.00 in0.0 mm 0.00 in0.0 mm
08:03 AM 22.5°F-5.3°C 20.0°F-6.7°C 90% 10.4 mph ENE16.7 kmh ENE 11.5 mph18.5 kmh 28.27 in957.3 mb - 0.00 in0.0 mm 0.00 in0.0 mm
08:04 AM 22.5°F-5.3°C 20.0°F-6.7°C 90% 5.8 mph NW9.3 kmh NW 5.8 mph9.3 kmh 28.27 in957.3 mb - 0.00 in0.0 mm 0.00 in0.0 mm
08:05 AM 22.5°F-5.3°C 20.0°F-6.7°C 90% 4.6 mph N7.4 kmh N 8.1 mph13.0 kmh 28.27 in957.3 mb - 0.00 in0.0 mm 0.00 in0.0 mm
08:06 AM 22.5°F-5.3°C 20.0°F-6.7°C 90% 6.9 mph NNE11.1 kmh NNE 8.1 mph13.0 kmh 28.27 in957.3 mb - 0.00 in0.0 mm 0.00 in0.0 mm
08:07 AM 22.5°F-5.3°C 20.0°F-6.7°C 90% 6.9 mph N11.1 kmh N 9.2 mph14.8 kmh 28.27 in957.3 mb - 0.00 in0.0 mm 0.00 in0.0 mm
08:08 AM 22.5°F-5.3°C 20.0°F-6.7°C 90% 5.8 mph NNW9.3 kmh NNW 4.6 mph7.4 kmh 28.27 in957.3 mb - 0.00 in0.0 mm 0.00 in0.0 mm
08:09 AM 22.5°F-5.3°C 20.0°F-6.7°C 90% 3.5 mph NW5.6 kmh NW 4.6 mph7.4 kmh 28.27 in957.3 mb - 0.00 in0.0 mm 0.00 in0.0 mm
08:10 AM 22.5°F-5.3°C 20.0°F-6.7°C 90% 4.6 mph NW7.4 kmh NW 5.8 mph9.3 kmh 28.27 in957.3 mb - 0.00 in0.0 mm 0.00 in0.0 mm
08:11 AM 22.5°F-5.3°C 20.0°F-6.7°C 90% 5.8 mph W9.3 kmh W 8.1 mph13.0 kmh 28.27 in957.3 mb - 0.00 in0.0 mm 0.00 in0.0 mm
08:12 AM 22.5°F-5.3°C 20.0°F-6.7°C 90% 6.9 mph WNW11.1 kmh WNW 9.2 mph14.8 kmh 28.27 in957.3 mb - 0.00 in0.0 mm 0.00 in0.0 mm
08:13 AM 22.5°F-5.3°C 20.0°F-6.7°C 90% 8.1 mph NW13.0 kmh NW 9.2 mph14.8 kmh 28.28 in957.7 mb - 0.00 in0.0 mm 0.00 in0.0 mm
08:14 AM 22.3°F-5.4°C 19.9°F-6.7°C 90% 9.2 mph NE14.8 kmh NE 10.4 mph16.7 kmh 28.28 in957.7 mb - 0.00 in0.0 mm 0.00 in0.0 mm
08:15 AM 22.3°F-5.4°C 19.8°F-6.8°C 90% 8.1 mph W13.0 kmh W 8.1 mph13.0 kmh 28.28 in957.7 mb - 0.00 in0.0 mm 0.00 in0.0 mm
08:16 AM 22.3°F-5.4°C 19.8°F-6.8°C 90% 6.9 mph NNW11.1 kmh NNW 8.1 mph13.0 kmh 28.28 in957.7 mb - 0.00 in0.0 mm 0.00 in0.0 mm
08:17 AM 22.3°F-5.4°C 19.8°F-6.8°C 90% 5.8 mph WNW9.3 kmh WNW 6.9 mph11.1 kmh 28.28 in957.7 mb - 0.00 in0.0 mm 0.00 in0.0 mm
08:18 AM 22.3°F-5.4°C 19.8°F-6.8°C 90% 5.8 mph N9.3 kmh N 6.9 mph11.1 kmh 28.28 in957.7 mb - 0.00 in0.0 mm 0.00 in0.0 mm
08:19 AM 22.3°F-5.4°C 19.8°F-6.8°C 90% 4.6 mph NE7.4 kmh NE 6.9 mph11.1 kmh 28.28 in957.7 mb - 0.00 in0.0 mm 0.00 in0.0 mm
08:20 AM 22.3°F-5.4°C 19.8°F-6.8°C 90% 5.8 mph N9.3 kmh N 10.4 mph16.7 kmh 28.28 in957.7 mb - 0.00 in0.0 mm 0.00 in0.0 mm
08:21 AM 22.3°F-5.4°C 19.8°F-6.8°C 90% 8.1 mph NNE13.0 kmh NNE 10.4 mph16.7 kmh 28.28 in957.7 mb - 0.00 in0.0 mm 0.00 in0.0 mm
08:22 AM 22.3°F-5.4°C 19.8°F-6.8°C 90% 4.6 mph SW7.4 kmh SW 5.8 mph9.3 kmh 28.28 in957.7 mb - 0.00 in0.0 mm 0.00 in0.0 mm
08:23 AM 22.3°F-5.4°C 19.8°F-6.8°C 90% 4.6 mph NW7.4 kmh NW 6.9 mph11.1 kmh 28.28 in957.7 mb - 0.00 in0.0 mm 0.00 in0.0 mm
08:24 AM 22.3°F-5.4°C 19.8°F-6.8°C 90% 4.6 mph N7.4 kmh N 6.9 mph11.1 kmh 28.28 in957.7 mb - 0.00 in0.0 mm 0.00 in0.0 mm
08:25 AM 22.3°F-5.4°C 19.8°F-6.8°C 90% 4.6 mph N7.4 kmh N 6.9 mph11.1 kmh 28.29 in958.0 mb - 0.00 in0.0 mm 0.00 in0.0 mm
08:26 AM 22.3°F-5.4°C 19.8°F-6.8°C 90% 4.6 mph NNW7.4 kmh NNW 9.2 mph14.8 kmh 28.29 in958.0 mb - 0.00 in0.0 mm 0.00 in0.0 mm
08:27 AM 22.3°F-5.4°C 19.8°F-6.8°C 90% 6.9 mph N11.1 kmh N 6.9 mph11.1 kmh 28.29 in958.0 mb - 0.00 in0.0 mm 0.00 in0.0 mm
08:28 AM 22.3°F-5.4°C 19.8°F-6.8°C 90% 6.9 mph NNE11.1 kmh NNE 9.2 mph14.8 kmh 28.29 in958.0 mb - 0.00 in0.0 mm 0.00 in0.0 mm
08:29 AM 22.3°F-5.4°C 19.8°F-6.8°C 90% 5.8 mph N9.3 kmh N 6.9 mph11.1 kmh 28.29 in958.0 mb - 0.00 in0.0 mm 0.00 in0.0 mm
08:30 AM 22.3°F-5.4°C 19.6°F-6.9°C 89% 6.9 mph N11.1 kmh N 8.1 mph13.0 kmh 28.29 in958.0 mb - 0.00 in0.0 mm 0.00 in0.0 mm
08:31 AM 22.3°F-5.4°C 19.6°F-6.9°C 89% 6.9 mph NW11.1 kmh NW 8.1 mph13.0 kmh 28.29 in958.0 mb - 0.00 in0.0 mm 0.00 in0.0 mm
08:32 AM 22.3°F-5.4°C 19.6°F-6.9°C 89% 8.1 mph N13.0 kmh N 12.7 mph20.4 kmh 28.29 in958.0 mb - 0.00 in0.0 mm 0.00 in0.0 mm
08:33 AM 22.3°F-5.4°C 19.6°F-6.9°C 89% 8.1 mph NE13.0 kmh NE 8.1 mph13.0 kmh 28.29 in958.0 mb - 0.00 in0.0 mm 0.00 in0.0 mm
08:34 AM 22.3°F-5.4°C 19.6°F-6.9°C 89% 4.6 mph N7.4 kmh N 5.8 mph9.3 kmh 28.29 in958.0 mb - 0.00 in0.0 mm 0.00 in0.0 mm
08:35 AM 22.3°F-5.4°C 19.6°F-6.9°C 89% 5.8 mph W9.3 kmh W 9.2 mph14.8 kmh 28.29 in958.0 mb - 0.00 in0.0 mm 0.00 in0.0 mm
08:36 AM 22.3°F-5.4°C 19.6°F-6.9°C 89% 8.1 mph NW13.0 kmh NW 9.2 mph14.8 kmh 28.29 in958.0 mb - 0.00 in0.0 mm 0.00 in0.0 mm
08:37 AM 22.3°F-5.4°C 19.6°F-6.9°C 89% 8.1 mph W13.0 kmh W 10.4 mph16.7 kmh 28.30 in958.3 mb - 0.00 in0.0 mm 0.00 in0.0 mm
08:38 AM 22.2°F-5.4°C 19.5°F-6.9°C 89% 9.2 mph NNW14.8 kmh NNW 9.2 mph14.8 kmh 28.30 in958.3 mb - 0.00 in0.0 mm 0.00 in0.0 mm
08:39 AM 22.1°F-5.5°C 19.4°F-7.0°C 89% 6.9 mph N11.1 kmh N 5.8 mph9.3 kmh 28.30 in958.3 mb - 0.00 in0.0 mm 0.00 in0.0 mm
08:40 AM 22.1°F-5.5°C 19.4°F-7.0°C 89% 4.6 mph E7.4 kmh E 3.5 mph5.6 kmh 28.30 in958.3 mb - 0.00 in0.0 mm 0.00 in0.0 mm
08:41 AM 22.1°F-5.5°C 19.4°F-7.0°C 89% 3.5 mph ENE5.6 kmh ENE 4.6 mph7.4 kmh 28.30 in958.3 mb - 0.00 in0.0 mm 0.00 in0.0 mm
08:42 AM 22.1°F-5.5°C 19.4°F-7.0°C 89% 3.5 mph E5.6 kmh E 4.6 mph7.4 kmh 28.30 in958.3 mb - 0.00 in0.0 mm 0.00 in0.0 mm
08:43 AM 22.1°F-5.5°C 19.4°F-7.0°C 89% 3.5 mph N5.6 kmh N 6.9 mph11.1 kmh 28.30 in958.3 mb - 0.00 in0.0 mm 0.00 in0.0 mm
08:44 AM 22.1°F-5.5°C 19.4°F-7.0°C 89% 4.6 mph NW7.4 kmh NW 6.9 mph11.1 kmh 28.30 in958.3 mb - 0.00 in0.0 mm 0.00 in0.0 mm
08:45 AM 22.1°F-5.5°C 19.4°F-7.0°C 89% 4.6 mph NNW7.4 kmh NNW 8.1 mph13.0 kmh 28.30 in958.3 mb - 0.00 in0.0 mm 0.00 in0.0 mm
08:46 AM 22.1°F-5.5°C 19.4°F-7.0°C 89% 6.9 mph NNE11.1 kmh NNE 10.4 mph16.7 kmh 28.30 in958.3 mb - 0.00 in0.0 mm 0.00 in0.0 mm
08:47 AM 22.1°F-5.5°C 19.4°F-7.0°C 89% 6.9 mph N11.1 kmh N 10.4 mph16.7 kmh 28.30 in958.3 mb - 0.00 in0.0 mm 0.00 in0.0 mm
08:48 AM 22.1°F-5.5°C 19.4°F-7.0°C 89% 5.8 mph NW9.3 kmh NW 6.9 mph11.1 kmh 28.30 in958.3 mb - 0.00 in0.0 mm 0.00 in0.0 mm
08:49 AM 22.1°F-5.5°C 19.4°F-7.0°C 89% 6.9 mph ENE11.1 kmh ENE 10.4 mph16.7 kmh 28.30 in958.3 mb - 0.00 in0.0 mm 0.00 in0.0 mm
08:50 AM 22.1°F-5.5°C 19.4°F-7.0°C 89% 5.8 mph NW9.3 kmh NW 5.8 mph9.3 kmh 28.31 in958.7 mb - 0.00 in0.0 mm 0.00 in0.0 mm
08:51 AM 22.1°F-5.5°C 19.4°F-7.0°C 89% 5.8 mph N9.3 kmh N 8.1 mph13.0 kmh 28.31 in958.7 mb - 0.00 in0.0 mm 0.00 in0.0 mm
08:52 AM 22.1°F-5.5°C 19.4°F-7.0°C 89% 5.8 mph N9.3 kmh N 8.1 mph13.0 kmh 28.31 in958.7 mb - 0.00 in0.0 mm 0.00 in0.0 mm
08:53 AM 22.1°F-5.5°C 19.4°F-7.0°C 89% 4.6 mph NNE7.4 kmh NNE 4.6 mph7.4 kmh 28.31 in958.7 mb - 0.00 in0.0 mm 0.00 in0.0 mm
08:54 AM 22.1°F-5.5°C 19.4°F-7.0°C 89% 4.6 mph N7.4 kmh N 5.8 mph9.3 kmh 28.31 in958.7 mb - 0.00 in0.0 mm 0.00 in0.0 mm
08:55 AM 22.1°F-5.5°C 19.4°F-7.0°C 89% 4.6 mph NW7.4 kmh NW 6.9 mph11.1 kmh 28.31 in958.7 mb - 0.00 in0.0 mm 0.00 in0.0 mm
08:56 AM 22.1°F-5.5°C 19.4°F-7.0°C 89% 4.6 mph NE7.4 kmh NE 5.8 mph9.3 kmh 28.31 in958.7 mb - 0.00 in0.0 mm 0.00 in0.0 mm
08:57 AM 22.1°F-5.5°C 19.4°F-7.0°C 89% 5.8 mph N9.3 kmh N 8.1 mph13.0 kmh 28.31 in958.7 mb - 0.00 in0.0 mm 0.00 in0.0 mm
08:58 AM 22.1°F-5.5°C 19.4°F-7.0°C 89% 5.8 mph NW9.3 kmh NW 6.9 mph11.1 kmh 28.31 in958.7 mb - 0.00 in0.0 mm 0.00 in0.0 mm
08:59 AM 22.1°F-5.5°C 19.4°F-7.0°C 89% 4.6 mph WNW7.4 kmh WNW 5.8 mph9.3 kmh 28.31 in958.7 mb - 0.00 in0.0 mm 0.00 in0.0 mm
09:00 AM 22.1°F-5.5°C 19.4°F-7.0°C 89% 4.6 mph N7.4 kmh N 5.8 mph9.3 kmh 28.31 in958.7 mb - 0.00 in0.0 mm 0.00 in0.0 mm
09:01 AM 22.1°F-5.5°C 19.4°F-7.0°C 89% 5.8 mph N9.3 kmh N 5.8 mph9.3 kmh 28.31 in958.7 mb - 0.00 in0.0 mm 0.00 in0.0 mm
09:02 AM 22.1°F-5.5°C 19.4°F-7.0°C 89% 5.8 mph ENE9.3 kmh ENE 5.8 mph9.3 kmh 28.32 in959.0 mb - 0.00 in0.0 mm 0.00 in0.0 mm
09:03 AM 22.1°F-5.5°C 19.4°F-7.0°C 89% 5.8 mph NW9.3 kmh NW 9.2 mph14.8 kmh 28.32 in959.0 mb - 0.00 in0.0 mm 0.00 in0.0 mm
09:04 AM 22.1°F-5.5°C 19.4°F-7.0°C 89% 6.9 mph NNE11.1 kmh NNE 9.2 mph14.8 kmh 28.32 in959.0 mb - 0.00 in0.0 mm 0.00 in0.0 mm
09:05 AM 22.1°F-5.5°C 19.4°F-7.0°C 89% 5.8 mph N9.3 kmh N 8.1 mph13.0 kmh 28.32 in959.0 mb - 0.00 in0.0 mm 0.00 in0.0 mm
09:06 AM 22.1°F-5.5°C 19.4°F-7.0°C 89% 5.8 mph NNW9.3 kmh NNW 10.4 mph16.7 kmh 28.32 in959.0 mb - 0.00 in0.0 mm 0.00 in0.0 mm
09:07 AM 22.1°F-5.5°C 19.4°F-7.0°C 89% 6.9 mph N11.1 kmh N 10.4 mph16.7 kmh 28.32 in959.0 mb - 0.00 in0.0 mm 0.00 in0.0 mm
09:08 AM 22.1°F-5.5°C 19.4°F-7.0°C 89% 9.2 mph NNW14.8 kmh NNW 11.5 mph18.5 kmh 28.32 in959.0 mb - 0.00 in0.0 mm 0.00 in0.0 mm
09:09 AM 22.1°F-5.5°C 19.4°F-7.0°C 89% 6.9 mph NNE11.1 kmh NNE 8.1 mph13.0 kmh 28.32 in959.0 mb - 0.00 in0.0 mm 0.00 in0.0 mm
09:10 AM 22.1°F-5.5°C 19.4°F-7.0°C 89% 5.8 mph NW9.3 kmh NW 6.9 mph11.1 kmh 28.32 in959.0 mb - 0.00 in0.0 mm 0.00 in0.0 mm
09:11 AM 22.1°F-5.5°C 19.4°F-7.0°C 89% 5.8 mph NNW9.3 kmh NNW 8.1 mph13.0 kmh 28.32 in959.0 mb - 0.00 in0.0 mm 0.00 in0.0 mm
09:12 AM 22.1°F-5.5°C 19.4°F-7.0°C 89% 6.9 mph ENE11.1 kmh ENE 5.8 mph9.3 kmh 28.32 in959.0 mb - 0.00 in0.0 mm 0.00 in0.0 mm
09:13 AM 22.1°F-5.5°C 19.4°F-7.0°C 89% 6.9 mph N11.1 kmh N 11.5 mph18.5 kmh 28.32 in959.0 mb - 0.00 in0.0 mm 0.00 in0.0 mm
09:14 AM 22.1°F-5.5°C 19.4°F-7.0°C 89% 8.1 mph N13.0 kmh N 11.5 mph18.5 kmh 28.32 in959.0 mb - 0.00 in0.0 mm 0.00 in0.0 mm
09:15 AM 22.1°F-5.5°C 19.4°F-7.0°C 89% 5.8 mph WNW9.3 kmh WNW 5.8 mph9.3 kmh 28.32 in959.0 mb - 0.00 in0.0 mm 0.00 in0.0 mm
09:16 AM 22.1°F-5.5°C 19.4°F-7.0°C 89% 4.6 mph NNE7.4 kmh NNE 6.9 mph11.1 kmh 28.32 in959.0 mb - 0.00 in0.0 mm 0.00 in0.0 mm
09:17 AM 22.1°F-5.5°C 19.4°F-7.0°C 89% 4.6 mph NE7.4 kmh NE 9.2 mph14.8 kmh 28.32 in959.0 mb - 0.00 in0.0 mm 0.00 in0.0 mm
09:18 AM 22.1°F-5.5°C 19.4°F-7.0°C 89% 8.1 mph NE13.0 kmh NE 12.7 mph20.4 kmh 28.32 in959.0 mb - 0.00 in0.0 mm 0.00 in0.0 mm
09:19 AM 22.1°F-5.5°C 19.4°F-7.0°C 89% 6.9 mph N11.1 kmh N 5.8 mph9.3 kmh 28.32 in959.0 mb - 0.00 in0.0 mm 0.00 in0.0 mm
09:20 AM 22.1°F-5.5°C 19.4°F-7.0°C 89% 4.6 mph NNW7.4 kmh NNW 6.9 mph11.1 kmh 28.32 in959.0 mb - 0.00 in0.0 mm 0.00 in0.0 mm
09:21 AM 22.1°F-5.5°C 19.4°F-7.0°C 89% 6.9 mph NW11.1 kmh NW 8.1 mph13.0 kmh 28.32 in959.0 mb - 0.00 in0.0 mm 0.00 in0.0 mm
09:22 AM 22.1°F-5.5°C 19.4°F-7.0°C 89% 8.1 mph NW13.0 kmh NW 10.4 mph16.7 kmh 28.32 in959.0 mb - 0.00 in0.0 mm 0.00 in0.0 mm
09:23 AM 22.1°F-5.5°C 19.4°F-7.0°C 89% 5.8 mph WNW9.3 kmh WNW 5.8 mph9.3 kmh 28.32 in959.0 mb - 0.00 in0.0 mm 0.00 in0.0 mm
09:24 AM 22.1°F-5.5°C 19.4°F-7.0°C 89% 4.6 mph N7.4 kmh N 5.8 mph9.3 kmh 28.32 in959.0 mb - 0.00 in0.0 mm 0.00 in0.0 mm
09:25 AM 22.1°F-5.5°C 19.4°F-7.0°C 89% 5.8 mph N9.3 kmh N 8.1 mph13.0 kmh 28.32 in959.0 mb - 0.00 in0.0 mm 0.00 in0.0 mm
09:26 AM 22.1°F-5.5°C 19.4°F-7.0°C 89% 5.8 mph NNW9.3 kmh NNW 5.8 mph9.3 kmh 28.33 in959.4 mb - 0.00 in0.0 mm 0.00 in0.0 mm
09:27 AM 22.1°F-5.5°C 19.4°F-7.0°C 89% 4.6 mph NNE7.4 kmh NNE 5.8 mph9.3 kmh 28.33 in959.4 mb - 0.00 in0.0 mm 0.00 in0.0 mm
09:28 AM 22.1°F-5.5°C 19.6°F-6.9°C 90% 3.5 mph NW5.6 kmh NW 8.1 mph13.0 kmh 28.33 in959.4 mb - 0.00 in0.0 mm 0.00 in0.0 mm
09:29 AM 22.1°F-5.5°C 19.6°F-6.9°C 90% 6.9 mph NNE11.1 kmh NNE 12.7 mph20.4 kmh 28.33 in959.4 mb - 0.00 in0.0 mm 0.00 in0.0 mm
09:30 AM 22.1°F-5.5°C 19.6°F-6.9°C 90% 6.9 mph NW11.1 kmh NW 6.9 mph11.1 kmh 28.33 in959.4 mb - 0.00 in0.0 mm 0.00 in0.0 mm
09:31 AM 22.1°F-5.5°C 19.6°F-6.9°C 90% 5.8 mph NE9.3 kmh NE 8.1 mph13.0 kmh 28.33 in959.4 mb - 0.00 in0.0 mm 0.00 in0.0 mm
09:32 AM 22.1°F-5.5°C 19.6°F-6.9°C 90% 5.8 mph NNE9.3 kmh NNE 5.8 mph9.3 kmh 28.33 in959.4 mb - 0.00 in0.0 mm 0.00 in0.0 mm
09:33 AM 22.1°F-5.5°C 19.6°F-6.9°C 90% 6.9 mph N11.1 kmh N 11.5 mph18.5 kmh 28.33 in959.4 mb - 0.00 in0.0 mm 0.00 in0.0 mm
09:34 AM 22.1°F-5.5°C 19.6°F-6.9°C 90% 9.2 mph N14.8 kmh N 8.1 mph13.0 kmh 28.33 in959.4 mb - 0.00 in0.0 mm 0.00 in0.0 mm
09:35 AM 22.1°F-5.5°C 19.6°F-6.9°C 90% 8.1 mph N13.0 kmh N 8.1 mph13.0 kmh 28.33 in959.4 mb - 0.00 in0.0 mm 0.00 in0.0 mm
09:36 AM 22.1°F-5.5°C 19.6°F-6.9°C 90% 5.8 mph SE9.3 kmh SE 8.1 mph13.0 kmh 28.33 in959.4 mb - 0.00 in0.0 mm 0.00 in0.0 mm
09:37 AM 22.1°F-5.5°C 19.6°F-6.9°C 90% 6.9 mph N11.1 kmh N 8.1 mph13.0 kmh 28.33 in959.4 mb - 0.00 in0.0 mm 0.00 in0.0 mm
09:38 AM 22.1°F-5.5°C 19.9°F-6.7°C 91% 6.9 mph NNW11.1 kmh NNW 6.9 mph11.1 kmh 28.33 in959.4 mb - 0.00 in0.0 mm 0.00 in0.0 mm
09:39 AM 22.1°F-5.5°C 19.9°F-6.7°C 91% 6.9 mph N11.1 kmh N 9.2 mph14.8 kmh 28.33 in959.4 mb - 0.00 in0.0 mm 0.00 in0.0 mm
09:40 AM 22.1°F-5.5°C 19.9°F-6.7°C 91% 8.1 mph NNW13.0 kmh NNW 10.4 mph16.7 kmh 28.33 in959.4 mb - 0.00 in0.0 mm 0.00 in0.0 mm
09:41 AM 21.9°F-5.6°C 19.7°F-6.8°C 91% 6.9 mph N11.1 kmh N 4.6 mph7.4 kmh 28.33 in959.4 mb - 0.00 in0.0 mm 0.00 in0.0 mm
09:42 AM 21.9°F-5.6°C 19.9°F-6.7°C 92% 4.6 mph E7.4 kmh E 6.9 mph11.1 kmh 28.33 in959.4 mb - 0.00 in0.0 mm 0.00 in0.0 mm
09:43 AM 21.9°F-5.6°C 19.9°F-6.7°C 92% 5.8 mph WNW9.3 kmh WNW 6.9 mph11.1 kmh 28.33 in959.4 mb - 0.00 in0.0 mm 0.00 in0.0 mm
09:44 AM 21.9°F-5.6°C 19.9°F-6.7°C 92% 5.8 mph NW9.3 kmh NW 6.9 mph11.1 kmh 28.33 in959.4 mb - 0.00 in0.0 mm 0.00 in0.0 mm
09:45 AM 21.9°F-5.6°C 19.9°F-6.7°C 92% 5.8 mph NW9.3 kmh NW 15.0 mph24.1 kmh 28.33 in959.4 mb - 0.00 in0.0 mm 0.00 in0.0 mm
09:46 AM 21.9°F-5.6°C 19.9°F-6.7°C 92% 10.4 mph NNE16.7 kmh NNE 15.0 mph24.1 kmh 28.33 in959.4 mb - 0.00 in0.0 mm 0.00 in0.0 mm
09:47 AM 21.9°F-5.6°C 19.9°F-6.7°C 92% 8.1 mph NE13.0 kmh NE 5.8 mph9.3 kmh 28.33 in959.4 mb - 0.00 in0.0 mm 0.00 in0.0 mm
09:48 AM 21.9°F-5.6°C 19.9°F-6.7°C 92% 4.6 mph WNW7.4 kmh WNW 6.9 mph11.1 kmh 28.33 in959.4 mb - 0.00 in0.0 mm 0.00 in0.0 mm
09:49 AM 21.9°F-5.6°C 19.9°F-6.7°C 92% 5.8 mph N9.3 kmh N 6.9 mph11.1 kmh 28.33 in959.4 mb - 0.00 in0.0 mm 0.00 in0.0 mm
09:50 AM 21.9°F-5.6°C 19.9°F-6.7°C 92% 4.6 mph NNW7.4 kmh NNW 6.9 mph11.1 kmh 28.34 in959.7 mb - 0.00 in0.0 mm 0.00 in0.0 mm
09:51 AM 21.9°F-5.6°C 19.9°F-6.7°C 92% 4.6 mph NW7.4 kmh NW 6.9 mph11.1 kmh 28.34 in959.7 mb - 0.00 in0.0 mm 0.00 in0.0 mm
09:52 AM 21.9°F-5.6°C 20.2°F-6.6°C 93% 4.6 mph N7.4 kmh N 5.8 mph9.3 kmh 28.34 in959.7 mb - 0.00 in0.0 mm 0.00 in0.0 mm
09:53 AM 21.9°F-5.6°C 20.2°F-6.6°C 93% 4.6 mph SW7.4 kmh SW 5.8 mph9.3 kmh 28.34 in959.7 mb - 0.00 in0.0 mm 0.00 in0.0 mm
09:54 AM 21.9°F-5.6°C 20.2°F-6.6°C 93% 4.6 mph N7.4 kmh N 5.8 mph9.3 kmh 28.34 in959.7 mb - 0.00 in0.0 mm 0.00 in0.0 mm
09:55 AM 21.9°F-5.6°C 20.2°F-6.6°C 93% 6.9 mph N11.1 kmh N 11.5 mph18.5 kmh 28.34 in959.7 mb - 0.00 in0.0 mm 0.00 in0.0 mm
09:56 AM 21.9°F-5.6°C 20.2°F-6.6°C 93% 8.1 mph NE13.0 kmh NE 12.7 mph20.4 kmh 28.34 in959.7 mb - 0.00 in0.0 mm 0.00 in0.0 mm
09:57 AM 21.9°F-5.6°C 20.2°F-6.6°C 93% 10.4 mph N16.7 kmh N 13.8 mph22.2 kmh 28.34 in959.7 mb - 0.00 in0.0 mm 0.00 in0.0 mm
09:58 AM 21.9°F-5.6°C 20.2°F-6.6°C 93% 9.2 mph N14.8 kmh N 10.4 mph16.7 kmh 28.34 in959.7 mb - 0.00 in0.0 mm 0.00 in0.0 mm
09:59 AM 21.9°F-5.6°C 20.2°F-6.6°C 93% 6.9 mph N11.1 kmh N 11.5 mph18.5 kmh 28.34 in959.7 mb - 0.00 in0.0 mm 0.00 in0.0 mm
10:00 AM 21.9°F-5.6°C 20.2°F-6.6°C 93% 8.1 mph N13.0 kmh N 11.5 mph18.5 kmh 28.34 in959.7 mb - 0.00 in0.0 mm 0.00 in0.0 mm
10:01 AM 21.9°F-5.6°C 20.2°F-6.6°C 93% 6.9 mph NNE11.1 kmh NNE 11.5 mph18.5 kmh 28.34 in959.7 mb - 0.00 in0.0 mm 0.00 in0.0 mm
10:02 AM 21.9°F-5.6°C 20.2°F-6.6°C 93% 8.1 mph NNW13.0 kmh NNW 10.4 mph16.7 kmh 28.34 in959.7 mb - 0.00 in0.0 mm 0.00 in0.0 mm
10:03 AM 21.9°F-5.6°C 20.2°F-6.6°C 93% 8.1 mph NNE13.0 kmh NNE 10.4 mph16.7 kmh 28.34 in959.7 mb - 0.00 in0.0 mm 0.00 in0.0 mm
10:04 AM 21.9°F-5.6°C 20.2°F-6.6°C 93% 6.9 mph NNW11.1 kmh NNW 6.9 mph11.1 kmh 28.34 in959.7 mb - 0.00 in0.0 mm 0.00 in0.0 mm
10:05 AM 21.9°F-5.6°C 20.2°F-6.6°C 93% 3.5 mph N5.6 kmh N 3.5 mph5.6 kmh 28.34 in959.7 mb - 0.00 in0.0 mm 0.00 in0.0 mm
10:06 AM 21.9°F-5.6°C 20.2°F-6.6°C 93% 3.5 mph NNW5.6 kmh NNW 9.2 mph14.8 kmh 28.34 in959.7 mb - 0.00 in0.0 mm 0.00 in0.0 mm
10:07 AM 21.9°F-5.6°C 20.2°F-6.6°C 93% 6.9 mph NNE11.1 kmh NNE 9.2 mph14.8 kmh 28.34 in959.7 mb - 0.00 in0.0 mm 0.00 in0.0 mm
10:08 AM 21.9°F-5.6°C 20.2°F-6.6°C 93% 4.6 mph NW7.4 kmh NW 5.8 mph9.3 kmh 28.34 in959.7 mb - 0.00 in0.0 mm 0.00 in0.0 mm
10:09 AM 21.9°F-5.6°C 20.2°F-6.6°C 93% 6.9 mph N11.1 kmh N 15.0 mph24.1 kmh 28.34 in959.7 mb - 0.00 in0.0 mm 0.00 in0.0 mm
10:10 AM 21.9°F-5.6°C 20.2°F-6.6°C 93% 8.1 mph N13.0 kmh N 11.5 mph18.5 kmh 28.34 in959.7 mb - 0.00 in0.0 mm 0.00 in0.0 mm
10:11 AM 21.9°F-5.6°C 20.2°F-6.6°C 93% 6.9 mph NNE11.1 kmh NNE 6.9 mph11.1 kmh 28.34 in959.7 mb - 0.00 in0.0 mm 0.00 in0.0 mm
10:12 AM 21.9°F-5.6°C 20.2°F-6.6°C 93% 5.8 mph NW9.3 kmh NW 5.8 mph9.3 kmh 28.34 in959.7 mb - 0.00 in0.0 mm 0.00 in0.0 mm
10:13 AM 21.9°F-5.6°C 20.2°F-6.6°C 93% 4.6 mph NNW7.4 kmh NNW 5.8 mph9.3 kmh 28.34 in959.7 mb - 0.00 in0.0 mm 0.00 in0.0 mm
10:14 AM 21.9°F-5.6°C 20.2°F-6.6°C 93% 4.6 mph NNW7.4 kmh NNW 9.2 mph14.8 kmh 28.35 in960.0 mb - 0.00 in0.0 mm 0.00 in0.0 mm
10:15 AM 21.9°F-5.6°C 20.2°F-6.6°C 93% 8.1 mph WNW13.0 kmh WNW 10.4 mph16.7 kmh 28.35 in960.0 mb - 0.00 in0.0 mm 0.00 in0.0 mm
10:16 AM 21.9°F-5.6°C 20.2°F-6.6°C 93% 6.9 mph WNW11.1 kmh WNW 6.9 mph11.1 kmh 28.35 in960.0 mb - 0.00 in0.0 mm 0.00 in0.0 mm
10:17 AM 21.9°F-5.6°C 20.2°F-6.6°C 93% 5.8 mph NW9.3 kmh NW 9.2 mph14.8 kmh 28.35 in960.0 mb - 0.00 in0.0 mm 0.00 in0.0 mm
10:18 AM 21.9°F-5.6°C 20.2°F-6.6°C 93% 8.1 mph WNW13.0 kmh WNW 8.1 mph13.0 kmh 28.35 in960.0 mb - 0.00 in0.0 mm 0.00 in0.0 mm
10:19 AM 21.9°F-5.6°C 20.2°F-6.6°C 93% 6.9 mph NNE11.1 kmh NNE 11.5 mph18.5 kmh 28.35 in960.0 mb - 0.00 in0.0 mm 0.00 in0.0 mm
10:20 AM 21.9°F-5.6°C 20.2°F-6.6°C 93% 6.9 mph N11.1 kmh N 11.5 mph18.5 kmh 28.35 in960.0 mb - 0.00 in0.0 mm 0.00 in0.0 mm
10:21 AM 21.9°F-5.6°C 20.2°F-6.6°C 93% 4.6 mph NE7.4 kmh NE 5.8 mph9.3 kmh 28.35 in960.0 mb - 0.00 in0.0 mm 0.00 in0.0 mm
10:22 AM 21.9°F-5.6°C 20.2°F-6.6°C 93% 3.5 mph N5.6 kmh N 6.9 mph11.1 kmh 28.35 in960.0 mb - 0.00 in0.0 mm 0.00 in0.0 mm
10:23 AM 21.9°F-5.6°C 20.2°F-6.6°C 93% 6.9 mph N11.1 kmh N 11.5 mph18.5 kmh 28.35 in960.0 mb - 0.00 in0.0 mm 0.00 in0.0 mm
10:24 AM 21.9°F-5.6°C 20.2°F-6.6°C 93% 6.9 mph NW11.1 kmh NW 9.2 mph14.8 kmh 28.35 in960.0 mb - 0.00 in0.0 mm 0.00 in0.0 mm
10:25 AM 21.9°F-5.6°C 20.2°F-6.6°C 93% 6.9 mph N11.1 kmh N 9.2 mph14.8 kmh 28.36 in960.4 mb - 0.00 in0.0 mm 0.00 in0.0 mm
10:26 AM 21.9°F-5.6°C 20.2°F-6.6°C 93% 6.9 mph NW11.1 kmh NW 9.2 mph14.8 kmh 28.36 in960.4 mb - 0.00 in0.0 mm 0.00 in0.0 mm
10:27 AM 21.9°F-5.6°C 20.2°F-6.6°C 93% 5.8 mph N9.3 kmh N 6.9 mph11.1 kmh 28.36 in960.4 mb - 0.00 in0.0 mm 0.00 in0.0 mm
10:28 AM 21.9°F-5.6°C 20.2°F-6.6°C 93% 4.6 mph NW7.4 kmh NW 4.6 mph7.4 kmh 28.36 in960.4 mb - 0.00 in0.0 mm 0.00 in0.0 mm
10:29 AM 21.9°F-5.6°C 20.2°F-6.6°C 93% 4.6 mph N7.4 kmh N 5.8 mph9.3 kmh 28.36 in960.4 mb - 0.00 in0.0 mm 0.00 in0.0 mm
10:30 AM 21.9°F-5.6°C 20.2°F-6.6°C 93% 4.6 mph N7.4 kmh N 5.8 mph9.3 kmh 28.36 in960.4 mb - 0.00 in0.0 mm 0.00 in0.0 mm
10:31 AM 22.1°F-5.5°C 20.4°F-6.4°C 93% 2.3 mph NW3.7 kmh NW 3.5 mph5.6 kmh 28.36 in960.4 mb - 0.00 in0.0 mm 0.00 in0.0 mm
10:32 AM 22.1°F-5.5°C 20.4°F-6.4°C 93% 3.5 mph E5.6 kmh E 6.9 mph11.1 kmh 28.36 in960.4 mb - 0.00 in0.0 mm 0.00 in0.0 mm
10:33 AM 22.1°F-5.5°C 20.4°F-6.4°C 93% 6.9 mph NW11.1 kmh NW 8.1 mph13.0 kmh 28.36 in960.4 mb - 0.00 in0.0 mm 0.00 in0.0 mm
10:34 AM 22.1°F-5.5°C 20.4°F-6.4°C 93% 6.9 mph NNE11.1 kmh NNE 6.9 mph11.1 kmh 28.36 in960.4 mb - 0.00 in0.0 mm 0.00 in0.0 mm
10:35 AM 22.1°F-5.5°C 20.4°F-6.4°C 93% 4.6 mph NE7.4 kmh NE 5.8 mph9.3 kmh 28.36 in960.4 mb - 0.00 in0.0 mm 0.00 in0.0 mm
10:36 AM 22.1°F-5.5°C 20.4°F-6.4°C 93% 4.6 mph NE7.4 kmh NE 5.8 mph9.3 kmh 28.36 in960.4 mb - 0.00 in0.0 mm 0.00 in0.0 mm
10:37 AM 22.1°F-5.5°C 20.4°F-6.4°C 93% 3.5 mph ENE5.6 kmh ENE 3.5 mph5.6 kmh 28.36 in960.4 mb - 0.00 in0.0 mm 0.00 in0.0 mm
10:38 AM 22.1°F-5.5°C 20.4°F-6.4°C 93% 3.5 mph NE5.6 kmh NE 8.1 mph13.0 kmh 28.36 in960.4 mb - 0.00 in0.0 mm 0.00 in0.0 mm
10:39 AM 22.1°F-5.5°C 20.4°F-6.4°C 93% 6.9 mph NNE11.1 kmh NNE 9.2 mph14.8 kmh 28.36 in960.4 mb - 0.00 in0.0 mm 0.00 in0.0 mm
10:40 AM 22.1°F-5.5°C 20.4°F-6.4°C 93% 8.1 mph NE13.0 kmh NE 10.4 mph16.7 kmh 28.36 in960.4 mb - 0.00 in0.0 mm 0.00 in0.0 mm
10:41 AM 22.1°F-5.5°C 20.4°F-6.4°C 93% 8.1 mph N13.0 kmh N 9.2 mph14.8 kmh 28.36 in960.4 mb - 0.00 in0.0 mm 0.00 in0.0 mm
10:42 AM 22.1°F-5.5°C 20.4°F-6.4°C 93% 6.9 mph WSW11.1 kmh WSW 8.1 mph13.0 kmh 28.36 in960.4 mb - 0.00 in0.0 mm 0.00 in0.0 mm
10:43 AM 22.1°F-5.5°C 20.4°F-6.4°C 93% 6.9 mph WNW11.1 kmh WNW 6.9 mph11.1 kmh 28.36 in960.4 mb - 0.00 in0.0 mm 0.00 in0.0 mm
10:44 AM 22.1°F-5.5°C 20.4°F-6.4°C 93% 5.8 mph N9.3 kmh N 6.9 mph11.1 kmh 28.36 in960.4 mb - 0.00 in0.0 mm 0.00 in0.0 mm
10:45 AM 22.1°F-5.5°C 20.4°F-6.4°C 93% 5.8 mph NE9.3 kmh NE 6.9 mph11.1 kmh 28.36 in960.4 mb - 0.00 in0.0 mm 0.00 in0.0 mm
10:46 AM 22.1°F-5.5°C 20.4°F-6.4°C 93% 6.9 mph N11.1 kmh N 6.9 mph11.1 kmh 28.36 in960.4 mb - 0.00 in0.0 mm 0.00 in0.0 mm
10:47 AM 22.1°F-5.5°C 20.4°F-6.4°C 93% 4.6 mph WNW7.4 kmh WNW 4.6 mph7.4 kmh 28.36 in960.4 mb - 0.00 in0.0 mm 0.00 in0.0 mm
10:48 AM 22.1°F-5.5°C 20.4°F-6.4°C 93% 3.5 mph NW5.6 kmh NW 5.8 mph9.3 kmh 28.36 in960.4 mb - 0.00 in0.0 mm 0.00 in0.0 mm
10:49 AM 22.1°F-5.5°C 20.4°F-6.4°C 93% 3.5 mph NW5.6 kmh NW 5.8 mph9.3 kmh 28.36 in960.4 mb - 0.00 in0.0 mm 0.00 in0.0 mm
10:50 AM 22.1°F-5.5°C 20.4°F-6.4°C 93% 4.6 mph NW7.4 kmh NW 8.1 mph13.0 kmh 28.36 in960.4 mb - 0.00 in0.0 mm 0.00 in0.0 mm
10:51 AM 22.1°F-5.5°C 20.4°F-6.4°C 93% 6.9 mph NW11.1 kmh NW 9.2 mph14.8 kmh 28.36 in960.4 mb - 0.00 in0.0 mm 0.00 in0.0 mm
10:52 AM 22.1°F-5.5°C 20.4°F-6.4°C 93% 6.9 mph NNW11.1 kmh NNW 6.9 mph11.1 kmh 28.36 in960.4 mb - 0.00 in0.0 mm 0.00 in0.0 mm
10:53 AM 22.1°F-5.5°C 20.4°F-6.4°C 93% 5.8 mph WNW9.3 kmh WNW 6.9 mph11.1 kmh 28.36 in960.4 mb - 0.00 in0.0 mm 0.00 in0.0 mm
10:54 AM 22.1°F-5.5°C 20.4°F-6.4°C 93% 6.9 mph NW11.1 kmh NW 11.5 mph18.5 kmh 28.36 in960.4 mb - 0.00 in0.0 mm 0.00 in0.0 mm
10:55 AM 22.1°F-5.5°C 20.4°F-6.4°C 93% 8.1 mph NE13.0 kmh NE 9.2 mph14.8 kmh 28.36 in960.4 mb - 0.00 in0.0 mm 0.00 in0.0 mm
10:56 AM 22.1°F-5.5°C 20.4°F-6.4°C 93% 5.8 mph N9.3 kmh N 5.8 mph9.3 kmh 28.36 in960.4 mb - 0.00 in0.0 mm 0.00 in0.0 mm
10:57 AM 22.1°F-5.5°C 20.4°F-6.4°C 93% 5.8 mph NNW9.3 kmh NNW 12.7 mph20.4 kmh 28.36 in960.4 mb - 0.00 in0.0 mm 0.00 in0.0 mm
10:58 AM 22.1°F-5.5°C 20.4°F-6.4°C 93% 8.1 mph N13.0 kmh N 9.2 mph14.8 kmh 28.36 in960.4 mb - 0.00 in0.0 mm 0.00 in0.0 mm
10:59 AM 22.1°F-5.5°C 20.4°F-6.4°C 93% 8.1 mph NNE13.0 kmh NNE 8.1 mph13.0 kmh 28.36 in960.4 mb - 0.00 in0.0 mm 0.00 in0.0 mm
11:00 AM 22.1°F-5.5°C 20.4°F-6.4°C 93% 6.9 mph N11.1 kmh N 9.2 mph14.8 kmh 28.36 in960.4 mb - 0.00 in0.0 mm 0.00 in0.0 mm
11:01 AM 22.1°F-5.5°C 20.4°F-6.4°C 93% 5.8 mph NNW9.3 kmh NNW 10.4 mph16.7 kmh 28.36 in960.4 mb - 0.00 in0.0 mm 0.00 in0.0 mm
11:02 AM 22.1°F-5.5°C 20.4°F-6.4°C 93% 6.9 mph N11.1 kmh N 10.4 mph16.7 kmh 28.36 in960.4 mb - 0.00 in0.0 mm 0.00 in0.0 mm
11:03 AM 22.1°F-5.5°C 20.4°F-6.4°C 93% 6.9 mph NE11.1 kmh NE 5.8 mph9.3 kmh 28.36 in960.4 mb - 0.00 in0.0 mm 0.00 in0.0 mm
11:04 AM 22.1°F-5.5°C 20.4°F-6.4°C 93% 5.8 mph W9.3 kmh W 8.1 mph13.0 kmh 28.36 in960.4 mb - 0.00 in0.0 mm 0.00 in0.0 mm
11:05 AM 22.1°F-5.5°C 20.4°F-6.4°C 93% 5.8 mph N9.3 kmh N 6.9 mph11.1 kmh 28.36 in960.4 mb - 0.00 in0.0 mm 0.00 in0.0 mm
11:06 AM 22.1°F-5.5°C 20.4°F-6.4°C 93% 5.8 mph NNW9.3 kmh NNW 9.2 mph14.8 kmh 28.36 in960.4 mb - 0.00 in0.0 mm 0.00 in0.0 mm
11:07 AM 22.1°F-5.5°C 20.4°F-6.4°C 93% 8.1 mph NNW13.0 kmh NNW 11.5 mph18.5 kmh 28.36 in960.4 mb - 0.00 in0.0 mm 0.00 in0.0 mm
11:08 AM 22.0°F-5.6°C 20.2°F-6.6°C 93% 9.2 mph NNW14.8 kmh NNW 11.5 mph18.5 kmh 28.36 in960.4 mb - 0.00 in0.0 mm 0.00 in0.0 mm
11:09 AM 21.9°F-5.6°C 20.2°F-6.6°C 93% 8.1 mph N13.0 kmh N 8.1 mph13.0 kmh 28.36 in960.4 mb - 0.00 in0.0 mm 0.00 in0.0 mm
11:10 AM 21.9°F-5.6°C 20.2°F-6.6°C 93% 6.9 mph NNE11.1 kmh NNE 6.9 mph11.1 kmh 28.36 in960.4 mb - 0.00 in0.0 mm 0.00 in0.0 mm
11:11 AM 21.9°F-5.6°C 20.2°F-6.6°C 93% 6.9 mph N11.1 kmh N 9.2 mph14.8 kmh 28.36 in960.4 mb - 0.00 in0.0 mm 0.00 in0.0 mm
11:12 AM 21.9°F-5.6°C 20.2°F-6.6°C 93% 8.1 mph NNW13.0 kmh NNW 10.4 mph16.7 kmh 28.36 in960.4 mb - 0.00 in0.0 mm 0.00 in0.0 mm
11:13 AM 21.9°F-5.6°C 20.2°F-6.6°C 93% 8.1 mph NNE13.0 kmh NNE 10.4 mph16.7 kmh 28.36 in960.4 mb - 0.00 in0.0 mm 0.00 in0.0 mm
11:14 AM 21.9°F-5.6°C 20.2°F-6.6°C 93% 5.8 mph NE9.3 kmh NE 9.2 mph14.8 kmh 28.36 in960.4 mb - 0.00 in0.0 mm 0.00 in0.0 mm
11:15 AM 21.9°F-5.6°C 20.2°F-6.6°C 93% 6.9 mph NNE11.1 kmh NNE 9.2 mph14.8 kmh 28.36 in960.4 mb - 0.00 in0.0 mm 0.00 in0.0 mm
11:16 AM 21.9°F-5.6°C 20.2°F-6.6°C 93% 5.8 mph NNE9.3 kmh NNE 13.8 mph22.2 kmh 28.36 in960.4 mb - 0.00 in0.0 mm 0.00 in0.0 mm
11:17 AM 21.9°F-5.6°C 20.2°F-6.6°C 93% 8.1 mph NE13.0 kmh NE 8.1 mph13.0 kmh 28.36 in960.4 mb - 0.00 in0.0 mm 0.00 in0.0 mm
11:18 AM 21.9°F-5.6°C 20.2°F-6.6°C 93% 5.8 mph WNW9.3 kmh WNW 6.9 mph11.1 kmh 28.36 in960.4 mb - 0.00 in0.0 mm 0.00 in0.0 mm
11:19 AM 21.9°F-5.6°C 20.2°F-6.6°C 93% 5.8 mph NW9.3 kmh NW 6.9 mph11.1 kmh 28.36 in960.4 mb - 0.00 in0.0 mm 0.00 in0.0 mm
11:20 AM 21.9°F-5.6°C 20.2°F-6.6°C 93% 5.8 mph NNE9.3 kmh NNE 8.1 mph13.0 kmh 28.36 in960.4 mb - 0.00 in0.0 mm 0.00 in0.0 mm
11:21 AM 21.9°F-5.6°C 20.2°F-6.6°C 93% 5.8 mph NNE9.3 kmh NNE 5.8 mph9.3 kmh 28.36 in960.4 mb - 0.00 in0.0 mm 0.00 in0.0 mm
11:22 AM 22.1°F-5.5°C 20.4°F-6.4°C 93% 4.6 mph N7.4 kmh N 5.8 mph9.3 kmh 28.36 in960.4 mb - 0.00 in0.0 mm 0.00 in0.0 mm
11:23 AM 22.1°F-5.5°C 20.4°F-6.4°C 93% 5.8 mph NW9.3 kmh NW 8.1 mph13.0 kmh 28.36 in960.4 mb - 0.00 in0.0 mm 0.00 in0.0 mm
11:24 AM 22.1°F-5.5°C 20.4°F-6.4°C 93% 5.8 mph N9.3 kmh N 4.6 mph7.4 kmh 28.36 in960.4 mb - 0.00 in0.0 mm 0.00 in0.0 mm
11:25 AM 22.1°F-5.5°C 20.4°F-6.4°C 93% 4.6 mph NNE7.4 kmh NNE 6.9 mph11.1 kmh 28.36 in960.4 mb - 0.00 in0.0 mm 0.00 in0.0 mm
11:26 AM 22.2°F-5.4°C 20.5°F-6.4°C 93% 4.6 mph NNE7.4 kmh NNE 5.8 mph9.3 kmh 28.36 in960.4 mb - 0.00 in0.0 mm 0.00 in0.0 mm
11:27 AM 22.3°F-5.4°C 20.6°F-6.3°C 93% 5.8 mph N9.3 kmh N 11.5 mph18.5 kmh 28.36 in960.4 mb - 0.00 in0.0 mm 0.00 in0.0 mm
11:28 AM 22.3°F-5.4°C 20.3°F-6.5°C 92% 6.9 mph NW11.1 kmh NW 6.9 mph11.1 kmh 28.36 in960.4 mb - 0.00 in0.0 mm 0.00 in0.0 mm
11:29 AM 22.3°F-5.4°C 20.3°F-6.5°C 92% 5.8 mph NW9.3 kmh NW 5.8 mph9.3 kmh 28.36 in960.4 mb - 0.00 in0.0 mm 0.00 in0.0 mm
11:30 AM 22.3°F-5.4°C 20.3°F-6.5°C 92% 4.6 mph N7.4 kmh N 8.1 mph13.0 kmh 28.36 in960.4 mb - 0.00 in0.0 mm 0.00 in0.0 mm
11:31 AM 22.3°F-5.4°C 20.3°F-6.5°C 92% 6.9 mph NE11.1 kmh NE 6.9 mph11.1 kmh 28.36 in960.4 mb - 0.00 in0.0 mm 0.00 in0.0 mm
11:32 AM 22.3°F-5.4°C 20.3°F-6.5°C 92% 5.8 mph W9.3 kmh W 5.8 mph9.3 kmh 28.36 in960.4 mb - 0.00 in0.0 mm 0.00 in0.0 mm
11:33 AM 22.3°F-5.4°C 20.3°F-6.5°C 92% 4.6 mph NW7.4 kmh NW 5.8 mph9.3 kmh 28.36 in960.4 mb - 0.00 in0.0 mm 0.00 in0.0 mm
11:34 AM 22.3°F-5.4°C 20.3°F-6.5°C 92% 5.8 mph WNW9.3 kmh WNW 5.8 mph9.3 kmh 28.36 in960.4 mb - 0.00 in0.0 mm 0.00 in0.0 mm
11:35 AM 22.3°F-5.4°C 20.3°F-6.5°C 92% 5.8 mph NNW9.3 kmh NNW 6.9 mph11.1 kmh 28.36 in960.4 mb - 0.00 in0.0 mm 0.00 in0.0 mm
11:36 AM 22.3°F-5.4°C 20.3°F-6.5°C 92% 4.6 mph N7.4 kmh N 4.6 mph7.4 kmh 28.36 in960.4 mb - 0.00 in0.0 mm 0.00 in0.0 mm
11:37 AM 22.5°F-5.3°C 20.5°F-6.4°C 92% 4.6 mph NW7.4 kmh NW 8.1 mph13.0 kmh 28.36 in960.4 mb - 0.00 in0.0 mm 0.00 in0.0 mm
11:38 AM 22.5°F-5.3°C 20.5°F-6.4°C 92% 5.8 mph N9.3 kmh N 6.9 mph11.1 kmh 28.37 in960.7 mb - 0.00 in0.0 mm 0.00 in0.0 mm
11:39 AM 22.5°F-5.3°C 20.5°F-6.4°C 92% 6.9 mph NNW11.1 kmh NNW 12.7 mph20.4 kmh 28.37 in960.7 mb - 0.00 in0.0 mm 0.00 in0.0 mm
11:40 AM 22.5°F-5.3°C 20.5°F-6.4°C 92% 5.8 mph NNW9.3 kmh NNW 4.6 mph7.4 kmh 28.37 in960.7 mb - 0.00 in0.0 mm 0.00 in0.0 mm
11:41 AM 22.5°F-5.3°C 20.5°F-6.4°C 92% 4.6 mph SW7.4 kmh SW 9.2 mph14.8 kmh 28.37 in960.7 mb - 0.00 in0.0 mm 0.00 in0.0 mm
11:42 AM 22.5°F-5.3°C 20.5°F-6.4°C 92% 5.8 mph N9.3 kmh N 5.8 mph9.3 kmh 28.37 in960.7 mb - 0.00 in0.0 mm 0.00 in0.0 mm
11:43 AM 22.5°F-5.3°C 20.5°F-6.4°C 92% 5.8 mph NE9.3 kmh NE 10.4 mph16.7 kmh 28.37 in960.7 mb - 0.00 in0.0 mm 0.00 in0.0 mm
11:44 AM 22.5°F-5.3°C 20.5°F-6.4°C 92% 10.4 mph NW16.7 kmh NW 15.0 mph24.1 kmh 28.37 in960.7 mb - 0.00 in0.0 mm 0.00 in0.0 mm
11:45 AM 22.5°F-5.3°C 20.5°F-6.4°C 92% 8.1 mph N13.0 kmh N 5.8 mph9.3 kmh 28.37 in960.7 mb - 0.00 in0.0 mm 0.00 in0.0 mm
11:46 AM 22.5°F-5.3°C 20.5°F-6.4°C 92% 4.6 mph E7.4 kmh E 6.9 mph11.1 kmh 28.37 in960.7 mb - 0.00 in0.0 mm 0.00 in0.0 mm
11:47 AM 22.5°F-5.3°C 20.5°F-6.4°C 92% 4.6 mph N7.4 kmh N 4.6 mph7.4 kmh 28.37 in960.7 mb - 0.00 in0.0 mm 0.00 in0.0 mm
11:48 AM 22.5°F-5.3°C 20.6°F-6.3°C 92% 4.6 mph E7.4 kmh E 5.8 mph9.3 kmh 28.37 in960.7 mb - 0.00 in0.0 mm 0.00 in0.0 mm
11:49 AM 22.6°F-5.2°C 20.6°F-6.3°C 92% 6.9 mph N11.1 kmh N 10.4 mph16.7 kmh 28.37 in960.7 mb - 0.00 in0.0 mm 0.00 in0.0 mm
11:50 AM 22.6°F-5.2°C 20.6°F-6.3°C 92% 8.1 mph N13.0 kmh N 9.2 mph14.8 kmh 28.37 in960.7 mb - 0.00 in0.0 mm 0.00 in0.0 mm
11:51 AM 22.6°F-5.2°C 20.4°F-6.4°C 91% 5.8 mph N9.3 kmh N 8.1 mph13.0 kmh 28.38 in961.1 mb - 0.00 in0.0 mm 0.00 in0.0 mm
11:52 AM 22.6°F-5.2°C 20.4°F-6.4°C 91% 5.8 mph WNW9.3 kmh WNW 9.2 mph14.8 kmh 28.38 in961.1 mb - 0.00 in0.0 mm 0.00 in0.0 mm
11:53 AM 22.6°F-5.2°C 20.4°F-6.4°C 91% 8.1 mph NNW13.0 kmh NNW 12.7 mph20.4 kmh 28.38 in961.1 mb - 0.00 in0.0 mm 0.00 in0.0 mm
11:54 AM 22.6°F-5.2°C 20.4°F-6.4°C 91% 8.1 mph N13.0 kmh N 9.2 mph14.8 kmh 28.38 in961.1 mb - 0.00 in0.0 mm 0.00 in0.0 mm
11:55 AM 22.6°F-5.2°C 20.4°F-6.4°C 91% 6.9 mph N11.1 kmh N 10.4 mph16.7 kmh 28.38 in961.1 mb - 0.00 in0.0 mm 0.00 in0.0 mm
11:56 AM 22.5°F-5.3°C 20.3°F-6.5°C 91% 8.1 mph N13.0 kmh N 8.1 mph13.0 kmh 28.38 in961.1 mb - 0.00 in0.0 mm 0.00 in0.0 mm
11:57 AM 22.5°F-5.3°C 20.3°F-6.5°C 91% 6.9 mph NNW11.1 kmh NNW 8.1 mph13.0 kmh 28.38 in961.1 mb - 0.00 in0.0 mm 0.00 in0.0 mm
11:58 AM 22.5°F-5.3°C 20.3°F-6.5°C 91% 6.9 mph NNW11.1 kmh NNW 11.5 mph18.5 kmh 28.38 in961.1 mb - 0.00 in0.0 mm 0.00 in0.0 mm
11:59 AM 22.5°F-5.3°C 20.3°F-6.5°C 91% 8.1 mph WSW13.0 kmh WSW 10.4 mph16.7 kmh 28.38 in961.1 mb - 0.00 in0.0 mm 0.00 in0.0 mm
12:00 PM 22.6°F-5.2°C 20.3°F-6.5°C 91% 5.8 mph NW9.3 kmh NW 16.1 mph25.9 kmh 28.38 in961.1 mb - 0.00 in0.0 mm 0.00 in0.0 mm
12:01 PM 22.5°F-5.3°C 20.0°F-6.7°C 90% 11.5 mph NW18.5 kmh NW 16.1 mph25.9 kmh 28.38 in961.1 mb - 0.00 in0.0 mm 0.00 in0.0 mm
12:02 PM 22.5°F-5.3°C 20.0°F-6.7°C 90% 5.8 mph N9.3 kmh N 5.8 mph9.3 kmh 28.37 in960.7 mb - 0.00 in0.0 mm 0.00 in0.0 mm
12:03 PM 22.6°F-5.2°C 20.1°F-6.6°C 90% 5.8 mph N9.3 kmh N 9.2 mph14.8 kmh 28.37 in960.7 mb - 0.00 in0.0 mm 0.00 in0.0 mm
12:04 PM 22.6°F-5.2°C 20.1°F-6.6°C 90% 4.6 mph N7.4 kmh N 8.1 mph13.0 kmh 28.37 in960.7 mb - 0.00 in0.0 mm 0.00 in0.0 mm
12:05 PM 22.6°F-5.2°C 20.1°F-6.6°C 90% 5.8 mph N9.3 kmh N 9.2 mph14.8 kmh 28.37 in960.7 mb - 0.00 in0.0 mm 0.00 in0.0 mm
12:06 PM 22.6°F-5.2°C 20.1°F-6.6°C 90% 5.8 mph NW9.3 kmh NW 9.2 mph14.8 kmh 28.37 in960.7 mb - 0.00 in0.0 mm 0.00 in0.0 mm
12:07 PM 22.7°F-5.2°C 20.2°F-6.6°C 90% 6.9 mph NNW11.1 kmh NNW 8.1 mph13.0 kmh 28.37 in960.7 mb - 0.00 in0.0 mm 0.00 in0.0 mm
12:08 PM 22.8°F-5.1°C 20.3°F-6.5°C 90% 6.9 mph NNW11.1 kmh NNW 10.4 mph16.7 kmh 28.37 in960.7 mb - 0.00 in0.0 mm 0.00 in0.0 mm
12:09 PM 22.8°F-5.1°C 20.3°F-6.5°C 90% 10.4 mph NW16.7 kmh NW 16.1 mph25.9 kmh 28.37 in960.7 mb - 0.00 in0.0 mm 0.00 in0.0 mm
12:10 PM 22.6°F-5.2°C 20.1°F-6.6°C 90% 11.5 mph N18.5 kmh N 10.4 mph16.7 kmh 28.37 in960.7 mb - 0.00 in0.0 mm 0.00 in0.0 mm
12:11 PM 22.6°F-5.2°C 20.1°F-6.6°C 90% 8.1 mph NE13.0 kmh NE 9.2 mph14.8 kmh 28.37 in960.7 mb - 0.00 in0.0 mm 0.00 in0.0 mm
12:12 PM 22.6°F-5.2°C 20.1°F-6.6°C 90% 8.1 mph NE13.0 kmh NE 9.2 mph14.8 kmh 28.37 in960.7 mb - 0.00 in0.0 mm 0.00 in0.0 mm
12:13 PM 22.6°F-5.2°C 20.1°F-6.6°C 90% 8.1 mph W13.0 kmh W 12.7 mph20.4 kmh 28.37 in960.7 mb - 0.00 in0.0 mm 0.00 in0.0 mm
12:14 PM 22.6°F-5.2°C 20.1°F-6.6°C 90% 5.8 mph NW9.3 kmh NW 6.9 mph11.1 kmh 28.37 in960.7 mb - 0.00 in0.0 mm 0.00 in0.0 mm
12:15 PM 22.6°F-5.2°C 20.1°F-6.6°C 90% 5.8 mph N9.3 kmh N 8.1 mph13.0 kmh 28.37 in960.7 mb - 0.00 in0.0 mm 0.00 in0.0 mm
12:16 PM 22.6°F-5.2°C 20.1°F-6.6°C 90% 8.1 mph WNW13.0 kmh WNW 10.4 mph16.7 kmh 28.37 in960.7 mb - 0.00 in0.0 mm 0.00 in0.0 mm
12:17 PM 22.6°F-5.2°C 20.1°F-6.6°C 90% 6.9 mph N11.1 kmh N 5.8 mph9.3 kmh 28.37 in960.7 mb - 0.00 in0.0 mm 0.00 in0.0 mm
12:18 PM 22.7°F-5.2°C 20.2°F-6.6°C 90% 5.8 mph NE9.3 kmh NE 5.8 mph9.3 kmh 28.37 in960.7 mb - 0.00 in0.0 mm 0.00 in0.0 mm
12:19 PM 22.8°F-5.1°C 20.3°F-6.5°C 90% 3.5 mph NW5.6 kmh NW 5.8 mph9.3 kmh 28.37 in960.7 mb - 0.00 in0.0 mm 0.00 in0.0 mm
12:20 PM 22.8°F-5.1°C 20.3°F-6.5°C 90% 5.8 mph NNE9.3 kmh NNE 9.2 mph14.8 kmh 28.37 in960.7 mb - 0.00 in0.0 mm 0.00 in0.0 mm
12:21 PM 22.8°F-5.1°C 20.3°F-6.5°C 90% 8.1 mph NNW13.0 kmh NNW 16.1 mph25.9 kmh 28.37 in960.7 mb - 0.00 in0.0 mm 0.00 in0.0 mm
12:22 PM 22.8°F-5.1°C 20.0°F-6.7°C 89% 12.7 mph N20.4 kmh N 16.1 mph25.9 kmh 28.37 in960.7 mb - 0.00 in0.0 mm 0.00 in0.0 mm
12:23 PM 22.8°F-5.1°C 20.0°F-6.7°C 89% 9.2 mph N14.8 kmh N 12.7 mph20.4 kmh 28.37 in960.7 mb - 0.00 in0.0 mm 0.00 in0.0 mm
12:24 PM 22.7°F-5.2°C 19.9°F-6.7°C 89% 10.4 mph NNW16.7 kmh NNW 12.7 mph20.4 kmh 28.37 in960.7 mb - 0.00 in0.0 mm 0.00 in0.0 mm
12:25 PM 22.6°F-5.2°C 19.8°F-6.8°C 89% 9.2 mph NNW14.8 kmh NNW 8.1 mph13.0 kmh 28.37 in960.7 mb - 0.00 in0.0 mm 0.00 in0.0 mm
12:26 PM 22.6°F-5.2°C 19.8°F-6.8°C 89% 6.9 mph NNW11.1 kmh NNW 6.9 mph11.1 kmh 28.38 in961.1 mb - 0.00 in0.0 mm 0.00 in0.0 mm
12:27 PM 22.6°F-5.2°C 19.8°F-6.8°C 89% 6.9 mph N11.1 kmh N 13.8 mph22.2 kmh 28.38 in961.1 mb - 0.00 in0.0 mm 0.00 in0.0 mm
12:28 PM 22.6°F-5.2°C 19.8°F-6.8°C 89% 8.1 mph NW13.0 kmh NW 13.8 mph22.2 kmh 28.38 in961.1 mb - 0.00 in0.0 mm 0.00 in0.0 mm
12:29 PM 22.6°F-5.2°C 19.8°F-6.8°C 89% 6.9 mph NNE11.1 kmh NNE 8.1 mph13.0 kmh 28.38 in961.1 mb - 0.00 in0.0 mm 0.00 in0.0 mm
12:30 PM 22.6°F-5.2°C 19.8°F-6.8°C 89% 4.6 mph WSW7.4 kmh WSW 5.8 mph9.3 kmh 28.38 in961.1 mb - 0.00 in0.0 mm 0.00 in0.0 mm
12:31 PM 22.8°F-5.1°C 20.0°F-6.7°C 89% 5.8 mph NNE9.3 kmh NNE 10.4 mph16.7 kmh 28.38 in961.1 mb - 0.00 in0.0 mm 0.00 in0.0 mm
12:32 PM 22.8°F-5.1°C 20.0°F-6.7°C 89% 8.1 mph NNW13.0 kmh NNW 10.4 mph16.7 kmh 28.38 in961.1 mb - 0.00 in0.0 mm 0.00 in0.0 mm
12:33 PM 22.8°F-5.1°C 20.0°F-6.7°C 89% 5.8 mph N9.3 kmh N 5.8 mph9.3 kmh 28.38 in961.1 mb - 0.00 in0.0 mm 0.00 in0.0 mm
12:34 PM 22.8°F-5.1°C 20.0°F-6.7°C 89% 4.6 mph NNW7.4 kmh NNW 6.9 mph11.1 kmh 28.38 in961.1 mb - 0.00 in0.0 mm 0.00 in0.0 mm
12:35 PM 22.8°F-5.1°C 20.0°F-6.7°C 89% 5.8 mph N9.3 kmh N 10.4 mph16.7 kmh 28.38 in961.1 mb - 0.00 in0.0 mm 0.00 in0.0 mm
12:36 PM 22.8°F-5.1°C 20.0°F-6.7°C 89% 8.1 mph 13.0 kmh 8.1 mph13.0 kmh 28.38 in961.1 mb - 0.00 in0.0 mm 0.00 in0.0 mm
12:37 PM 22.8°F-5.1°C 20.0°F-6.7°C 89% 4.6 mph NNW7.4 kmh NNW 6.9 mph11.1 kmh 28.38 in961.1 mb - 0.00 in0.0 mm 0.00 in0.0 mm
12:38 PM 22.9°F-5.1°C 20.1°F-6.6°C 89% 5.8 mph N9.3 kmh N 6.9 mph11.1 kmh 28.38 in961.1 mb - 0.00 in0.0 mm 0.00 in0.0 mm
12:39 PM 23.0°F-5.0°C 20.2°F-6.6°C 89% 4.6 mph NE7.4 kmh NE 5.8 mph9.3 kmh 28.38 in961.1 mb - 0.00 in0.0 mm 0.00 in0.0 mm
12:40 PM 23.0°F-5.0°C 20.2°F-6.6°C 89% 5.8 mph N9.3 kmh N 9.2 mph14.8 kmh 28.38 in961.1 mb - 0.00 in0.0 mm 0.00 in0.0 mm
12:41 PM 23.0°F-5.0°C 20.2°F-6.6°C 89% 6.9 mph NNE11.1 kmh NNE 8.1 mph13.0 kmh 28.38 in961.1 mb - 0.00 in0.0 mm 0.00 in0.0 mm
12:42 PM 23.0°F-5.0°C 20.2°F-6.6°C 89% 5.8 mph NE9.3 kmh NE 10.4 mph16.7 kmh 28.38 in961.1 mb - 0.00 in0.0 mm 0.00 in0.0 mm
12:43 PM 23.0°F-5.0°C 20.2°F-6.6°C 89% 8.1 mph NNE13.0 kmh NNE 10.4 mph16.7 kmh 28.38 in961.1 mb - 0.00 in0.0 mm 0.00 in0.0 mm
12:44 PM 23.0°F-5.0°C 20.2°F-6.6°C 89% 4.6 mph NNE7.4 kmh NNE 9.2 mph14.8 kmh 28.38 in961.1 mb - 0.00 in0.0 mm 0.00 in0.0 mm
12:45 PM 23.0°F-5.0°C 20.2°F-6.6°C 89% 4.6 mph N7.4 kmh N 9.2 mph14.8 kmh 28.38 in961.1 mb - 0.00 in0.0 mm 0.00 in0.0 mm
12:46 PM 23.0°F-5.0°C 20.2°F-6.6°C 89% 5.8 mph WNW9.3 kmh WNW 6.9 mph11.1 kmh 28.38 in961.1 mb - 0.00 in0.0 mm 0.00 in0.0 mm
12:47 PM 23.0°F-5.0°C 20.2°F-6.6°C 89% 6.9 mph NW11.1 kmh NW 9.2 mph14.8 kmh 28.38 in961.1 mb - 0.00 in0.0 mm 0.00 in0.0 mm
12:48 PM 23.0°F-5.0°C 20.2°F-6.6°C 89% 6.9 mph NW11.1 kmh NW 9.2 mph14.8 kmh 28.38 in961.1 mb - 0.00 in0.0 mm 0.00 in0.0 mm
12:49 PM 23.0°F-5.0°C 20.2°F-6.6°C 89% 5.8 mph N9.3 kmh N 6.9 mph11.1 kmh 28.38 in961.1 mb - 0.00 in0.0 mm 0.00 in0.0 mm
12:50 PM 23.0°F-5.0°C 20.2°F-6.6°C 89% 5.8 mph NNW9.3 kmh NNW 9.2 mph14.8 kmh 28.38 in961.1 mb - 0.00 in0.0 mm 0.00 in0.0 mm
12:51 PM 23.0°F-5.0°C 20.2°F-6.6°C 89% 8.1 mph S13.0 kmh S 8.1 mph13.0 kmh 28.38 in961.1 mb - 0.00 in0.0 mm 0.00 in0.0 mm
12:52 PM 23.0°F-5.0°C 20.2°F-6.6°C 89% 6.9 mph NW11.1 kmh NW 8.1 mph13.0 kmh 28.38 in961.1 mb - 0.00 in0.0 mm 0.00 in0.0 mm
12:53 PM 23.0°F-5.0°C 20.2°F-6.6°C 89% 5.8 mph N9.3 kmh N 9.2 mph14.8 kmh 28.38 in961.1 mb - 0.00 in0.0 mm 0.00 in0.0 mm
12:54 PM 23.0°F-5.0°C 20.2°F-6.6°C 89% 6.9 mph NW11.1 kmh NW 9.2 mph14.8 kmh 28.38 in961.1 mb - 0.00 in0.0 mm 0.00 in0.0 mm
12:55 PM 23.0°F-5.0°C 20.2°F-6.6°C 89% 6.9 mph N11.1 kmh N 9.2 mph14.8 kmh 28.38 in961.1 mb - 0.00 in0.0 mm 0.00 in0.0 mm
12:56 PM 23.0°F-5.0°C 20.2°F-6.6°C 89% 4.6 mph NNW7.4 kmh NNW 4.6 mph7.4 kmh 28.38 in961.1 mb - 0.00 in0.0 mm 0.00 in0.0 mm
12:57 PM 23.2°F-4.9°C 20.4°F-6.4°C 89% 3.5 mph NW5.6 kmh NW 5.8 mph9.3 kmh 28.38 in961.1 mb - 0.00 in0.0 mm 0.00 in0.0 mm
12:58 PM 23.2°F-4.9°C 20.4°F-6.4°C 89% 5.8 mph ESE9.3 kmh ESE 9.2 mph14.8 kmh 28.38 in961.1 mb - 0.00 in0.0 mm 0.00 in0.0 mm
12:59 PM 23.2°F-4.9°C 20.4°F-6.4°C 89% 8.1 mph N13.0 kmh N 12.7 mph20.4 kmh 28.38 in961.1 mb - 0.00 in0.0 mm 0.00 in0.0 mm
01:00 PM 23.2°F-4.9°C 20.2°F-6.6°C 88% 5.8 mph N9.3 kmh N 5.8 mph9.3 kmh 28.38 in961.1 mb - 0.00 in0.0 mm 0.00 in0.0 mm
01:01 PM 23.2°F-4.9°C 20.2°F-6.6°C 88% 5.8 mph N9.3 kmh N 8.1 mph13.0 kmh 28.38 in961.1 mb - 0.00 in0.0 mm 0.00 in0.0 mm
01:02 PM 23.2°F-4.9°C 20.2°F-6.6°C 88% 5.8 mph N9.3 kmh N 9.2 mph14.8 kmh 28.38 in961.1 mb - 0.00 in0.0 mm 0.00 in0.0 mm
01:03 PM 23.2°F-4.9°C 20.2°F-6.6°C 88% 9.2 mph WNW14.8 kmh WNW 11.5 mph18.5 kmh 28.38 in961.1 mb - 0.00 in0.0 mm 0.00 in0.0 mm
01:04 PM 23.0°F-5.0°C 20.0°F-6.7°C 88% 10.4 mph NW16.7 kmh NW 10.4 mph16.7 kmh 28.38 in961.1 mb - 0.00 in0.0 mm 0.00 in0.0 mm
01:05 PM 23.0°F-5.0°C 20.0°F-6.7°C 88% 5.8 mph N9.3 kmh N 6.9 mph11.1 kmh 28.38 in961.1 mb - 0.00 in0.0 mm 0.00 in0.0 mm
01:06 PM 23.0°F-5.0°C 20.0°F-6.7°C 88% 6.9 mph NNE11.1 kmh NNE 8.1 mph13.0 kmh 28.38 in961.1 mb - 0.00 in0.0 mm 0.00 in0.0 mm
01:07 PM 23.0°F-5.0°C 20.0°F-6.7°C 88% 6.9 mph ENE11.1 kmh ENE 8.1 mph13.0 kmh 28.38 in961.1 mb - 0.00 in0.0 mm 0.00 in0.0 mm
01:08 PM 23.0°F-5.0°C 20.0°F-6.7°C 88% 4.6 mph NW7.4 kmh NW 5.8 mph9.3 kmh 28.38 in961.1 mb - 0.00 in0.0 mm 0.00 in0.0 mm
01:09 PM 23.0°F-5.0°C 20.0°F-6.7°C 88% 5.8 mph N9.3 kmh N 10.4 mph16.7 kmh 28.38 in961.1 mb - 0.00 in0.0 mm 0.00 in0.0 mm
01:10 PM 23.0°F-5.0°C 20.0°F-6.7°C 88% 8.1 mph NNE13.0 kmh NNE 10.4 mph16.7 kmh 28.38 in961.1 mb - 0.00 in0.0 mm 0.00 in0.0 mm
01:11 PM 23.0°F-5.0°C 20.0°F-6.7°C 88% 6.9 mph NW11.1 kmh NW 10.4 mph16.7 kmh 28.38 in961.1 mb - 0.00 in0.0 mm 0.00 in0.0 mm
01:12 PM 23.0°F-5.0°C 20.0°F-6.7°C 88% 8.1 mph NNE13.0 kmh NNE 11.5 mph18.5 kmh 28.38 in961.1 mb - 0.00 in0.0 mm 0.00 in0.0 mm
01:13 PM 23.0°F-5.0°C 19.7°F-6.8°C 87% 8.1 mph NNE13.0 kmh NNE 8.1 mph13.0 kmh 28.38 in961.1 mb - 0.00 in0.0 mm 0.00 in0.0 mm
01:14 PM 23.0°F-5.0°C 19.7°F-6.8°C 87% 6.9 mph NW11.1 kmh NW 8.1 mph13.0 kmh 28.38 in961.1 mb - 0.00 in0.0 mm 0.00 in0.0 mm
01:15 PM 23.0°F-5.0°C 19.7°F-6.8°C 87% 5.8 mph N9.3 kmh N 10.4 mph16.7 kmh 28.38 in961.1 mb - 0.00 in0.0 mm 0.00 in0.0 mm
01:16 PM 23.2°F-4.9°C 19.9°F-6.7°C 87% 8.1 mph N13.0 kmh N 11.5 mph18.5 kmh 28.38 in961.1 mb - 0.00 in0.0 mm 0.00 in0.0 mm
01:17 PM 23.2°F-4.9°C 19.9°F-6.7°C 87% 9.2 mph NNE14.8 kmh NNE 11.5 mph18.5 kmh 28.38 in961.1 mb - 0.00 in0.0 mm 0.00 in0.0 mm
01:18 PM 23.2°F-4.9°C 19.9°F-6.7°C 87% 6.9 mph N11.1 kmh N 8.1 mph13.0 kmh 28.38 in961.1 mb - 0.00 in0.0 mm 0.00 in0.0 mm
01:19 PM 23.2°F-4.9°C 19.9°F-6.7°C 87% 4.6 mph NNW7.4 kmh NNW 6.9 mph11.1 kmh 28.38 in961.1 mb - 0.00 in0.0 mm 0.00 in0.0 mm
01:20 PM 23.2°F-4.9°C 19.9°F-6.7°C 87% 5.8 mph N9.3 kmh N 6.9 mph11.1 kmh 28.38 in961.1 mb - 0.00 in0.0 mm 0.00 in0.0 mm
01:21 PM 23.2°F-4.9°C 19.9°F-6.7°C 87% 4.6 mph W7.4 kmh W 5.8 mph9.3 kmh 28.38 in961.1 mb - 0.00 in0.0 mm 0.00 in0.0 mm
01:22 PM 23.2°F-4.9°C 19.9°F-6.7°C 87% 5.8 mph NW9.3 kmh NW 5.8 mph9.3 kmh 28.38 in961.1 mb - 0.00 in0.0 mm 0.00 in0.0 mm
01:23 PM 23.4°F-4.8°C 20.1°F-6.6°C 87% 4.6 mph WSW7.4 kmh WSW 10.4 mph16.7 kmh 28.38 in961.1 mb - 0.00 in0.0 mm 0.00 in0.0 mm
01:24 PM 23.2°F-4.9°C 19.9°F-6.7°C 87% 9.2 mph WNW14.8 kmh WNW 10.4 mph16.7 kmh 28.38 in961.1 mb - 0.00 in0.0 mm 0.00 in0.0 mm
01:25 PM 23.2°F-4.9°C 19.9°F-6.7°C 87% 9.2 mph NW14.8 kmh NW 10.4 mph16.7 kmh 28.38 in961.1 mb - 0.00 in0.0 mm 0.00 in0.0 mm
01:26 PM 23.2°F-4.9°C 19.9°F-6.7°C 87% 8.1 mph N13.0 kmh N 12.7 mph20.4 kmh 28.39 in961.4 mb - 0.00 in0.0 mm 0.00 in0.0 mm
01:27 PM 23.1°F-4.9°C 19.8°F-6.8°C 87% 6.9 mph W11.1 kmh W 12.7 mph20.4 kmh 28.39 in961.4 mb - 0.00 in0.0 mm 0.00 in0.0 mm
01:28 PM 23.0°F-5.0°C 19.7°F-6.8°C 87% 4.6 mph N7.4 kmh N 5.8 mph9.3 kmh 28.39 in961.4 mb - 0.00 in0.0 mm 0.00 in0.0 mm
01:29 PM 23.0°F-5.0°C 19.7°F-6.8°C 87% 5.8 mph NNW9.3 kmh NNW 6.9 mph11.1 kmh 28.39 in961.4 mb - 0.00 in0.0 mm 0.00 in0.0 mm
01:30 PM 23.0°F-5.0°C 19.7°F-6.8°C 87% 6.9 mph N11.1 kmh N 8.1 mph13.0 kmh 28.39 in961.4 mb - 0.00 in0.0 mm 0.00 in0.0 mm
01:31 PM 23.0°F-5.0°C 19.7°F-6.8°C 87% 5.8 mph NE9.3 kmh NE 5.8 mph9.3 kmh 28.39 in961.4 mb - 0.00 in0.0 mm 0.00 in0.0 mm
01:32 PM 23.2°F-4.9°C 19.9°F-6.7°C 87% 3.5 mph NNE5.6 kmh NNE 6.9 mph11.1 kmh 28.39 in961.4 mb - 0.00 in0.0 mm 0.00 in0.0 mm
01:33 PM 23.2°F-4.9°C 19.9°F-6.7°C 87% 5.8 mph NNE9.3 kmh NNE 9.2 mph14.8 kmh 28.39 in961.4 mb - 0.00 in0.0 mm 0.00 in0.0 mm
01:34 PM 23.2°F-4.9°C 19.9°F-6.7°C 87% 8.1 mph NNE13.0 kmh NNE 10.4 mph16.7 kmh 28.39 in961.4 mb - 0.00 in0.0 mm 0.00 in0.0 mm
01:35 PM 23.2°F-4.9°C 19.9°F-6.7°C 87% 9.2 mph N14.8 kmh N 11.5 mph18.5 kmh 28.39 in961.4 mb - 0.00 in0.0 mm 0.00 in0.0 mm
01:36 PM 23.2°F-4.9°C 19.9°F-6.7°C 87% 9.2 mph NNE14.8 kmh NNE 11.5 mph18.5 kmh 28.39 in961.4 mb - 0.00 in0.0 mm 0.00 in0.0 mm
01:37 PM 23.2°F-4.9°C 19.9°F-6.7°C 87% 6.9 mph NE11.1 kmh NE 8.1 mph13.0 kmh 28.39 in961.4 mb - 0.00 in0.0 mm 0.00 in0.0 mm
01:38 PM 23.2°F-4.9°C 19.9°F-6.7°C 87% 4.6 mph N7.4 kmh N 6.9 mph11.1 kmh 28.39 in961.4 mb - 0.00 in0.0 mm 0.00 in0.0 mm
01:39 PM 23.2°F-4.9°C 19.9°F-6.7°C 87% 4.6 mph E7.4 kmh E 4.6 mph7.4 kmh 28.39 in961.4 mb - 0.00 in0.0 mm 0.00 in0.0 mm
01:40 PM 23.2°F-4.9°C 19.9°F-6.7°C 87% 4.6 mph NW7.4 kmh NW 6.9 mph11.1 kmh 28.39 in961.4 mb - 0.00 in0.0 mm 0.00 in0.0 mm
01:41 PM 23.2°F-4.9°C 19.9°F-6.7°C 87% 5.8 mph N9.3 kmh N 6.9 mph11.1 kmh 28.39 in961.4 mb - 0.00 in0.0 mm 0.00 in0.0 mm
01:42 PM 23.2°F-4.9°C 19.9°F-6.7°C 87% 5.8 mph NW9.3 kmh NW 10.4 mph16.7 kmh 28.39 in961.4 mb - 0.00 in0.0 mm 0.00 in0.0 mm
01:43 PM 23.2°F-4.9°C 19.9°F-6.7°C 87% 6.9 mph NW11.1 kmh NW 10.4 mph16.7 kmh 28.39 in961.4 mb - 0.00 in0.0 mm 0.00 in0.0 mm
01:44 PM 23.2°F-4.9°C 19.9°F-6.7°C 87% 5.8 mph NE9.3 kmh NE 5.8 mph9.3 kmh 28.39 in961.4 mb - 0.00 in0.0 mm 0.00 in0.0 mm
01:45 PM 23.4°F-4.8°C 20.1°F-6.6°C 87% 3.5 mph N5.6 kmh N 4.6 mph7.4 kmh 28.39 in961.4 mb - 0.00 in0.0 mm 0.00 in0.0 mm
01:46 PM 23.5°F-4.7°C 20.2°F-6.6°C 87% 3.5 mph N5.6 kmh N 4.6 mph7.4 kmh 28.39 in961.4 mb - 0.00 in0.0 mm 0.00 in0.0 mm
01:47 PM 23.5°F-4.7°C 20.2°F-6.6°C 87% 3.5 mph N5.6 kmh N 6.9 mph11.1 kmh 28.39 in961.4 mb - 0.00 in0.0 mm 0.00 in0.0 mm
01:48 PM 23.5°F-4.7°C 20.2°F-6.6°C 87% 4.6 mph WNW7.4 kmh WNW 10.4 mph16.7 kmh 28.39 in961.4 mb - 0.00 in0.0 mm 0.00 in0.0 mm
01:49 PM 23.5°F-4.7°C 20.2°F-6.6°C 87% 8.1 mph NW13.0 kmh NW 10.4 mph16.7 kmh 28.39 in961.4 mb - 0.00 in0.0 mm 0.00 in0.0 mm
01:50 PM 23.4°F-4.8°C 20.1°F-6.6°C 87% 6.9 mph N11.1 kmh N 8.1 mph13.0 kmh 28.39 in961.4 mb - 0.00 in0.0 mm 0.00 in0.0 mm
01:51 PM 23.4°F-4.8°C 20.1°F-6.6°C 87% 5.8 mph NNE9.3 kmh NNE 6.9 mph11.1 kmh 28.39 in961.4 mb - 0.00 in0.0 mm 0.00 in0.0 mm
01:52 PM 23.4°F-4.8°C 20.1°F-6.6°C 87% 5.8 mph NW9.3 kmh NW 8.1 mph13.0 kmh 28.39 in961.4 mb - 0.00 in0.0 mm 0.00 in0.0 mm
01:53 PM 23.4°F-4.8°C 20.1°F-6.6°C 87% 6.9 mph NW11.1 kmh NW 10.4 mph16.7 kmh 28.39 in961.4 mb - 0.00 in0.0 mm 0.00 in0.0 mm
01:54 PM 23.4°F-4.8°C 20.1°F-6.6°C 87% 6.9 mph W11.1 kmh W 6.9 mph11.1 kmh 28.39 in961.4 mb - 0.00 in0.0 mm 0.00 in0.0 mm
01:55 PM 23.4°F-4.8°C 20.1°F-6.6°C 87% 4.6 mph N7.4 kmh N 4.6 mph7.4 kmh 28.39 in961.4 mb - 0.00 in0.0 mm 0.00 in0.0 mm
01:56 PM 23.5°F-4.7°C 20.2°F-6.6°C 87% 3.5 mph NNE5.6 kmh NNE 4.6 mph7.4 kmh 28.39 in961.4 mb - 0.00 in0.0 mm 0.00 in0.0 mm
01:57 PM 23.6°F-4.7°C 20.3°F-6.5°C 87% 4.6 mph N7.4 kmh N 6.9 mph11.1 kmh 28.39 in961.4 mb - 0.00 in0.0 mm 0.00 in0.0 mm
01:58 PM 23.7°F-4.6°C 20.1°F-6.6°C 86% 5.8 mph NNW9.3 kmh NNW 8.1 mph13.0 kmh 28.39 in961.4 mb - 0.00 in0.0 mm 0.00 in0.0 mm
01:59 PM 23.7°F-4.6°C 20.1°F-6.6°C 86% 5.8 mph NNE9.3 kmh NNE 10.4 mph16.7 kmh 28.39 in961.4 mb - 0.00 in0.0 mm 0.00 in0.0 mm
02:00 PM 23.7°F-4.6°C 20.1°F-6.6°C 86% 8.1 mph N13.0 kmh N 10.4 mph16.7 kmh 28.39 in961.4 mb - 0.00 in0.0 mm 0.00 in0.0 mm
02:01 PM 23.7°F-4.6°C 20.1°F-6.6°C 86% 6.9 mph NNE11.1 kmh NNE 8.1 mph13.0 kmh 28.39 in961.4 mb - 0.00 in0.0 mm 0.00 in0.0 mm
02:02 PM 23.7°F-4.6°C 20.1°F-6.6°C 86% 5.8 mph NNW9.3 kmh NNW 8.1 mph13.0 kmh 28.39 in961.4 mb - 0.00 in0.0 mm 0.00 in0.0 mm
02:03 PM 23.7°F-4.6°C 20.1°F-6.6°C 86% 4.6 mph NE7.4 kmh NE 5.8 mph9.3 kmh 28.39 in961.4 mb - 0.00 in0.0 mm 0.00 in0.0 mm
02:04 PM 23.7°F-4.6°C 20.1°F-6.6°C 86% 3.5 mph NE5.6 kmh NE 12.7 mph20.4 kmh 28.39 in961.4 mb - 0.00 in0.0 mm 0.00 in0.0 mm
02:05 PM 23.7°F-4.6°C 20.1°F-6.6°C 86% 6.9 mph N11.1 kmh N 9.2 mph14.8 kmh 28.39 in961.4 mb - 0.00 in0.0 mm 0.00 in0.0 mm
02:06 PM 23.7°F-4.6°C 20.1°F-6.6°C 86% 3.5 mph N5.6 kmh N 4.6 mph7.4 kmh 28.39 in961.4 mb - 0.00 in0.0 mm 0.00 in0.0 mm
02:07 PM 23.7°F-4.6°C 20.1°F-6.6°C 86% 5.8 mph NNW9.3 kmh NNW 8.1 mph13.0 kmh 28.39 in961.4 mb - 0.00 in0.0 mm 0.00 in0.0 mm
02:08 PM 23.9°F-4.5°C 20.3°F-6.5°C 86% 5.8 mph NNW9.3 kmh NNW 4.6 mph7.4 kmh 28.39 in961.4 mb - 0.00 in0.0 mm 0.00 in0.0 mm
02:09 PM 23.9°F-4.5°C 20.3°F-6.5°C 86% 4.6 mph N7.4 kmh N 8.1 mph13.0 kmh 28.39 in961.4 mb - 0.00 in0.0 mm 0.00 in0.0 mm
02:10 PM 23.9°F-4.5°C 20.3°F-6.5°C 86% 6.9 mph N11.1 kmh N 8.1 mph13.0 kmh 28.39 in961.4 mb - 0.00 in0.0 mm 0.00 in0.0 mm
02:11 PM 23.9°F-4.5°C 20.3°F-6.5°C 86% 4.6 mph NW7.4 kmh NW 10.4 mph16.7 kmh 28.39 in961.4 mb - 0.00 in0.0 mm 0.00 in0.0 mm
02:12 PM 23.9°F-4.5°C 20.3°F-6.5°C 86% 8.1 mph N13.0 kmh N 10.4 mph16.7 kmh 28.39 in961.4 mb - 0.00 in0.0 mm 0.00 in0.0 mm
02:13 PM 23.9°F-4.5°C 20.0°F-6.7°C 85% 6.9 mph NNE11.1 kmh NNE 6.9 mph11.1 kmh 28.39 in961.4 mb - 0.00 in0.0 mm 0.00 in0.0 mm
02:14 PM 23.9°F-4.5°C 20.0°F-6.7°C 85% 4.6 mph NE7.4 kmh NE 5.8 mph9.3 kmh 28.39 in961.4 mb - 0.00 in0.0 mm 0.00 in0.0 mm
02:15 PM 23.9°F-4.5°C 20.0°F-6.7°C 85% 4.6 mph NW7.4 kmh NW 9.2 mph14.8 kmh 28.39 in961.4 mb - 0.00 in0.0 mm 0.00 in0.0 mm
02:16 PM 23.9°F-4.5°C 20.0°F-6.7°C 85% 6.9 mph N11.1 kmh N 9.2 mph14.8 kmh 28.39 in961.4 mb - 0.00 in0.0 mm 0.00 in0.0 mm
02:17 PM 23.9°F-4.5°C 20.0°F-6.7°C 85% 6.9 mph WNW11.1 kmh WNW 12.7 mph20.4 kmh 28.39 in961.4 mb - 0.00 in0.0 mm 0.00 in0.0 mm
02:18 PM 23.9°F-4.5°C 20.0°F-6.7°C 85% 6.9 mph NNW11.1 kmh NNW 6.9 mph11.1 kmh 28.39 in961.4 mb - 0.00 in0.0 mm 0.00 in0.0 mm
02:19 PM 24.0°F-4.4°C 20.1°F-6.6°C 85% 5.8 mph N9.3 kmh N 6.9 mph11.1 kmh 28.39 in961.4 mb - 0.00 in0.0 mm 0.00 in0.0 mm
02:20 PM 24.1°F-4.4°C 20.2°F-6.6°C 85% 4.6 mph N7.4 kmh N 5.8 mph9.3 kmh 28.39 in961.4 mb - 0.00 in0.0 mm 0.00 in0.0 mm
02:21 PM 24.1°F-4.4°C 20.2°F-6.6°C 85% 5.8 mph W9.3 kmh W 9.2 mph14.8 kmh 28.39 in961.4 mb - 0.00 in0.0 mm 0.00 in0.0 mm
02:22 PM 24.1°F-4.4°C 20.2°F-6.6°C 85% 8.1 mph NNE13.0 kmh NNE 12.7 mph20.4 kmh 28.39 in961.4 mb - 0.00 in0.0 mm 0.00 in0.0 mm
02:23 PM 24.1°F-4.4°C 20.2°F-6.6°C 85% 9.2 mph NE14.8 kmh NE 12.7 mph20.4 kmh 28.39 in961.4 mb - 0.00 in0.0 mm 0.00 in0.0 mm
02:24 PM 24.1°F-4.4°C 20.2°F-6.6°C 85% 6.9 mph NE11.1 kmh NE 6.9 mph11.1 kmh 28.39 in961.4 mb - 0.00 in0.0 mm 0.00 in0.0 mm
02:25 PM 24.1°F-4.4°C 20.2°F-6.6°C 85% 5.8 mph N9.3 kmh N 9.2 mph14.8 kmh 28.39 in961.4 mb - 0.00 in0.0 mm 0.00 in0.0 mm
02:26 PM 24.1°F-4.4°C 20.2°F-6.6°C 85% 5.8 mph WNW9.3 kmh WNW 8.1 mph13.0 kmh 28.39 in961.4 mb - 0.00 in0.0 mm 0.00 in0.0 mm
02:27 PM 24.1°F-4.4°C 20.2°F-6.6°C 85% 4.6 mph WNW7.4 kmh WNW 8.1 mph13.0 kmh 28.39 in961.4 mb - 0.00 in0.0 mm 0.00 in0.0 mm
02:28 PM 24.1°F-4.4°C 20.2°F-6.6°C 85% 5.8 mph N9.3 kmh N 6.9 mph11.1 kmh 28.39 in961.4 mb - 0.00 in0.0 mm 0.00 in0.0 mm
02:29 PM 24.1°F-4.4°C 20.2°F-6.6°C 85% 5.8 mph NW9.3 kmh NW 10.4 mph16.7 kmh 28.39 in961.4 mb - 0.00 in0.0 mm 0.00 in0.0 mm
02:30 PM 24.1°F-4.4°C 20.2°F-6.6°C 85% 6.9 mph W11.1 kmh W 10.4 mph16.7 kmh 28.39 in961.4 mb - 0.00 in0.0 mm 0.00 in0.0 mm
02:31 PM 24.1°F-4.4°C 20.2°F-6.6°C 85% 5.8 mph N9.3 kmh N 6.9 mph11.1 kmh 28.39 in961.4 mb - 0.00 in0.0 mm 0.00 in0.0 mm
02:32 PM 24.1°F-4.4°C 20.2°F-6.6°C 85% 5.8 mph N9.3 kmh N 9.2 mph14.8 kmh 28.39 in961.4 mb - 0.00 in0.0 mm 0.00 in0.0 mm
02:33 PM 24.1°F-4.4°C 20.0°F-6.7°C 84% 9.2 mph ENE14.8 kmh ENE 11.5 mph18.5 kmh 28.39 in961.4 mb - 0.00 in0.0 mm 0.00 in0.0 mm
02:34 PM 24.1°F-4.4°C 20.0°F-6.7°C 84% 8.1 mph NNE13.0 kmh NNE 5.8 mph9.3 kmh 28.39 in961.4 mb - 0.00 in0.0 mm 0.00 in0.0 mm
02:35 PM 24.2°F-4.3°C 20.3°F-6.5°C 85% 4.6 mph NNE7.4 kmh NNE 5.8 mph9.3 kmh 28.39 in961.4 mb - 0.00 in0.0 mm 0.00 in0.0 mm
02:36 PM 24.3°F-4.3°C 20.4°F-6.4°C 85% 4.6 mph N7.4 kmh N 9.2 mph14.8 kmh 28.39 in961.4 mb - 0.00 in0.0 mm 0.00 in0.0 mm
02:37 PM 24.3°F-4.3°C 20.2°F-6.6°C 84% 8.1 mph N13.0 kmh N 11.5 mph18.5 kmh 28.39 in961.4 mb - 0.00 in0.0 mm 0.00 in0.0 mm
02:38 PM 24.3°F-4.3°C 19.9°F-6.7°C 83% 8.1 mph WNW13.0 kmh WNW 8.1 mph13.0 kmh 28.39 in961.4 mb - 0.00 in0.0 mm 0.00 in0.0 mm
02:39 PM 24.1°F-4.4°C 19.7°F-6.8°C 83% 5.8 mph NNW9.3 kmh NNW 5.8 mph9.3 kmh 28.39 in961.4 mb - 0.00 in0.0 mm 0.00 in0.0 mm
02:40 PM 24.1°F-4.4°C 19.7°F-6.8°C 83% 6.9 mph WNW11.1 kmh WNW 8.1 mph13.0 kmh 28.39 in961.4 mb - 0.00 in0.0 mm 0.00 in0.0 mm
02:41 PM 24.1°F-4.4°C 19.7°F-6.8°C 83% 6.9 mph NW11.1 kmh NW 10.4 mph16.7 kmh 28.39 in961.4 mb - 0.00 in0.0 mm 0.00 in0.0 mm
02:42 PM 24.1°F-4.4°C 19.7°F-6.8°C 83% 8.1 mph E13.0 kmh E 6.9 mph11.1 kmh 28.39 in961.4 mb - 0.00 in0.0 mm 0.00 in0.0 mm
02:43 PM 24.1°F-4.4°C 19.7°F-6.8°C 83% 4.6 mph NNW7.4 kmh NNW 6.9 mph11.1 kmh 28.39 in961.4 mb - 0.00 in0.0 mm 0.00 in0.0 mm
02:44 PM 24.1°F-4.4°C 19.7°F-6.8°C 83% 6.9 mph N11.1 kmh N 10.4 mph16.7 kmh 28.39 in961.4 mb - 0.00 in0.0 mm 0.00 in0.0 mm
02:45 PM 24.1°F-4.4°C 19.7°F-6.8°C 83% 5.8 mph N9.3 kmh N 5.8 mph9.3 kmh 28.39 in961.4 mb - 0.00 in0.0 mm 0.00 in0.0 mm
02:46 PM 24.3°F-4.3°C 19.9°F-6.7°C 83% 5.8 mph NNW9.3 kmh NNW 6.9 mph11.1 kmh 28.39 in961.4 mb - 0.00 in0.0 mm 0.00 in0.0 mm
02:47 PM 24.3°F-4.3°C 19.9°F-6.7°C 83% 8.1 mph ESE13.0 kmh ESE 9.2 mph14.8 kmh 28.39 in961.4 mb - 0.00 in0.0 mm 0.00 in0.0 mm
02:48 PM 24.3°F-4.3°C 19.9°F-6.7°C 83% 6.9 mph NW11.1 kmh NW 6.9 mph11.1 kmh 28.39 in961.4 mb - 0.00 in0.0 mm 0.00 in0.0 mm
02:49 PM 24.3°F-4.3°C 19.9°F-6.7°C 83% 6.9 mph NNW11.1 kmh NNW 9.2 mph14.8 kmh 28.39 in961.4 mb - 0.00 in0.0 mm 0.00 in0.0 mm
02:50 PM 24.3°F-4.3°C 19.8°F-6.8°C 83% 9.2 mph NW14.8 kmh NW 11.5 mph18.5 kmh 28.39 in961.4 mb - 0.00 in0.0 mm 0.00 in0.0 mm
02:51 PM 24.1°F-4.4°C 19.7°F-6.8°C 83% 6.9 mph NW11.1 kmh NW 5.8 mph9.3 kmh 28.39 in961.4 mb - 0.00 in0.0 mm 0.00 in0.0 mm
02:52 PM 24.1°F-4.4°C 19.7°F-6.8°C 83% 5.8 mph N9.3 kmh N 5.8 mph9.3 kmh 28.39 in961.4 mb - 0.00 in0.0 mm 0.00 in0.0 mm
02:53 PM 24.1°F-4.4°C 19.7°F-6.8°C 83% 5.8 mph NW9.3 kmh NW 9.2 mph14.8 kmh 28.39 in961.4 mb - 0.00 in0.0 mm 0.00 in0.0 mm
02:54 PM 24.3°F-4.3°C 19.9°F-6.7°C 83% 6.9 mph WNW11.1 kmh WNW 6.9 mph11.1 kmh 28.39 in961.4 mb - 0.00 in0.0 mm 0.00 in0.0 mm
02:55 PM 24.3°F-4.3°C 19.9°F-6.7°C 83% 6.9 mph NNE11.1 kmh NNE 9.2 mph14.8 kmh 28.39 in961.4 mb - 0.00 in0.0 mm 0.00 in0.0 mm
02:56 PM 24.3°F-4.3°C 19.9°F-6.7°C 83% 8.1 mph NW13.0 kmh NW 10.4 mph16.7 kmh 28.39 in961.4 mb - 0.00 in0.0 mm 0.00 in0.0 mm
02:57 PM 24.3°F-4.3°C 19.9°F-6.7°C 83% 6.9 mph N11.1 kmh N 5.8 mph9.3 kmh 28.39 in961.4 mb - 0.00 in0.0 mm 0.00 in0.0 mm
02:58 PM 24.3°F-4.3°C 19.9°F-6.7°C 83% 4.6 mph N7.4 kmh N 6.9 mph11.1 kmh 28.39 in961.4 mb - 0.00 in0.0 mm 0.00 in0.0 mm
02:59 PM 24.3°F-4.3°C 19.9°F-6.7°C 83% 5.8 mph N9.3 kmh N 6.9 mph11.1 kmh 28.39 in961.4 mb - 0.00 in0.0 mm 0.00 in0.0 mm
03:00 PM 24.3°F-4.3°C 19.9°F-6.7°C 83% 6.9 mph N11.1 kmh N 8.1 mph13.0 kmh 28.39 in961.4 mb - 0.00 in0.0 mm 0.00 in0.0 mm
03:01 PM 24.4°F-4.2°C 20.0°F-6.7°C 83% 8.1 mph N13.0 kmh N 10.4 mph16.7 kmh 28.40 in961.7 mb - 0.00 in0.0 mm 0.00 in0.0 mm
03:02 PM 24.4°F-4.2°C 20.0°F-6.7°C 83% 8.1 mph NW13.0 kmh NW 8.1 mph13.0 kmh 28.40 in961.7 mb - 0.00 in0.0 mm 0.00 in0.0 mm
03:03 PM 24.4°F-4.2°C 20.0°F-6.7°C 83% 8.1 mph N13.0 kmh N 11.5 mph18.5 kmh 28.40 in961.7 mb - 0.00 in0.0 mm 0.00 in0.0 mm
03:04 PM 24.4°F-4.2°C 20.0°F-6.7°C 83% 6.9 mph NW11.1 kmh NW 9.2 mph14.8 kmh 28.40 in961.7 mb - 0.00 in0.0 mm 0.00 in0.0 mm
03:05 PM 24.4°F-4.2°C 20.0°F-6.7°C 83% 6.9 mph NW11.1 kmh NW 9.2 mph14.8 kmh 28.40 in961.7 mb - 0.00 in0.0 mm 0.00 in0.0 mm
03:06 PM 24.4°F-4.2°C 20.0°F-6.7°C 83% 8.1 mph N13.0 kmh N 9.2 mph14.8 kmh 28.40 in961.7 mb - 0.00 in0.0 mm 0.00 in0.0 mm
03:07 PM 24.4°F-4.2°C 19.9°F-6.7°C 83% 8.1 mph SSE13.0 kmh SSE 9.2 mph14.8 kmh 28.40 in961.7 mb - 0.00 in0.0 mm 0.00 in0.0 mm
03:08 PM 24.3°F-4.3°C 19.9°F-6.7°C 83% 6.9 mph NW11.1 kmh NW 8.1 mph13.0 kmh 28.40 in961.7 mb - 0.00 in0.0 mm 0.00 in0.0 mm
03:09 PM 24.3°F-4.3°C 19.9°F-6.7°C 83% 4.6 mph N7.4 kmh N 5.8 mph9.3 kmh 28.40 in961.7 mb - 0.00 in0.0 mm 0.00 in0.0 mm
03:10 PM 24.3°F-4.3°C 19.9°F-6.7°C 83% 4.6 mph NNE7.4 kmh NNE 6.9 mph11.1 kmh 28.40 in961.7 mb - 0.00 in0.0 mm 0.00 in0.0 mm
03:11 PM 24.3°F-4.3°C 19.6°F-6.9°C 82% 6.9 mph NW11.1 kmh NW 9.2 mph14.8 kmh 28.40 in961.7 mb - 0.00 in0.0 mm 0.00 in0.0 mm
03:12 PM 24.3°F-4.3°C 19.6°F-6.9°C 82% 6.9 mph NNE11.1 kmh NNE 10.4 mph16.7 kmh 28.40 in961.7 mb - 0.00 in0.0 mm 0.00 in0.0 mm
03:13 PM 24.2°F-4.3°C 19.5°F-6.9°C 82% 8.1 mph NNE13.0 kmh NNE 10.4 mph16.7 kmh 28.41 in962.1 mb - 0.00 in0.0 mm 0.00 in0.0 mm
03:14 PM 24.1°F-4.4°C 19.4°F-7.0°C 82% 9.2 mph N14.8 kmh N 9.2 mph14.8 kmh 28.41 in962.1 mb - 0.00 in0.0 mm 0.00 in0.0 mm
03:15 PM 24.1°F-4.4°C 19.4°F-7.0°C 82% 6.9 mph NW11.1 kmh NW 9.2 mph14.8 kmh 28.41 in962.1 mb - 0.00 in0.0 mm 0.00 in0.0 mm
03:16 PM 24.1°F-4.4°C 19.4°F-7.0°C 82% 5.8 mph N9.3 kmh N 9.2 mph14.8 kmh 28.41 in962.1 mb - 0.00 in0.0 mm 0.00 in0.0 mm
03:17 PM 24.1°F-4.4°C 19.4°F-7.0°C 82% 9.2 mph NNE14.8 kmh NNE 11.5 mph18.5 kmh 28.41 in962.1 mb - 0.00 in0.0 mm 0.00 in0.0 mm
03:18 PM 24.1°F-4.4°C 19.4°F-7.0°C 82% 6.9 mph NE11.1 kmh NE 9.2 mph14.8 kmh 28.41 in962.1 mb - 0.00 in0.0 mm 0.00 in0.0 mm
03:19 PM 24.1°F-4.4°C 19.7°F-6.8°C 83% 8.1 mph N13.0 kmh N 8.1 mph13.0 kmh 28.41 in962.1 mb - 0.00 in0.0 mm 0.00 in0.0 mm
03:20 PM 24.1°F-4.4°C 19.7°F-6.8°C 83% 8.1 mph NW13.0 kmh NW 10.4 mph16.7 kmh 28.41 in962.1 mb - 0.00 in0.0 mm 0.00 in0.0 mm
03:21 PM 24.0°F-4.4°C 19.6°F-6.9°C 83% 6.9 mph N11.1 kmh N 9.2 mph14.8 kmh 28.41 in962.1 mb - 0.00 in0.0 mm 0.00 in0.0 mm
03:22 PM 23.9°F-4.5°C 19.5°F-6.9°C 83% 8.1 mph NE13.0 kmh NE 9.2 mph14.8 kmh 28.41 in962.1 mb - 0.00 in0.0 mm 0.00 in0.0 mm
03:23 PM 24.0°F-4.4°C 19.6°F-6.9°C 83% 5.8 mph NNE9.3 kmh NNE 6.9 mph11.1 kmh 28.41 in962.1 mb - 0.00 in0.0 mm 0.00 in0.0 mm
03:24 PM 24.1°F-4.4°C 19.7°F-6.8°C 83% 5.8 mph NNE9.3 kmh NNE 6.9 mph11.1 kmh 28.41 in962.1 mb - 0.00 in0.0 mm 0.00 in0.0 mm
03:25 PM 24.1°F-4.4°C 19.7°F-6.8°C 83% 6.9 mph NE11.1 kmh NE 8.1 mph13.0 kmh 28.41 in962.1 mb - 0.00 in0.0 mm 0.00 in0.0 mm
03:26 PM 24.1°F-4.4°C 19.7°F-6.8°C 83% 6.9 mph NW11.1 kmh NW 12.7 mph20.4 kmh 28.41 in962.1 mb - 0.00 in0.0 mm 0.00 in0.0 mm
03:27 PM 24.1°F-4.4°C 19.4°F-7.0°C 82% 8.1 mph NW13.0 kmh NW 8.1 mph13.0 kmh 28.41 in962.1 mb - 0.00 in0.0 mm 0.00 in0.0 mm
03:28 PM 24.1°F-4.4°C 19.4°F-7.0°C 82% 5.8 mph N9.3 kmh N 8.1 mph13.0 kmh 28.41 in962.1 mb - 0.00 in0.0 mm 0.00 in0.0 mm
03:29 PM 24.1°F-4.4°C 19.4°F-7.0°C 82% 5.8 mph NE9.3 kmh NE 5.8 mph9.3 kmh 28.41 in962.1 mb - 0.00 in0.0 mm 0.00 in0.0 mm
03:30 PM 24.1°F-4.4°C 19.4°F-7.0°C 82% 4.6 mph NNE7.4 kmh NNE 6.9 mph11.1 kmh 28.41 in962.1 mb - 0.00 in0.0 mm 0.00 in0.0 mm
03:31 PM 24.1°F-4.4°C 19.4°F-7.0°C 82% 5.8 mph NNW9.3 kmh NNW 6.9 mph11.1 kmh 28.41 in962.1 mb - 0.00 in0.0 mm 0.00 in0.0 mm
03:32 PM 24.1°F-4.4°C 19.4°F-7.0°C 82% 4.6 mph NE7.4 kmh NE 10.4 mph16.7 kmh 28.41 in962.1 mb - 0.00 in0.0 mm 0.00 in0.0 mm
03:33 PM 24.1°F-4.4°C 19.7°F-6.8°C 83% 6.9 mph N11.1 kmh N 10.4 mph16.7 kmh 28.41 in962.1 mb - 0.00 in0.0 mm 0.00 in0.0 mm
03:34 PM 24.1°F-4.4°C 19.7°F-6.8°C 83% 4.6 mph N7.4 kmh N 5.8 mph9.3 kmh 28.41 in962.1 mb - 0.00 in0.0 mm 0.00 in0.0 mm
03:35 PM 24.1°F-4.4°C 19.7°F-6.8°C 83% 5.8 mph NW9.3 kmh NW 6.9 mph11.1 kmh 28.41 in962.1 mb - 0.00 in0.0 mm 0.00 in0.0 mm
03:36 PM 24.1°F-4.4°C 19.7°F-6.8°C 83% 5.8 mph E9.3 kmh E 12.7 mph20.4 kmh 28.41 in962.1 mb - 0.00 in0.0 mm 0.00 in0.0 mm
03:37 PM 24.1°F-4.4°C 19.7°F-6.8°C 83% 9.2 mph NNW14.8 kmh NNW 16.1 mph25.9 kmh 28.41 in962.1 mb - 0.00 in0.0 mm 0.00 in0.0 mm
03:38 PM 24.1°F-4.4°C 19.7°F-6.8°C 83% 6.9 mph NNE11.1 kmh NNE 6.9 mph11.1 kmh 28.41 in962.1 mb - 0.00 in0.0 mm 0.00 in0.0 mm
03:39 PM 24.1°F-4.4°C 19.7°F-6.8°C 83% 5.8 mph N9.3 kmh N 6.9 mph11.1 kmh 28.41 in962.1 mb - 0.00 in0.0 mm 0.00 in0.0 mm
03:40 PM 24.1°F-4.4°C 19.7°F-6.8°C 83% 5.8 mph N9.3 kmh N 5.8 mph9.3 kmh 28.41 in962.1 mb - 0.00 in0.0 mm 0.00 in0.0 mm
03:41 PM 24.1°F-4.4°C 19.7°F-6.8°C 83% 5.8 mph NW9.3 kmh NW 9.2 mph14.8 kmh 28.41 in962.1 mb - 0.00 in0.0 mm 0.00 in0.0 mm
03:42 PM 24.0°F-4.4°C 19.6°F-6.9°C 83% 6.9 mph NW11.1 kmh NW 9.2 mph14.8 kmh 28.41 in962.1 mb - 0.00 in0.0 mm 0.00 in0.0 mm
03:43 PM 23.9°F-4.5°C 19.5°F-6.9°C 83% 5.8 mph NW9.3 kmh NW 6.9 mph11.1 kmh 28.41 in962.1 mb - 0.00 in0.0 mm 0.00 in0.0 mm
03:44 PM 23.9°F-4.5°C 19.5°F-6.9°C 83% 6.9 mph NNW11.1 kmh NNW 6.9 mph11.1 kmh 28.41 in962.1 mb - 0.00 in0.0 mm 0.00 in0.0 mm
03:45 PM 23.9°F-4.5°C 19.5°F-6.9°C 83% 5.8 mph NW9.3 kmh NW 10.4 mph16.7 kmh 28.41 in962.1 mb - 0.00 in0.0 mm 0.00 in0.0 mm
03:46 PM 23.9°F-4.5°C 19.5°F-6.9°C 83% 8.1 mph N13.0 kmh N 8.1 mph13.0 kmh 28.41 in962.1 mb - 0.00 in0.0 mm 0.00 in0.0 mm
03:47 PM 23.9°F-4.5°C 19.5°F-6.9°C 83% 4.6 mph ENE7.4 kmh ENE 9.2 mph14.8 kmh 28.41 in962.1 mb - 0.00 in0.0 mm 0.00 in0.0 mm
03:48 PM 23.7°F-4.6°C 19.6°F-6.9°C 84% 9.2 mph W14.8 kmh W 13.8 mph22.2 kmh 28.41 in962.1 mb - 0.00 in0.0 mm 0.00 in0.0 mm
03:49 PM 23.7°F-4.6°C 19.6°F-6.9°C 84% 10.4 mph NNW16.7 kmh NNW 10.4 mph16.7 kmh 28.41 in962.1 mb - 0.00 in0.0 mm 0.00 in0.0 mm
03:50 PM 23.7°F-4.6°C 19.6°F-6.9°C 84% 5.8 mph N9.3 kmh N 5.8 mph9.3 kmh 28.41 in962.1 mb - 0.00 in0.0 mm 0.00 in0.0 mm
03:51 PM 23.7°F-4.6°C 19.6°F-6.9°C 84% 4.6 mph NE7.4 kmh NE 5.8 mph9.3 kmh 28.41 in962.1 mb - 0.00 in0.0 mm 0.00 in0.0 mm
03:52 PM 23.7°F-4.6°C 19.6°F-6.9°C 84% 5.8 mph WSW9.3 kmh WSW 15.0 mph24.1 kmh 28.41 in962.1 mb - 0.00 in0.0 mm 0.00 in0.0 mm
03:53 PM 23.5°F-4.7°C 19.4°F-7.0°C 84% 10.4 mph NW16.7 kmh NW 15.0 mph24.1 kmh 28.41 in962.1 mb - 0.00 in0.0 mm 0.00 in0.0 mm
03:54 PM 23.5°F-4.7°C 19.4°F-7.0°C 84% 8.1 mph N13.0 kmh N 10.4 mph16.7 kmh 28.41 in962.1 mb - 0.00 in0.0 mm 0.00 in0.0 mm
03:55 PM 23.5°F-4.7°C 19.4°F-7.0°C 84% 8.1 mph N13.0 kmh N 11.5 mph18.5 kmh 28.41 in962.1 mb - 0.00 in0.0 mm 0.00 in0.0 mm
03:56 PM 23.4°F-4.8°C 19.3°F-7.1°C 84% 9.2 mph N14.8 kmh N 11.5 mph18.5 kmh 28.41 in962.1 mb - 0.00 in0.0 mm 0.00 in0.0 mm
03:57 PM 23.4°F-4.8°C 19.3°F-7.1°C 84% 8.1 mph N13.0 kmh N 9.2 mph14.8 kmh 28.41 in962.1 mb - 0.00 in0.0 mm 0.00 in0.0 mm
03:58 PM 23.4°F-4.8°C 19.3°F-7.1°C 84% 6.9 mph W11.1 kmh W 9.2 mph14.8 kmh 28.41 in962.1 mb - 0.00 in0.0 mm 0.00 in0.0 mm
03:59 PM 23.4°F-4.8°C 19.3°F-7.1°C 84% 5.8 mph NNE9.3 kmh NNE 9.2 mph14.8 kmh 28.41 in962.1 mb - 0.00 in0.0 mm 0.00 in0.0 mm
04:00 PM 23.4°F-4.8°C 19.3°F-7.1°C 84% 6.9 mph N11.1 kmh N 16.1 mph25.9 kmh 28.41 in962.1 mb - 0.00 in0.0 mm 0.00 in0.0 mm
04:01 PM 23.4°F-4.8°C 19.3°F-7.1°C 84% 8.1 mph NNE13.0 kmh NNE 8.1 mph13.0 kmh 28.41 in962.1 mb - 0.00 in0.0 mm 0.00 in0.0 mm
04:02 PM 23.4°F-4.8°C 19.3°F-7.1°C 84% 4.6 mph WNW7.4 kmh WNW 5.8 mph9.3 kmh 28.41 in962.1 mb - 0.00 in0.0 mm 0.00 in0.0 mm
04:03 PM 23.4°F-4.8°C 19.3°F-7.1°C 84% 5.8 mph NNW9.3 kmh NNW 8.1 mph13.0 kmh 28.41 in962.1 mb - 0.00 in0.0 mm 0.00 in0.0 mm
04:04 PM 23.4°F-4.8°C 19.3°F-7.1°C 84% 6.9 mph N11.1 kmh N 8.1 mph13.0 kmh 28.41 in962.1 mb - 0.00 in0.0 mm 0.00 in0.0 mm
04:05 PM 23.4°F-4.8°C 19.3°F-7.1°C 84% 5.8 mph NNW9.3 kmh NNW 15.0 mph24.1 kmh 28.41 in962.1 mb - 0.00 in0.0 mm 0.00 in0.0 mm
04:06 PM 23.4°F-4.8°C 19.3°F-7.1°C 84% 6.9 mph NNE11.1 kmh NNE 6.9 mph11.1 kmh 28.41 in962.1 mb - 0.00 in0.0 mm 0.00 in0.0 mm
04:07 PM 23.4°F-4.8°C 19.3°F-7.1°C 84% 5.8 mph N9.3 kmh N 6.9 mph11.1 kmh 28.41 in962.1 mb - 0.00 in0.0 mm 0.00 in0.0 mm
04:08 PM 23.4°F-4.8°C 19.3°F-7.1°C 84% 4.6 mph N7.4 kmh N 10.4 mph16.7 kmh 28.41 in962.1 mb - 0.00 in0.0 mm 0.00 in0.0 mm
04:09 PM 23.4°F-4.8°C 19.3°F-7.1°C 84% 6.9 mph NNW11.1 kmh NNW 10.4 mph16.7 kmh 28.41 in962.1 mb - 0.00 in0.0 mm 0.00 in0.0 mm
04:10 PM 23.4°F-4.8°C 19.3°F-7.1°C 84% 6.9 mph NNW11.1 kmh NNW 6.9 mph11.1 kmh 28.41 in962.1 mb - 0.00 in0.0 mm 0.00 in0.0 mm
04:11 PM 23.4°F-4.8°C 19.3°F-7.1°C 84% 4.6 mph WNW7.4 kmh WNW 5.8 mph9.3 kmh 28.41 in962.1 mb - 0.00 in0.0 mm 0.00 in0.0 mm
04:12 PM 23.4°F-4.8°C 19.3°F-7.1°C 84% 6.9 mph NNW11.1 kmh NNW 10.4 mph16.7 kmh 28.41 in962.1 mb - 0.00 in0.0 mm 0.00 in0.0 mm
04:13 PM 23.4°F-4.8°C 19.3°F-7.1°C 84% 8.1 mph NNE13.0 kmh NNE 6.9 mph11.1 kmh 28.41 in962.1 mb - 0.00 in0.0 mm 0.00 in0.0 mm
04:14 PM 23.4°F-4.8°C 19.3°F-7.1°C 84% 6.9 mph N11.1 kmh N 8.1 mph13.0 kmh 28.42 in962.4 mb - 0.00 in0.0 mm 0.00 in0.0 mm
04:15 PM 23.4°F-4.8°C 19.3°F-7.1°C 84% 8.1 mph N13.0 kmh N 8.1 mph13.0 kmh 28.42 in962.4 mb - 0.00 in0.0 mm 0.00 in0.0 mm
04:16 PM 23.2°F-4.9°C 19.1°F-7.2°C 84% 5.8 mph NNE9.3 kmh NNE 5.8 mph9.3 kmh 28.42 in962.4 mb - 0.00 in0.0 mm 0.00 in0.0 mm
04:17 PM 23.2°F-4.9°C 19.1°F-7.2°C 84% 4.6 mph NNW7.4 kmh NNW 5.8 mph9.3 kmh 28.42 in962.4 mb - 0.00 in0.0 mm 0.00 in0.0 mm
04:18 PM 23.2°F-4.9°C 19.1°F-7.2°C 84% 4.6 mph N7.4 kmh N 4.6 mph7.4 kmh 28.42 in962.4 mb - 0.00 in0.0 mm 0.00 in0.0 mm
04:19 PM 23.3°F-4.8°C 19.2°F-7.1°C 84% 4.6 mph N7.4 kmh N 4.6 mph7.4 kmh 28.42 in962.4 mb - 0.00 in0.0 mm 0.00 in0.0 mm
04:20 PM 23.4°F-4.8°C 19.3°F-7.1°C 84% 4.6 mph WNW7.4 kmh WNW 4.6 mph7.4 kmh 28.42 in962.4 mb - 0.00 in0.0 mm 0.00 in0.0 mm
04:21 PM 23.4°F-4.8°C 19.3°F-7.1°C 84% 3.5 mph N5.6 kmh N 4.6 mph7.4 kmh 28.42 in962.4 mb - 0.00 in0.0 mm 0.00 in0.0 mm
04:22 PM 23.4°F-4.8°C 19.3°F-7.1°C 84% 3.5 mph N5.6 kmh N 5.8 mph9.3 kmh 28.42 in962.4 mb - 0.00 in0.0 mm 0.00 in0.0 mm
04:23 PM 23.4°F-4.8°C 19.3°F-7.1°C 84% 4.6 mph NNW7.4 kmh NNW 5.8 mph9.3 kmh 28.42 in962.4 mb - 0.00 in0.0 mm 0.00 in0.0 mm
04:24 PM 23.4°F-4.8°C 19.3°F-7.1°C 84% 6.9 mph W11.1 kmh W 6.9 mph11.1 kmh 28.42 in962.4 mb - 0.00 in0.0 mm 0.00 in0.0 mm
04:25 PM 23.4°F-4.8°C 19.3°F-7.1°C 84% 5.8 mph N9.3 kmh N 6.9 mph11.1 kmh 28.42 in962.4 mb - 0.00 in0.0 mm 0.00 in0.0 mm
04:26 PM 23.4°F-4.8°C 19.3°F-7.1°C 84% 5.8 mph NE9.3 kmh NE 6.9 mph11.1 kmh 28.42 in962.4 mb - 0.00 in0.0 mm 0.00 in0.0 mm
04:27 PM 23.4°F-4.8°C 19.3°F-7.1°C 84% 4.6 mph NE7.4 kmh NE 5.8 mph9.3 kmh 28.42 in962.4 mb - 0.00 in0.0 mm 0.00 in0.0 mm
04:28 PM 23.4°F-4.8°C 19.3°F-7.1°C 84% 5.8 mph NNE9.3 kmh NNE 6.9 mph11.1 kmh 28.42 in962.4 mb - 0.00 in0.0 mm 0.00 in0.0 mm
04:29 PM 23.4°F-4.8°C 19.3°F-7.1°C 84% 6.9 mph NNE11.1 kmh NNE 8.1 mph13.0 kmh 28.42 in962.4 mb - 0.00 in0.0 mm 0.00 in0.0 mm
04:30 PM 23.4°F-4.8°C 19.3°F-7.1°C 84% 5.8 mph N9.3 kmh N 6.9 mph11.1 kmh 28.42 in962.4 mb - 0.00 in0.0 mm 0.00 in0.0 mm
04:31 PM 23.4°F-4.8°C 19.3°F-7.1°C 84% 3.5 mph N5.6 kmh N 5.8 mph9.3 kmh 28.42 in962.4 mb - 0.00 in0.0 mm 0.00 in0.0 mm
04:32 PM 23.4°F-4.8°C 19.3°F-7.1°C 84% 4.6 mph NNW7.4 kmh NNW 4.6 mph7.4 kmh 28.42 in962.4 mb - 0.00 in0.0 mm 0.00 in0.0 mm
04:33 PM 23.4°F-4.8°C 19.3°F-7.1°C 84% 3.5 mph N5.6 kmh N 4.6 mph7.4 kmh 28.42 in962.4 mb - 0.00 in0.0 mm 0.00 in0.0 mm
04:34 PM 23.4°F-4.8°C 19.3°F-7.1°C 84% 4.6 mph NW7.4 kmh NW 5.8 mph9.3 kmh 28.42 in962.4 mb - 0.00 in0.0 mm 0.00 in0.0 mm
04:35 PM 23.4°F-4.8°C 19.3°F-7.1°C 84% 5.8 mph NW9.3 kmh NW 8.1 mph13.0 kmh 28.42 in962.4 mb - 0.00 in0.0 mm 0.00 in0.0 mm
04:36 PM 23.4°F-4.8°C 19.3°F-7.1°C 84% 6.9 mph N11.1 kmh N 8.1 mph13.0 kmh 28.42 in962.4 mb - 0.00 in0.0 mm 0.00 in0.0 mm
04:37 PM 23.4°F-4.8°C 19.3°F-7.1°C 84% 5.8 mph NNW9.3 kmh NNW 4.6 mph7.4 kmh 28.42 in962.4 mb - 0.00 in0.0 mm 0.00 in0.0 mm
04:38 PM 23.4°F-4.8°C 19.3°F-7.1°C 84% 4.6 mph WNW7.4 kmh WNW 10.4 mph16.7 kmh 28.42 in962.4 mb - 0.00 in0.0 mm 0.00 in0.0 mm
04:39 PM 23.4°F-4.8°C 19.3°F-7.1°C 84% 5.8 mph E9.3 kmh E 5.8 mph9.3 kmh 28.42 in962.4 mb - 0.00 in0.0 mm 0.00 in0.0 mm
04:40 PM 23.4°F-4.8°C 19.3°F-7.1°C 84% 3.5 mph NNE5.6 kmh NNE 5.8 mph9.3 kmh 28.42 in962.4 mb - 0.00 in0.0 mm 0.00 in0.0 mm
04:41 PM 23.4°F-4.8°C 19.3°F-7.1°C 84% 4.6 mph NNE7.4 kmh NNE 5.8 mph9.3 kmh 28.42 in962.4 mb - 0.00 in0.0 mm 0.00 in0.0 mm
04:42 PM 23.4°F-4.8°C 19.3°F-7.1°C 84% 4.6 mph N7.4 kmh N 5.8 mph9.3 kmh 28.42 in962.4 mb - 0.00 in0.0 mm 0.00 in0.0 mm
04:43 PM 23.4°F-4.8°C 19.3°F-7.1°C 84% 5.8 mph NE9.3 kmh NE 6.9 mph11.1 kmh 28.42 in962.4 mb - 0.00 in0.0 mm 0.00 in0.0 mm
04:44 PM 23.4°F-4.8°C 19.3°F-7.1°C 84% 4.6 mph NE7.4 kmh NE 5.8 mph9.3 kmh 28.42 in962.4 mb - 0.00 in0.0 mm 0.00 in0.0 mm
04:45 PM 23.4°F-4.8°C 19.3°F-7.1°C 84% 3.5 mph NNE5.6 kmh NNE 5.8 mph9.3 kmh 28.42 in962.4 mb - 0.00 in0.0 mm 0.00 in0.0 mm
04:46 PM 23.4°F-4.8°C 19.3°F-7.1°C 84% 4.6 mph NNW7.4 kmh NNW 6.9 mph11.1 kmh 28.42 in962.4 mb - 0.00 in0.0 mm 0.00 in0.0 mm
04:47 PM 23.4°F-4.8°C 19.3°F-7.1°C 84% 4.6 mph NNW7.4 kmh NNW 6.9 mph11.1 kmh 28.42 in962.4 mb - 0.00 in0.0 mm 0.00 in0.0 mm
04:48 PM 23.2°F-4.9°C 19.1°F-7.2°C 84% 8.1 mph NW13.0 kmh NW 12.7 mph20.4 kmh 28.42 in962.4 mb - 0.00 in0.0 mm 0.00 in0.0 mm
04:49 PM 23.2°F-4.9°C 19.1°F-7.2°C 84% 5.8 mph N9.3 kmh N 9.2 mph14.8 kmh 28.43 in962.8 mb - 0.00 in0.0 mm 0.00 in0.0 mm
04:50 PM 23.2°F-4.9°C 19.1°F-7.2°C 84% 8.1 mph NNE13.0 kmh NNE 15.0 mph24.1 kmh 28.43 in962.8 mb - 0.00 in0.0 mm 0.00 in0.0 mm
04:51 PM 23.0°F-5.0°C 18.6°F-7.4°C 83% 9.2 mph NNE14.8 kmh NNE 9.2 mph14.8 kmh 28.43 in962.8 mb - 0.00 in0.0 mm 0.00 in0.0 mm
04:52 PM 23.0°F-5.0°C 18.6°F-7.4°C 83% 6.9 mph NNW11.1 kmh NNW 9.2 mph14.8 kmh 28.43 in962.8 mb - 0.00 in0.0 mm 0.00 in0.0 mm
04:53 PM 23.0°F-5.0°C 18.6°F-7.4°C 83% 5.8 mph NW9.3 kmh NW 5.8 mph9.3 kmh 28.43 in962.8 mb - 0.00 in0.0 mm 0.00 in0.0 mm
04:54 PM 23.0°F-5.0°C 18.6°F-7.4°C 83% 5.8 mph N9.3 kmh N 13.8 mph22.2 kmh 28.43 in962.8 mb - 0.00 in0.0 mm 0.00 in0.0 mm
04:55 PM 23.0°F-5.0°C 18.6°F-7.4°C 83% 8.1 mph NE13.0 kmh NE 11.5 mph18.5 kmh 28.43 in962.8 mb - 0.00 in0.0 mm 0.00 in0.0 mm
04:56 PM 23.0°F-5.0°C 18.6°F-7.4°C 83% 8.1 mph NW13.0 kmh NW 11.5 mph18.5 kmh 28.43 in962.8 mb - 0.00 in0.0 mm 0.00 in0.0 mm
04:57 PM 23.0°F-5.0°C 18.6°F-7.4°C 83% 5.8 mph WNW9.3 kmh WNW 5.8 mph9.3 kmh 28.43 in962.8 mb - 0.00 in0.0 mm 0.00 in0.0 mm
04:58 PM 23.0°F-5.0°C 18.6°F-7.4°C 83% 5.8 mph W9.3 kmh W 8.1 mph13.0 kmh 28.43 in962.8 mb - 0.00 in0.0 mm 0.00 in0.0 mm
04:59 PM 23.0°F-5.0°C 18.6°F-7.4°C 83% 5.8 mph N9.3 kmh N 5.8 mph9.3 kmh 28.43 in962.8 mb - 0.00 in0.0 mm 0.00 in0.0 mm
05:00 PM 23.0°F-5.0°C 18.6°F-7.4°C 83% 6.9 mph N11.1 kmh N 10.4 mph16.7 kmh 28.43 in962.8 mb - 0.00 in0.0 mm 0.00 in0.0 mm
05:01 PM 23.0°F-5.0°C 18.6°F-7.4°C 83% 5.8 mph NNW9.3 kmh NNW 5.8 mph9.3 kmh 28.44 in963.1 mb - 0.00 in0.0 mm 0.00 in0.0 mm
05:02 PM 23.0°F-5.0°C 18.6°F-7.4°C 83% 4.6 mph N7.4 kmh N 5.8 mph9.3 kmh 28.44 in963.1 mb - 0.00 in0.0 mm 0.00 in0.0 mm
05:03 PM 23.0°F-5.0°C 18.6°F-7.4°C 83% 5.8 mph NNE9.3 kmh NNE 8.1 mph13.0 kmh 28.44 in963.1 mb - 0.00 in0.0 mm 0.00 in0.0 mm
05:04 PM 23.0°F-5.0°C 18.6°F-7.4°C 83% 6.9 mph N11.1 kmh N 8.1 mph13.0 kmh 28.44 in963.1 mb - 0.00 in0.0 mm 0.00 in0.0 mm
05:05 PM 22.8°F-5.1°C 18.4°F-7.6°C 83% 6.9 mph N11.1 kmh N 8.1 mph13.0 kmh 28.44 in963.1 mb - 0.00 in0.0 mm 0.00 in0.0 mm
05:06 PM 22.8°F-5.1°C 18.4°F-7.6°C 83% 6.9 mph WNW11.1 kmh WNW 9.2 mph14.8 kmh 28.44 in963.1 mb - 0.00 in0.0 mm 0.00 in0.0 mm
05:07 PM 22.8°F-5.1°C 18.4°F-7.6°C 83% 4.6 mph NW7.4 kmh NW 5.8 mph9.3 kmh 28.44 in963.1 mb - 0.00 in0.0 mm 0.00 in0.0 mm
05:08 PM 22.8°F-5.1°C 18.4°F-7.6°C 83% 5.8 mph NW9.3 kmh NW 13.8 mph22.2 kmh 28.44 in963.1 mb - 0.00 in0.0 mm 0.00 in0.0 mm
05:09 PM 22.8°F-5.1°C 18.4°F-7.6°C 83% 8.1 mph NW13.0 kmh NW 6.9 mph11.1 kmh 28.44 in963.1 mb - 0.00 in0.0 mm 0.00 in0.0 mm
05:10 PM 22.8°F-5.1°C 18.4°F-7.6°C 83% 5.8 mph NNW9.3 kmh NNW 9.2 mph14.8 kmh 28.44 in963.1 mb - 0.00 in0.0 mm 0.00 in0.0 mm
05:11 PM 22.8°F-5.1°C 18.4°F-7.6°C 83% 6.9 mph NNE11.1 kmh NNE 9.2 mph14.8 kmh 28.44 in963.1 mb - 0.00 in0.0 mm 0.00 in0.0 mm
05:12 PM 22.8°F-5.1°C 18.4°F-7.6°C 83% 5.8 mph N9.3 kmh N 6.9 mph11.1 kmh 28.44 in963.1 mb - 0.00 in0.0 mm 0.00 in0.0 mm
05:13 PM 22.8°F-5.1°C 18.4°F-7.6°C 83% 5.8 mph N9.3 kmh N 6.9 mph11.1 kmh 28.44 in963.1 mb - 0.00 in0.0 mm 0.00 in0.0 mm
05:14 PM 22.8°F-5.1°C 18.4°F-7.6°C 83% 4.6 mph NNE7.4 kmh NNE 8.1 mph13.0 kmh 28.44 in963.1 mb - 0.00 in0.0 mm 0.00 in0.0 mm
05:15 PM 22.8°F-5.1°C 18.4°F-7.6°C 83% 4.6 mph NNE7.4 kmh NNE 8.1 mph13.0 kmh 28.44 in963.1 mb - 0.00 in0.0 mm 0.00 in0.0 mm
05:16 PM 22.8°F-5.1°C 18.7°F-7.4°C 84% 3.5 mph NE5.6 kmh NE 6.9 mph11.1 kmh 28.44 in963.1 mb - 0.00 in0.0 mm 0.00 in0.0 mm
05:17 PM 22.8°F-5.1°C 18.7°F-7.4°C 84% 5.8 mph NNE9.3 kmh NNE 5.8 mph9.3 kmh 28.44 in963.1 mb - 0.00 in0.0 mm 0.00 in0.0 mm
05:18 PM 22.8°F-5.1°C 18.7°F-7.4°C 84% 4.6 mph NNW7.4 kmh NNW 4.6 mph7.4 kmh 28.44 in963.1 mb - 0.00 in0.0 mm 0.00 in0.0 mm
05:19 PM 22.8°F-5.1°C 18.7°F-7.4°C 84% 3.5 mph NNE5.6 kmh NNE 5.8 mph9.3 kmh 28.44 in963.1 mb - 0.00 in0.0 mm 0.00 in0.0 mm
05:20 PM 22.8°F-5.1°C 18.7°F-7.4°C 84% 5.8 mph NW9.3 kmh NW 6.9 mph11.1 kmh 28.44 in963.1 mb - 0.00 in0.0 mm 0.00 in0.0 mm
05:21 PM 22.8°F-5.1°C 18.7°F-7.4°C 84% 4.6 mph NNW7.4 kmh NNW 5.8 mph9.3 kmh 28.44 in963.1 mb - 0.00 in0.0 mm 0.00 in0.0 mm
05:22 PM 22.8°F-5.1°C 18.7°F-7.4°C 84% 4.6 mph N7.4 kmh N 8.1 mph13.0 kmh 28.44 in963.1 mb - 0.00 in0.0 mm 0.00 in0.0 mm
05:23 PM 22.8°F-5.1°C 18.7°F-7.4°C 84% 5.8 mph N9.3 kmh N 8.1 mph13.0 kmh 28.44 in963.1 mb - 0.00 in0.0 mm 0.00 in0.0 mm
05:24 PM 22.8°F-5.1°C 18.7°F-7.4°C 84% 5.8 mph NNW9.3 kmh NNW 5.8 mph9.3 kmh 28.44 in963.1 mb - 0.00 in0.0 mm 0.00 in0.0 mm
05:25 PM 22.6°F-5.2°C 18.5°F-7.5°C 84% 4.6 mph N7.4 kmh N 5.8 mph9.3 kmh 28.44 in963.1 mb - 0.00 in0.0 mm 0.00 in0.0 mm
05:26 PM 22.6°F-5.2°C 18.5°F-7.5°C 84% 5.8 mph N9.3 kmh N 5.8 mph9.3 kmh 28.44 in963.1 mb - 0.00 in0.0 mm 0.00 in0.0 mm
05:27 PM 22.6°F-5.2°C 18.5°F-7.5°C 84% 4.6 mph WNW7.4 kmh WNW 5.8 mph9.3 kmh 28.44 in963.1 mb - 0.00 in0.0 mm 0.00 in0.0 mm
05:28 PM 22.6°F-5.2°C 18.5°F-7.5°C 84% 3.5 mph NW5.6 kmh NW 5.8 mph9.3 kmh 28.44 in963.1 mb - 0.00 in0.0 mm 0.00 in0.0 mm
05:29 PM 22.6°F-5.2°C 18.5°F-7.5°C 84% 5.8 mph NE9.3 kmh NE 10.4 mph16.7 kmh 28.44 in963.1 mb - 0.00 in0.0 mm 0.00 in0.0 mm
05:30 PM 22.6°F-5.2°C 18.4°F-7.6°C 84% 8.1 mph NNE13.0 kmh NNE 9.2 mph14.8 kmh 28.44 in963.1 mb - 0.00 in0.0 mm 0.00 in0.0 mm
05:31 PM 22.5°F-5.3°C 18.4°F-7.6°C 84% 5.8 mph N9.3 kmh N 6.9 mph11.1 kmh 28.44 in963.1 mb - 0.00 in0.0 mm 0.00 in0.0 mm
05:32 PM 22.5°F-5.3°C 18.4°F-7.6°C 84% 4.6 mph N7.4 kmh N 3.5 mph5.6 kmh 28.44 in963.1 mb - 0.00 in0.0 mm 0.00 in0.0 mm
05:33 PM 22.5°F-5.3°C 18.4°F-7.6°C 84% 3.5 mph NW5.6 kmh NW 9.2 mph14.8 kmh 28.44 in963.1 mb - 0.00 in0.0 mm 0.00 in0.0 mm
05:34 PM 22.5°F-5.3°C 18.4°F-7.6°C 84% 5.8 mph WSW9.3 kmh WSW 9.2 mph14.8 kmh 28.44 in963.1 mb - 0.00 in0.0 mm 0.00 in0.0 mm
05:35 PM 22.5°F-5.3°C 18.4°F-7.6°C 84% 4.6 mph N7.4 kmh N 10.4 mph16.7 kmh 28.44 in963.1 mb - 0.00 in0.0 mm 0.00 in0.0 mm
05:36 PM 22.5°F-5.3°C 18.4°F-7.6°C 84% 9.2 mph N14.8 kmh N 12.7 mph20.4 kmh 28.44 in963.1 mb - 0.00 in0.0 mm 0.00 in0.0 mm
05:37 PM 22.5°F-5.3°C 18.4°F-7.6°C 84% 8.1 mph N13.0 kmh N 5.8 mph9.3 kmh 28.44 in963.1 mb - 0.00 in0.0 mm 0.00 in0.0 mm
05:38 PM 22.5°F-5.3°C 18.4°F-7.6°C 84% 4.6 mph NNE7.4 kmh NNE 3.5 mph5.6 kmh 28.45 in963.4 mb - 0.00 in0.0 mm 0.00 in0.0 mm
05:39 PM 22.5°F-5.3°C 18.4°F-7.6°C 84% 3.5 mph NE5.6 kmh NE 8.1 mph13.0 kmh 28.45 in963.4 mb - 0.00 in0.0 mm 0.00 in0.0 mm
05:40 PM 22.5°F-5.3°C 18.4°F-7.6°C 84% 6.9 mph NNW11.1 kmh NNW 9.2 mph14.8 kmh 28.45 in963.4 mb - 0.00 in0.0 mm 0.00 in0.0 mm
05:41 PM 22.3°F-5.4°C 18.2°F-7.7°C 84% 6.9 mph NNW11.1 kmh NNW 5.8 mph9.3 kmh 28.45 in963.4 mb - 0.00 in0.0 mm 0.00 in0.0 mm
05:42 PM 22.3°F-5.4°C 18.2°F-7.7°C 84% 4.6 mph NNE7.4 kmh NNE 8.1 mph13.0 kmh 28.45 in963.4 mb - 0.00 in0.0 mm 0.00 in0.0 mm
05:43 PM 22.3°F-5.4°C 18.2°F-7.7°C 84% 5.8 mph NW9.3 kmh NW 8.1 mph13.0 kmh 28.45 in963.4 mb - 0.00 in0.0 mm 0.00 in0.0 mm
05:44 PM 22.3°F-5.4°C 18.2°F-7.7°C 84% 6.9 mph N11.1 kmh N 11.5 mph18.5 kmh 28.45 in963.4 mb - 0.00 in0.0 mm 0.00 in0.0 mm
05:45 PM 22.3°F-5.4°C 18.2°F-7.7°C 84% 9.2 mph N14.8 kmh N 11.5 mph18.5 kmh 28.45 in963.4 mb - 0.00 in0.0 mm 0.00 in0.0 mm
05:46 PM 22.3°F-5.4°C 18.2°F-7.7°C 84% 5.8 mph NW9.3 kmh NW 5.8 mph9.3 kmh 28.45 in963.4 mb - 0.00 in0.0 mm 0.00 in0.0 mm
05:47 PM 22.3°F-5.4°C 18.2°F-7.7°C 84% 5.8 mph NNE9.3 kmh NNE 10.4 mph16.7 kmh 28.45 in963.4 mb - 0.00 in0.0 mm 0.00 in0.0 mm
05:48 PM 22.3°F-5.4°C 18.2°F-7.7°C 84% 9.2 mph NW14.8 kmh NW 11.5 mph18.5 kmh 28.45 in963.4 mb - 0.00 in0.0 mm 0.00 in0.0 mm
05:49 PM 22.3°F-5.4°C 18.2°F-7.7°C 84% 8.1 mph NNW13.0 kmh NNW 8.1 mph13.0 kmh 28.45 in963.4 mb - 0.00 in0.0 mm 0.00 in0.0 mm
05:50 PM 22.3°F-5.4°C 18.2°F-7.7°C 84% 4.6 mph NW7.4 kmh NW 6.9 mph11.1 kmh 28.45 in963.4 mb - 0.00 in0.0 mm 0.00 in0.0 mm
05:51 PM 22.3°F-5.4°C 18.2°F-7.7°C 84% 5.8 mph NNW9.3 kmh NNW 8.1 mph13.0 kmh 28.45 in963.4 mb - 0.00 in0.0 mm 0.00 in0.0 mm
05:52 PM 22.3°F-5.4°C 18.2°F-7.7°C 84% 4.6 mph N7.4 kmh N 4.6 mph7.4 kmh 28.45 in963.4 mb - 0.00 in0.0 mm 0.00 in0.0 mm
05:53 PM 22.3°F-5.4°C 18.2°F-7.7°C 84% 4.6 mph N7.4 kmh N 10.4 mph16.7 kmh 28.45 in963.4 mb - 0.00 in0.0 mm 0.00 in0.0 mm
05:54 PM 22.3°F-5.4°C 18.2°F-7.7°C 84% 6.9 mph NE11.1 kmh NE 8.1 mph13.0 kmh 28.45 in963.4 mb - 0.00 in0.0 mm 0.00 in0.0 mm
05:55 PM 22.3°F-5.4°C 18.2°F-7.7°C 84% 4.6 mph N7.4 kmh N 12.7 mph20.4 kmh 28.45 in963.4 mb - 0.00 in0.0 mm 0.00 in0.0 mm
05:56 PM 22.2°F-5.4°C 18.1°F-7.7°C 84% 8.1 mph N13.0 kmh N 12.7 mph20.4 kmh 28.45 in963.4 mb - 0.00 in0.0 mm 0.00 in0.0 mm
05:57 PM 22.1°F-5.5°C 18.0°F-7.8°C 84% 5.8 mph NE9.3 kmh NE 5.8 mph9.3 kmh 28.45 in963.4 mb - 0.00 in0.0 mm 0.00 in0.0 mm
05:58 PM 22.1°F-5.5°C 18.0°F-7.8°C 84% 3.5 mph NW5.6 kmh NW 4.6 mph7.4 kmh 28.45 in963.4 mb - 0.00 in0.0 mm 0.00 in0.0 mm
05:59 PM 22.1°F-5.5°C 18.0°F-7.8°C 84% 3.5 mph N5.6 kmh N 3.5 mph5.6 kmh 28.45 in963.4 mb - 0.00 in0.0 mm 0.00 in0.0 mm
06:00 PM 22.1°F-5.5°C 18.0°F-7.8°C 84% 2.3 mph NE3.7 kmh NE 6.9 mph11.1 kmh 28.45 in963.4 mb - 0.00 in0.0 mm 0.00 in0.0 mm
06:01 PM 22.1°F-5.5°C 18.0°F-7.8°C 84% 4.6 mph N7.4 kmh N 6.9 mph11.1 kmh 28.45 in963.4 mb - 0.00 in0.0 mm 0.00 in0.0 mm
06:02 PM 22.1°F-5.5°C 18.0°F-7.8°C 84% 4.6 mph NNW7.4 kmh NNW 6.9 mph11.1 kmh 28.45 in963.4 mb - 0.00 in0.0 mm 0.00 in0.0 mm
06:03 PM 22.1°F-5.5°C 18.0°F-7.8°C 84% 4.6 mph NW7.4 kmh NW 6.9 mph11.1 kmh 28.45 in963.4 mb - 0.00 in0.0 mm 0.00 in0.0 mm
06:04 PM 22.1°F-5.5°C 18.0°F-7.8°C 84% 3.5 mph N5.6 kmh N 3.5 mph5.6 kmh 28.45 in963.4 mb - 0.00 in0.0 mm 0.00 in0.0 mm
06:05 PM 22.1°F-5.5°C 18.0°F-7.8°C 84% 3.5 mph NW5.6 kmh NW 5.8 mph9.3 kmh 28.45 in963.4 mb - 0.00 in0.0 mm 0.00 in0.0 mm
06:06 PM 22.1°F-5.5°C 18.0°F-7.8°C 84% 4.6 mph NNW7.4 kmh NNW 6.9 mph11.1 kmh 28.45 in963.4 mb - 0.00 in0.0 mm 0.00 in0.0 mm
06:07 PM 22.1°F-5.5°C 18.0°F-7.8°C 84% 4.6 mph NW7.4 kmh NW 4.6 mph7.4 kmh 28.45 in963.4 mb - 0.00 in0.0 mm 0.00 in0.0 mm
06:08 PM 22.1°F-5.5°C 18.3°F-7.6°C 85% 3.5 mph N5.6 kmh N 4.6 mph7.4 kmh 28.45 in963.4 mb - 0.00 in0.0 mm 0.00 in0.0 mm
06:09 PM 22.1°F-5.5°C 18.3°F-7.6°C 85% 6.9 mph W11.1 kmh W 10.4 mph16.7 kmh 28.45 in963.4 mb - 0.00 in0.0 mm 0.00 in0.0 mm
06:10 PM 22.1°F-5.5°C 18.3°F-7.6°C 85% 6.9 mph NE11.1 kmh NE 5.8 mph9.3 kmh 28.45 in963.4 mb - 0.00 in0.0 mm 0.00 in0.0 mm
06:11 PM 22.1°F-5.5°C 18.3°F-7.6°C 85% 6.9 mph NNW11.1 kmh NNW 12.7 mph20.4 kmh 28.45 in963.4 mb - 0.00 in0.0 mm 0.00 in0.0 mm
06:12 PM 22.1°F-5.5°C 18.3°F-7.6°C 85% 5.8 mph N9.3 kmh N 5.8 mph9.3 kmh 28.45 in963.4 mb - 0.00 in0.0 mm 0.00 in0.0 mm
06:13 PM 22.1°F-5.5°C 18.3°F-7.6°C 85% 5.8 mph NNW9.3 kmh NNW 8.1 mph13.0 kmh 28.45 in963.4 mb - 0.00 in0.0 mm 0.00 in0.0 mm
06:14 PM 22.1°F-5.5°C 18.3°F-7.6°C 85% 5.8 mph NW9.3 kmh NW 8.1 mph13.0 kmh 28.46 in963.8 mb - 0.00 in0.0 mm 0.00 in0.0 mm
06:15 PM 22.1°F-5.5°C 18.3°F-7.6°C 85% 6.9 mph WNW11.1 kmh WNW 8.1 mph13.0 kmh 28.46 in963.8 mb - 0.00 in0.0 mm 0.00 in0.0 mm
06:16 PM 22.1°F-5.5°C 18.3°F-7.6°C 85% 5.8 mph N9.3 kmh N 5.8 mph9.3 kmh 28.46 in963.8 mb - 0.00 in0.0 mm 0.00 in0.0 mm
06:17 PM 22.1°F-5.5°C 18.3°F-7.6°C 85% 4.6 mph N7.4 kmh N 4.6 mph7.4 kmh 28.46 in963.8 mb - 0.00 in0.0 mm 0.00 in0.0 mm
06:18 PM 22.1°F-5.5°C 18.3°F-7.6°C 85% 5.8 mph NNW9.3 kmh NNW 10.4 mph16.7 kmh 28.46 in963.8 mb - 0.00 in0.0 mm 0.00 in0.0 mm
06:19 PM 22.1°F-5.5°C 18.3°F-7.6°C 85% 4.6 mph NW7.4 kmh NW 5.8 mph9.3 kmh 28.46 in963.8 mb - 0.00 in0.0 mm 0.00 in0.0 mm
06:20 PM 22.1°F-5.5°C 18.3°F-7.6°C 85% 4.6 mph NE7.4 kmh NE 4.6 mph7.4 kmh 28.46 in963.8 mb - 0.00 in0.0 mm 0.00 in0.0 mm
06:21 PM 22.1°F-5.5°C 18.3°F-7.6°C 85% 4.6 mph NNE7.4 kmh NNE 5.8 mph9.3 kmh 28.46 in963.8 mb - 0.00 in0.0 mm 0.00 in0.0 mm
06:22 PM 22.1°F-5.5°C 18.3°F-7.6°C 85% 5.8 mph NW9.3 kmh NW 5.8 mph9.3 kmh 28.46 in963.8 mb - 0.00 in0.0 mm 0.00 in0.0 mm
06:23 PM 22.1°F-5.5°C 18.3°F-7.6°C 85% 5.8 mph N9.3 kmh N 5.8 mph9.3 kmh 28.46 in963.8 mb - 0.00 in0.0 mm 0.00 in0.0 mm
06:24 PM 22.1°F-5.5°C 18.3°F-7.6°C 85% 5.8 mph NNW9.3 kmh NNW 5.8 mph9.3 kmh 28.46 in963.8 mb - 0.00 in0.0 mm 0.00 in0.0 mm
06:25 PM 22.1°F-5.5°C 18.3°F-7.6°C 85% 4.6 mph N7.4 kmh N 5.8 mph9.3 kmh 28.46 in963.8 mb - 0.00 in0.0 mm 0.00 in0.0 mm
06:26 PM 22.0°F-5.6°C 18.2°F-7.7°C 85% 4.6 mph N7.4 kmh N 6.9 mph11.1 kmh 28.46 in963.8 mb - 0.00 in0.0 mm 0.00 in0.0 mm
06:27 PM 21.9°F-5.6°C 18.1°F-7.7°C 85% 5.8 mph NW9.3 kmh NW 9.2 mph14.8 kmh 28.46 in963.8 mb - 0.00 in0.0 mm 0.00 in0.0 mm
06:28 PM 21.9°F-5.6°C 18.1°F-7.7°C 85% 5.8 mph NW9.3 kmh NW 5.8 mph9.3 kmh 28.46 in963.8 mb - 0.00 in0.0 mm 0.00 in0.0 mm
06:29 PM 21.9°F-5.6°C 18.1°F-7.7°C 85% 6.9 mph NW11.1 kmh NW 13.8 mph22.2 kmh 28.46 in963.8 mb - 0.00 in0.0 mm 0.00 in0.0 mm
06:30 PM 21.9°F-5.6°C 18.1°F-7.7°C 85% 6.9 mph W11.1 kmh W 9.2 mph14.8 kmh 28.46 in963.8 mb - 0.00 in0.0 mm 0.00 in0.0 mm
06:31 PM 21.9°F-5.6°C 18.1°F-7.7°C 85% 6.9 mph N11.1 kmh N 8.1 mph13.0 kmh 28.46 in963.8 mb - 0.00 in0.0 mm 0.00 in0.0 mm
06:32 PM 21.9°F-5.6°C 18.1°F-7.7°C 85% 6.9 mph NW11.1 kmh NW 9.2 mph14.8 kmh 28.46 in963.8 mb - 0.00 in0.0 mm 0.00 in0.0 mm
06:33 PM 21.9°F-5.6°C 18.1°F-7.7°C 85% 8.1 mph NW13.0 kmh NW 11.5 mph18.5 kmh 28.46 in963.8 mb - 0.00 in0.0 mm 0.00 in0.0 mm
06:34 PM 21.9°F-5.6°C 18.1°F-7.7°C 85% 8.1 mph NNE13.0 kmh NNE 10.4 mph16.7 kmh 28.46 in963.8 mb - 0.00 in0.0 mm 0.00 in0.0 mm
06:35 PM 21.9°F-5.6°C 18.1°F-7.7°C 85% 6.9 mph NNE11.1 kmh NNE 8.1 mph13.0 kmh 28.46 in963.8 mb - 0.00 in0.0 mm 0.00 in0.0 mm
06:36 PM 21.9°F-5.6°C 18.1°F-7.7°C 85% 4.6 mph NNW7.4 kmh NNW 5.8 mph9.3 kmh 28.46 in963.8 mb - 0.00 in0.0 mm 0.00 in0.0 mm
06:37 PM 21.9°F-5.6°C 18.1°F-7.7°C 85% 4.6 mph NW7.4 kmh NW 4.6 mph7.4 kmh 28.46 in963.8 mb - 0.00 in0.0 mm 0.00 in0.0 mm
06:38 PM 21.9°F-5.6°C 18.1°F-7.7°C 85% 3.5 mph N5.6 kmh N 5.8 mph9.3 kmh 28.47 in964.1 mb - 0.00 in0.0 mm 0.00 in0.0 mm
06:39 PM 21.9°F-5.6°C 18.1°F-7.7°C 85% 4.6 mph NW7.4 kmh NW 5.8 mph9.3 kmh 28.47 in964.1 mb - 0.00 in0.0 mm 0.00 in0.0 mm
06:40 PM 21.9°F-5.6°C 18.1°F-7.7°C 85% 4.6 mph N7.4 kmh N 10.4 mph16.7 kmh 28.47 in964.1 mb - 0.00 in0.0 mm 0.00 in0.0 mm
06:41 PM 21.8°F-5.7°C 17.9°F-7.8°C 85% 6.9 mph NW11.1 kmh NW 10.4 mph16.7 kmh 28.47 in964.1 mb - 0.00 in0.0 mm 0.00 in0.0 mm
06:42 PM 21.7°F-5.7°C 17.9°F-7.8°C 85% 4.6 mph NNE7.4 kmh NNE 6.9 mph11.1 kmh 28.47 in964.1 mb - 0.00 in0.0 mm 0.00 in0.0 mm
06:43 PM 21.7°F-5.7°C 17.9°F-7.8°C 85% 4.6 mph N7.4 kmh N 5.8 mph9.3 kmh 28.47 in964.1 mb - 0.00 in0.0 mm 0.00 in0.0 mm
06:44 PM 21.7°F-5.7°C 17.9°F-7.8°C 85% 4.6 mph NNE7.4 kmh NNE 9.2 mph14.8 kmh 28.47 in964.1 mb - 0.00 in0.0 mm 0.00 in0.0 mm
06:45 PM 21.7°F-5.7°C 17.9°F-7.8°C 85% 6.9 mph NE11.1 kmh NE 8.1 mph13.0 kmh 28.47 in964.1 mb - 0.00 in0.0 mm 0.00 in0.0 mm
06:46 PM 21.7°F-5.7°C 17.9°F-7.8°C 85% 5.8 mph N9.3 kmh N 6.9 mph11.1 kmh 28.47 in964.1 mb - 0.00 in0.0 mm 0.00 in0.0 mm
06:47 PM 21.7°F-5.7°C 17.9°F-7.8°C 85% 5.8 mph NNE9.3 kmh NNE 5.8 mph9.3 kmh 28.47 in964.1 mb - 0.00 in0.0 mm 0.00 in0.0 mm
06:48 PM 21.7°F-5.7°C 17.9°F-7.8°C 85% 4.6 mph NNW7.4 kmh NNW 5.8 mph9.3 kmh 28.47 in964.1 mb - 0.00 in0.0 mm 0.00 in0.0 mm
06:49 PM 21.7°F-5.7°C 17.9°F-7.8°C 85% 4.6 mph NNW7.4 kmh NNW 4.6 mph7.4 kmh 28.47 in964.1 mb - 0.00 in0.0 mm 0.00 in0.0 mm
06:50 PM 21.7°F-5.7°C 17.9°F-7.8°C 85% 4.6 mph NW7.4 kmh NW 5.8 mph9.3 kmh 28.47 in964.1 mb - 0.00 in0.0 mm 0.00 in0.0 mm
06:51 PM 21.7°F-5.7°C 17.9°F-7.8°C 85% 5.8 mph NNW9.3 kmh NNW 5.8 mph9.3 kmh 28.47 in964.1 mb - 0.00 in0.0 mm 0.00 in0.0 mm
06:52 PM 21.7°F-5.7°C 17.9°F-7.8°C 85% 5.8 mph NW9.3 kmh NW 9.2 mph14.8 kmh 28.47 in964.1 mb - 0.00 in0.0 mm 0.00 in0.0 mm
06:53 PM 21.7°F-5.7°C 17.9°F-7.8°C 85% 5.8 mph NW9.3 kmh NW 5.8 mph9.3 kmh 28.47 in964.1 mb - 0.00 in0.0 mm 0.00 in0.0 mm
06:54 PM 21.7°F-5.7°C 17.9°F-7.8°C 85% 5.8 mph WNW9.3 kmh WNW 9.2 mph14.8 kmh 28.47 in964.1 mb - 0.00 in0.0 mm 0.00 in0.0 mm
06:55 PM 21.7°F-5.7°C 17.9°F-7.8°C 85% 8.1 mph NNW13.0 kmh NNW 12.7 mph20.4 kmh 28.47 in964.1 mb - 0.00 in0.0 mm 0.00 in0.0 mm
06:56 PM 21.6°F-5.8°C 17.8°F-7.9°C 85% 8.1 mph NNE13.0 kmh NNE 8.1 mph13.0 kmh 28.47 in964.1 mb - 0.00 in0.0 mm 0.00 in0.0 mm
06:57 PM 21.6°F-5.8°C 17.8°F-7.9°C 85% 5.8 mph N9.3 kmh N 8.1 mph13.0 kmh 28.47 in964.1 mb - 0.00 in0.0 mm 0.00 in0.0 mm
06:58 PM 21.6°F-5.8°C 17.8°F-7.9°C 85% 5.8 mph WNW9.3 kmh WNW 10.4 mph16.7 kmh 28.47 in964.1 mb - 0.00 in0.0 mm 0.00 in0.0 mm
06:59 PM 21.6°F-5.8°C 17.8°F-7.9°C 85% 5.8 mph NNE9.3 kmh NNE 5.8 mph9.3 kmh 28.47 in964.1 mb - 0.00 in0.0 mm 0.00 in0.0 mm
07:00 PM 21.6°F-5.8°C 17.8°F-7.9°C 85% 4.6 mph NNW7.4 kmh NNW 10.4 mph16.7 kmh 28.47 in964.1 mb - 0.00 in0.0 mm 0.00 in0.0 mm
07:01 PM 21.6°F-5.8°C 17.8°F-7.9°C 85% 6.9 mph N11.1 kmh N 8.1 mph13.0 kmh 28.47 in964.1 mb - 0.00 in0.0 mm 0.00 in0.0 mm
07:02 PM 21.6°F-5.8°C 17.8°F-7.9°C 85% 4.6 mph NW7.4 kmh NW 5.8 mph9.3 kmh 28.47 in964.1 mb - 0.00 in0.0 mm 0.00 in0.0 mm
07:03 PM 21.6°F-5.8°C 17.8°F-7.9°C 85% 4.6 mph N7.4 kmh N 9.2 mph14.8 kmh 28.47 in964.1 mb - 0.00 in0.0 mm 0.00 in0.0 mm
07:04 PM 21.6°F-5.8°C 17.8°F-7.9°C 85% 5.8 mph N9.3 kmh N 9.2 mph14.8 kmh 28.47 in964.1 mb - 0.00 in0.0 mm 0.00 in0.0 mm
07:05 PM 21.6°F-5.8°C 17.8°F-7.9°C 85% 5.8 mph NW9.3 kmh NW 9.2 mph14.8 kmh 28.47 in964.1 mb - 0.00 in0.0 mm 0.00 in0.0 mm
07:06 PM 21.6°F-5.8°C 17.8°F-7.9°C 85% 5.8 mph WSW9.3 kmh WSW 9.2 mph14.8 kmh 28.47 in964.1 mb - 0.00 in0.0 mm 0.00 in0.0 mm
07:07 PM 21.6°F-5.8°C 17.8°F-7.9°C 85% 5.8 mph N9.3 kmh N 6.9 mph11.1 kmh 28.47 in964.1 mb - 0.00 in0.0 mm 0.00 in0.0 mm
07:08 PM 21.6°F-5.8°C 17.8°F-7.9°C 85% 4.6 mph N7.4 kmh N 9.2 mph14.8 kmh 28.47 in964.1 mb - 0.00 in0.0 mm 0.00 in0.0 mm
07:09 PM 21.4°F-5.9°C 17.6°F-8.0°C 85% 6.9 mph NNW11.1 kmh NNW 10.4 mph16.7 kmh 28.47 in964.1 mb - 0.00 in0.0 mm 0.00 in0.0 mm
07:10 PM 21.4°F-5.9°C 17.6°F-8.0°C 85% 9.2 mph NW14.8 kmh NW 9.2 mph14.8 kmh 28.47 in964.1 mb - 0.00 in0.0 mm 0.00 in0.0 mm
07:11 PM 21.4°F-5.9°C 17.6°F-8.0°C 85% 8.1 mph WNW13.0 kmh WNW 9.2 mph14.8 kmh 28.47 in964.1 mb - 0.00 in0.0 mm 0.00 in0.0 mm
07:12 PM 21.4°F-5.9°C 17.6°F-8.0°C 85% 6.9 mph W11.1 kmh W 10.4 mph16.7 kmh 28.47 in964.1 mb - 0.00 in0.0 mm 0.00 in0.0 mm
07:13 PM 21.4°F-5.9°C 17.6°F-8.0°C 85% 8.1 mph N13.0 kmh N 11.5 mph18.5 kmh 28.48 in964.4 mb - 0.00 in0.0 mm 0.00 in0.0 mm
07:14 PM 21.4°F-5.9°C 17.6°F-8.0°C 85% 8.1 mph NW13.0 kmh NW 6.9 mph11.1 kmh 28.48 in964.4 mb - 0.00 in0.0 mm 0.00 in0.0 mm
07:15 PM 21.4°F-5.9°C 17.6°F-8.0°C 85% 4.6 mph N7.4 kmh N 4.6 mph7.4 kmh 28.48 in964.4 mb - 0.00 in0.0 mm 0.00 in0.0 mm
07:16 PM 21.4°F-5.9°C 17.6°F-8.0°C 85% 4.6 mph N7.4 kmh N 4.6 mph7.4 kmh 28.48 in964.4 mb - 0.00 in0.0 mm 0.00 in0.0 mm
07:17 PM 21.4°F-5.9°C 17.6°F-8.0°C 85% 4.6 mph N7.4 kmh N 4.6 mph7.4 kmh 28.48 in964.4 mb - 0.00 in0.0 mm 0.00 in0.0 mm
07:18 PM 21.4°F-5.9°C 17.6°F-8.0°C 85% 6.9 mph N11.1 kmh N 11.5 mph18.5 kmh 28.48 in964.4 mb - 0.00 in0.0 mm 0.00 in0.0 mm
07:19 PM 21.2°F-6.0°C 17.4°F-8.1°C 85% 8.1 mph N13.0 kmh N 6.9 mph11.1 kmh 28.48 in964.4 mb - 0.00 in0.0 mm 0.00 in0.0 mm
07:20 PM 21.2°F-6.0°C 17.4°F-8.1°C 85% 4.6 mph NE7.4 kmh NE 5.8 mph9.3 kmh 28.48 in964.4 mb - 0.00 in0.0 mm 0.00 in0.0 mm
07:21 PM 21.2°F-6.0°C 17.4°F-8.1°C 85% 5.8 mph NNW9.3 kmh NNW 5.8 mph9.3 kmh 28.48 in964.4 mb - 0.00 in0.0 mm 0.00 in0.0 mm
07:22 PM 21.2°F-6.0°C 17.4°F-8.1°C 85% 5.8 mph N9.3 kmh N 9.2 mph14.8 kmh 28.48 in964.4 mb - 0.00 in0.0 mm 0.00 in0.0 mm
07:23 PM 21.2°F-6.0°C 17.4°F-8.1°C 85% 8.1 mph N13.0 kmh N 8.1 mph13.0 kmh 28.48 in964.4 mb - 0.00 in0.0 mm 0.00 in0.0 mm
07:24 PM 21.2°F-6.0°C 17.4°F-8.1°C 85% 6.9 mph NNE11.1 kmh NNE 5.8 mph9.3 kmh 28.48 in964.4 mb - 0.00 in0.0 mm 0.00 in0.0 mm
07:25 PM 21.2°F-6.0°C 17.4°F-8.1°C 85% 5.8 mph N9.3 kmh N 6.9 mph11.1 kmh 28.48 in964.4 mb - 0.00 in0.0 mm 0.00 in0.0 mm
07:26 PM 21.2°F-6.0°C 17.4°F-8.1°C 85% 5.8 mph N9.3 kmh N 6.9 mph11.1 kmh 28.48 in964.4 mb - 0.00 in0.0 mm 0.00 in0.0 mm
07:27 PM 21.2°F-6.0°C 17.4°F-8.1°C 85% 5.8 mph N9.3 kmh N 6.9 mph11.1 kmh 28.48 in964.4 mb - 0.00 in0.0 mm 0.00 in0.0 mm
07:28 PM 21.2°F-6.0°C 17.4°F-8.1°C 85% 5.8 mph NNE9.3 kmh NNE 6.9 mph11.1 kmh 28.48 in964.4 mb - 0.00 in0.0 mm 0.00 in0.0 mm
07:29 PM 21.1°F-6.1°C 17.3°F-8.2°C 85% 6.9 mph ENE11.1 kmh ENE 9.2 mph14.8 kmh 28.48 in964.4 mb - 0.00 in0.0 mm 0.00 in0.0 mm
07:30 PM 21.0°F-6.1°C 17.2°F-8.2°C 85% 6.9 mph N11.1 kmh N 9.2 mph14.8 kmh 28.48 in964.4 mb - 0.00 in0.0 mm 0.00 in0.0 mm
07:31 PM 21.0°F-6.1°C 17.2°F-8.2°C 85% 6.9 mph 11.1 kmh 6.9 mph11.1 kmh 28.48 in964.4 mb - 0.00 in0.0 mm 0.00 in0.0 mm
07:32 PM 21.0°F-6.1°C 17.2°F-8.2°C 85% 6.9 mph S11.1 kmh S 10.4 mph16.7 kmh 28.48 in964.4 mb - 0.00 in0.0 mm 0.00 in0.0 mm
07:33 PM 21.0°F-6.1°C 17.2°F-8.2°C 85% 5.8 mph N9.3 kmh N 6.9 mph11.1 kmh 28.48 in964.4 mb - 0.00 in0.0 mm 0.00 in0.0 mm
07:34 PM 21.0°F-6.1°C 17.2°F-8.2°C 85% 6.9 mph N11.1 kmh N 6.9 mph11.1 kmh 28.48 in964.4 mb - 0.00 in0.0 mm 0.00 in0.0 mm
07:35 PM 21.0°F-6.1°C 17.2°F-8.2°C 85% 4.6 mph NNE7.4 kmh NNE 4.6 mph7.4 kmh 28.48 in964.4 mb - 0.00 in0.0 mm 0.00 in0.0 mm
07:36 PM 21.0°F-6.1°C 17.2°F-8.2°C 85% 4.6 mph N7.4 kmh N 6.9 mph11.1 kmh 28.48 in964.4 mb - 0.00 in0.0 mm 0.00 in0.0 mm
07:37 PM 21.0°F-6.1°C 17.2°F-8.2°C 85% 5.8 mph N9.3 kmh N 6.9 mph11.1 kmh 28.48 in964.4 mb - 0.00 in0.0 mm 0.00 in0.0 mm
07:38 PM 21.0°F-6.1°C 17.2°F-8.2°C 85% 5.8 mph NW9.3 kmh NW 8.1 mph13.0 kmh 28.49 in964.8 mb - 0.00 in0.0 mm 0.00 in0.0 mm
07:39 PM 21.0°F-6.1°C 17.2°F-8.2°C 85% 6.9 mph WNW11.1 kmh WNW 10.4 mph16.7 kmh 28.49 in964.8 mb - 0.00 in0.0 mm 0.00 in0.0 mm
07:40 PM 21.0°F-6.1°C 17.2°F-8.2°C 85% 9.2 mph N14.8 kmh N 10.4 mph16.7 kmh 28.49 in964.8 mb - 0.00 in0.0 mm 0.00 in0.0 mm
07:41 PM 20.9°F-6.2°C 17.1°F-8.3°C 85% 5.8 mph NNW9.3 kmh NNW 16.1 mph25.9 kmh 28.49 in964.8 mb - 0.00 in0.0 mm 0.00 in0.0 mm
07:42 PM 20.8°F-6.2°C 17.0°F-8.3°C 85% 8.1 mph N13.0 kmh N 16.1 mph25.9 kmh 28.49 in964.8 mb - 0.00 in0.0 mm 0.00 in0.0 mm
07:43 PM 20.8°F-6.2°C 16.7°F-8.5°C 84% 8.1 mph NW13.0 kmh NW 10.4 mph16.7 kmh 28.49 in964.8 mb - 0.00 in0.0 mm 0.00 in0.0 mm
07:44 PM 20.7°F-6.3°C 16.7°F-8.5°C 84% 6.9 mph NW11.1 kmh NW 8.1 mph13.0 kmh 28.49 in964.8 mb - 0.00 in0.0 mm 0.00 in0.0 mm
07:45 PM 20.7°F-6.3°C 16.6°F-8.6°C 84% 5.8 mph NNE9.3 kmh NNE 6.9 mph11.1 kmh 28.49 in964.8 mb - 0.00 in0.0 mm 0.00 in0.0 mm
07:46 PM 20.7°F-6.3°C 16.6°F-8.6°C 84% 5.8 mph NNW9.3 kmh NNW 10.4 mph16.7 kmh 28.49 in964.8 mb - 0.00 in0.0 mm 0.00 in0.0 mm
07:47 PM 20.7°F-6.3°C 16.6°F-8.6°C 84% 8.1 mph NNW13.0 kmh NNW 9.2 mph14.8 kmh 28.49 in964.8 mb - 0.00 in0.0 mm 0.00 in0.0 mm
07:48 PM 20.7°F-6.3°C 16.6°F-8.6°C 84% 6.9 mph NW11.1 kmh NW 9.2 mph14.8 kmh 28.49 in964.8 mb - 0.00 in0.0 mm 0.00 in0.0 mm
07:49 PM 20.7°F-6.3°C 16.6°F-8.6°C 84% 5.8 mph NE9.3 kmh NE 8.1 mph13.0 kmh 28.49 in964.8 mb - 0.00 in0.0 mm 0.00 in0.0 mm
07:50 PM 20.7°F-6.3°C 16.6°F-8.6°C 84% 6.9 mph ENE11.1 kmh ENE 6.9 mph11.1 kmh 28.49 in964.8 mb - 0.00 in0.0 mm 0.00 in0.0 mm
07:51 PM 20.7°F-6.3°C 16.6°F-8.6°C 84% 5.8 mph N9.3 kmh N 9.2 mph14.8 kmh 28.49 in964.8 mb - 0.00 in0.0 mm 0.00 in0.0 mm